<?xml version="1.0" encoding="UTF-8" standalone="no" ?>
<gpx xmlns="http://www.topografix.com/GPX/1/1" xmlns:xsi="http://www.w3.org/2001/XMLSchema-instance" xsi:schemaLocation="http://www.topografix.com/GPX/1/1 http://www.topografix.com/GPX/1/1/gpx.xsd" version="1.1" creator="VisuGPX - https://www.visugpx.com">
  <metadata>
    <name>randonnée vtt voie verte </name>
    <desc><![CDATA[rando en vtt voie verte très agréable sol sable tassé a faire en famille niveau facile ne pas sortir de la voie verte pour les débutants]]></desc>
  </metadata>
  <trk>
    <name><![CDATA[27/09/2018 14:13:40 001]]></name>
    <trkseg>
      <trkpt lat="43.59643" lon="3.12767">
        <ele>208.80000305176</ele>
        <time>2018-09-27T12:13:40Z</time>
      </trkpt>
      <trkpt lat="43.59649" lon="3.1276">
        <ele>210.19999694824</ele>
        <time>2018-09-27T12:13:46Z</time>
      </trkpt>
      <trkpt lat="43.59651" lon="3.12686">
        <ele>209</ele>
        <time>2018-09-27T12:14:00Z</time>
      </trkpt>
      <trkpt lat="43.59654" lon="3.12677">
        <ele>207.19999694824</ele>
        <time>2018-09-27T12:14:02Z</time>
      </trkpt>
      <trkpt lat="43.59653" lon="3.12646">
        <ele>206.19999694824</ele>
        <time>2018-09-27T12:14:08Z</time>
      </trkpt>
      <trkpt lat="43.59647" lon="3.12571">
        <ele>205.39999389648</ele>
        <time>2018-09-27T12:14:25Z</time>
      </trkpt>
      <trkpt lat="43.59647" lon="3.12567">
        <ele>205.39999389648</ele>
        <time>2018-09-27T12:14:26Z</time>
      </trkpt>
      <trkpt lat="43.59641" lon="3.12491">
        <ele>204.80000305176</ele>
        <time>2018-09-27T12:14:44Z</time>
      </trkpt>
      <trkpt lat="43.59635" lon="3.12417">
        <ele>204.60000610352</ele>
        <time>2018-09-27T12:14:59Z</time>
      </trkpt>
      <trkpt lat="43.59628" lon="3.12341">
        <ele>204.80000305176</ele>
        <time>2018-09-27T12:15:14Z</time>
      </trkpt>
      <trkpt lat="43.59622" lon="3.12265">
        <ele>205.39999389648</ele>
        <time>2018-09-27T12:15:30Z</time>
      </trkpt>
      <trkpt lat="43.59616" lon="3.1219">
        <ele>205.80000305176</ele>
        <time>2018-09-27T12:15:45Z</time>
      </trkpt>
      <trkpt lat="43.59612" lon="3.12148">
        <ele>205.19999694824</ele>
        <time>2018-09-27T12:15:53Z</time>
      </trkpt>
      <trkpt lat="43.5961" lon="3.12122">
        <ele>204.80000305176</ele>
        <time>2018-09-27T12:15:58Z</time>
      </trkpt>
      <trkpt lat="43.59602" lon="3.12045">
        <ele>204.60000610352</ele>
        <time>2018-09-27T12:16:13Z</time>
      </trkpt>
      <trkpt lat="43.59595" lon="3.11968">
        <ele>204.80000305176</ele>
        <time>2018-09-27T12:16:28Z</time>
      </trkpt>
      <trkpt lat="43.59589" lon="3.11893">
        <ele>205.19999694824</ele>
        <time>2018-09-27T12:16:43Z</time>
      </trkpt>
      <trkpt lat="43.59582" lon="3.11817">
        <ele>205.19999694824</ele>
        <time>2018-09-27T12:16:59Z</time>
      </trkpt>
      <trkpt lat="43.59575" lon="3.11742">
        <ele>205.80000305176</ele>
        <time>2018-09-27T12:17:15Z</time>
      </trkpt>
      <trkpt lat="43.59568" lon="3.11668">
        <ele>206</ele>
        <time>2018-09-27T12:17:31Z</time>
      </trkpt>
      <trkpt lat="43.59562" lon="3.11593">
        <ele>207</ele>
        <time>2018-09-27T12:17:53Z</time>
      </trkpt>
      <trkpt lat="43.59558" lon="3.1157">
        <ele>207.80000305176</ele>
        <time>2018-09-27T12:18:01Z</time>
      </trkpt>
      <trkpt lat="43.59553" lon="3.11558">
        <ele>207.80000305176</ele>
        <time>2018-09-27T12:18:05Z</time>
      </trkpt>
      <trkpt lat="43.5955" lon="3.11542">
        <ele>207.80000305176</ele>
        <time>2018-09-27T12:18:08Z</time>
      </trkpt>
      <trkpt lat="43.59533" lon="3.1147">
        <ele>207.39999389648</ele>
        <time>2018-09-27T12:18:23Z</time>
      </trkpt>
      <trkpt lat="43.59519" lon="3.11395">
        <ele>207.39999389648</ele>
        <time>2018-09-27T12:18:38Z</time>
      </trkpt>
      <trkpt lat="43.59501" lon="3.1132">
        <ele>207.80000305176</ele>
        <time>2018-09-27T12:18:54Z</time>
      </trkpt>
      <trkpt lat="43.59481" lon="3.11252">
        <ele>208</ele>
        <time>2018-09-27T12:19:12Z</time>
      </trkpt>
      <trkpt lat="43.59466" lon="3.11251">
        <ele>208.19999694824</ele>
        <time>2018-09-27T12:19:21Z</time>
      </trkpt>
      <trkpt lat="43.59463" lon="3.11247">
        <ele>208.39999389648</ele>
        <time>2018-09-27T12:19:25Z</time>
      </trkpt>
      <trkpt lat="43.59463" lon="3.11235">
        <ele>208.39999389648</ele>
        <time>2018-09-27T12:20:08Z</time>
      </trkpt>
      <trkpt lat="43.59472" lon="3.11217">
        <ele>208.39999389648</ele>
        <time>2018-09-27T12:20:19Z</time>
      </trkpt>
      <trkpt lat="43.59461" lon="3.11165">
        <ele>207.80000305176</ele>
        <time>2018-09-27T12:20:31Z</time>
      </trkpt>
      <trkpt lat="43.59442" lon="3.11094">
        <ele>208.19999694824</ele>
        <time>2018-09-27T12:20:47Z</time>
      </trkpt>
      <trkpt lat="43.59417" lon="3.11025">
        <ele>208.19999694824</ele>
        <time>2018-09-27T12:21:02Z</time>
      </trkpt>
      <trkpt lat="43.59411" lon="3.11006">
        <ele>208</ele>
        <time>2018-09-27T12:21:06Z</time>
      </trkpt>
      <trkpt lat="43.59388" lon="3.10936">
        <ele>207.80000305176</ele>
        <time>2018-09-27T12:21:21Z</time>
      </trkpt>
      <trkpt lat="43.59364" lon="3.10867">
        <ele>208</ele>
        <time>2018-09-27T12:21:37Z</time>
      </trkpt>
      <trkpt lat="43.59339" lon="3.10798">
        <ele>207.80000305176</ele>
        <time>2018-09-27T12:21:51Z</time>
      </trkpt>
      <trkpt lat="43.59316" lon="3.1073">
        <ele>207.60000610352</ele>
        <time>2018-09-27T12:22:06Z</time>
      </trkpt>
      <trkpt lat="43.59296" lon="3.10659">
        <ele>208</ele>
        <time>2018-09-27T12:22:21Z</time>
      </trkpt>
      <trkpt lat="43.5928" lon="3.10586">
        <ele>208.19999694824</ele>
        <time>2018-09-27T12:22:36Z</time>
      </trkpt>
      <trkpt lat="43.59267" lon="3.10514">
        <ele>208.39999389648</ele>
        <time>2018-09-27T12:22:51Z</time>
      </trkpt>
      <trkpt lat="43.59258" lon="3.10462">
        <ele>208.19999694824</ele>
        <time>2018-09-27T12:23:02Z</time>
      </trkpt>
      <trkpt lat="43.59247" lon="3.10388">
        <ele>208.19999694824</ele>
        <time>2018-09-27T12:23:17Z</time>
      </trkpt>
      <trkpt lat="43.59233" lon="3.10316">
        <ele>208.19999694824</ele>
        <time>2018-09-27T12:23:32Z</time>
      </trkpt>
      <trkpt lat="43.59213" lon="3.10243">
        <ele>208</ele>
        <time>2018-09-27T12:23:47Z</time>
      </trkpt>
      <trkpt lat="43.59191" lon="3.10183">
        <ele>208</ele>
        <time>2018-09-27T12:24:00Z</time>
      </trkpt>
      <trkpt lat="43.59159" lon="3.10117">
        <ele>207.80000305176</ele>
        <time>2018-09-27T12:24:15Z</time>
      </trkpt>
      <trkpt lat="43.59121" lon="3.1006">
        <ele>208</ele>
        <time>2018-09-27T12:24:30Z</time>
      </trkpt>
      <trkpt lat="43.59081" lon="3.10009">
        <ele>207.80000305176</ele>
        <time>2018-09-27T12:24:44Z</time>
      </trkpt>
      <trkpt lat="43.59036" lon="3.0996">
        <ele>208</ele>
        <time>2018-09-27T12:24:59Z</time>
      </trkpt>
      <trkpt lat="43.58994" lon="3.0991">
        <ele>208.39999389648</ele>
        <time>2018-09-27T12:25:14Z</time>
      </trkpt>
      <trkpt lat="43.58952" lon="3.09858">
        <ele>208</ele>
        <time>2018-09-27T12:25:29Z</time>
      </trkpt>
      <trkpt lat="43.58934" lon="3.09834">
        <ele>207.80000305176</ele>
        <time>2018-09-27T12:25:36Z</time>
      </trkpt>
      <trkpt lat="43.58901" lon="3.09772">
        <ele>208.19999694824</ele>
        <time>2018-09-27T12:25:51Z</time>
      </trkpt>
      <trkpt lat="43.58878" lon="3.09699">
        <ele>208.39999389648</ele>
        <time>2018-09-27T12:26:05Z</time>
      </trkpt>
      <trkpt lat="43.58866" lon="3.09622">
        <ele>208.19999694824</ele>
        <time>2018-09-27T12:26:19Z</time>
      </trkpt>
      <trkpt lat="43.58868" lon="3.09547">
        <ele>208.60000610352</ele>
        <time>2018-09-27T12:26:33Z</time>
      </trkpt>
      <trkpt lat="43.58878" lon="3.09469">
        <ele>209</ele>
        <time>2018-09-27T12:26:48Z</time>
      </trkpt>
      <trkpt lat="43.58888" lon="3.09393">
        <ele>208.80000305176</ele>
        <time>2018-09-27T12:27:04Z</time>
      </trkpt>
      <trkpt lat="43.58894" lon="3.09318">
        <ele>209.39999389648</ele>
        <time>2018-09-27T12:27:18Z</time>
      </trkpt>
      <trkpt lat="43.58889" lon="3.09239">
        <ele>209</ele>
        <time>2018-09-27T12:27:32Z</time>
      </trkpt>
      <trkpt lat="43.58883" lon="3.09162">
        <ele>208.60000610352</ele>
        <time>2018-09-27T12:27:46Z</time>
      </trkpt>
      <trkpt lat="43.58875" lon="3.09087">
        <ele>208.60000610352</ele>
        <time>2018-09-27T12:28:00Z</time>
      </trkpt>
      <trkpt lat="43.58868" lon="3.09009">
        <ele>208.80000305176</ele>
        <time>2018-09-27T12:28:15Z</time>
      </trkpt>
      <trkpt lat="43.58859" lon="3.08932">
        <ele>209.39999389648</ele>
        <time>2018-09-27T12:28:30Z</time>
      </trkpt>
      <trkpt lat="43.58846" lon="3.08854">
        <ele>208.80000305176</ele>
        <time>2018-09-27T12:28:44Z</time>
      </trkpt>
      <trkpt lat="43.58837" lon="3.08814">
        <ele>208.60000610352</ele>
        <time>2018-09-27T12:28:51Z</time>
      </trkpt>
      <trkpt lat="43.58817" lon="3.08739">
        <ele>208</ele>
        <time>2018-09-27T12:29:04Z</time>
      </trkpt>
      <trkpt lat="43.58809" lon="3.0871">
        <ele>207.80000305176</ele>
        <time>2018-09-27T12:29:09Z</time>
      </trkpt>
      <trkpt lat="43.588" lon="3.0867">
        <ele>207.19999694824</ele>
        <time>2018-09-27T12:29:16Z</time>
      </trkpt>
      <trkpt lat="43.58793" lon="3.08628">
        <ele>206.80000305176</ele>
        <time>2018-09-27T12:29:23Z</time>
      </trkpt>
      <trkpt lat="43.58792" lon="3.08622">
        <ele>206.80000305176</ele>
        <time>2018-09-27T12:29:24Z</time>
      </trkpt>
      <trkpt lat="43.58786" lon="3.08586">
        <ele>206.80000305176</ele>
        <time>2018-09-27T12:29:30Z</time>
      </trkpt>
      <trkpt lat="43.58777" lon="3.0851">
        <ele>206.19999694824</ele>
        <time>2018-09-27T12:29:42Z</time>
      </trkpt>
      <trkpt lat="43.58774" lon="3.08477">
        <ele>205.80000305176</ele>
        <time>2018-09-27T12:29:47Z</time>
      </trkpt>
      <trkpt lat="43.58768" lon="3.08397">
        <ele>205</ele>
        <time>2018-09-27T12:29:59Z</time>
      </trkpt>
      <trkpt lat="43.58764" lon="3.08322">
        <ele>205</ele>
        <time>2018-09-27T12:30:13Z</time>
      </trkpt>
      <trkpt lat="43.5876" lon="3.08247">
        <ele>204.80000305176</ele>
        <time>2018-09-27T12:30:31Z</time>
      </trkpt>
      <trkpt lat="43.5876" lon="3.08171">
        <ele>204.80000305176</ele>
        <time>2018-09-27T12:30:46Z</time>
      </trkpt>
      <trkpt lat="43.5877" lon="3.08095">
        <ele>205.19999694824</ele>
        <time>2018-09-27T12:31:00Z</time>
      </trkpt>
      <trkpt lat="43.58787" lon="3.08019">
        <ele>205</ele>
        <time>2018-09-27T12:31:14Z</time>
      </trkpt>
      <trkpt lat="43.58796" lon="3.07985">
        <ele>205</ele>
        <time>2018-09-27T12:31:20Z</time>
      </trkpt>
      <trkpt lat="43.58815" lon="3.07912">
        <ele>204.60000610352</ele>
        <time>2018-09-27T12:31:33Z</time>
      </trkpt>
      <trkpt lat="43.58829" lon="3.07836">
        <ele>204.80000305176</ele>
        <time>2018-09-27T12:31:47Z</time>
      </trkpt>
      <trkpt lat="43.58829" lon="3.07825">
        <ele>204.80000305176</ele>
        <time>2018-09-27T12:31:49Z</time>
      </trkpt>
      <trkpt lat="43.58831" lon="3.0775">
        <ele>204.60000610352</ele>
        <time>2018-09-27T12:32:02Z</time>
      </trkpt>
      <trkpt lat="43.58831" lon="3.07725">
        <ele>204.60000610352</ele>
        <time>2018-09-27T12:32:06Z</time>
      </trkpt>
      <trkpt lat="43.5883" lon="3.07647">
        <ele>204.60000610352</ele>
        <time>2018-09-27T12:32:19Z</time>
      </trkpt>
      <trkpt lat="43.58828" lon="3.07623">
        <ele>204.39999389648</ele>
        <time>2018-09-27T12:32:23Z</time>
      </trkpt>
      <trkpt lat="43.58824" lon="3.07581">
        <ele>204.19999694824</ele>
        <time>2018-09-27T12:32:30Z</time>
      </trkpt>
      <trkpt lat="43.58812" lon="3.07507">
        <ele>203.60000610352</ele>
        <time>2018-09-27T12:32:43Z</time>
      </trkpt>
      <trkpt lat="43.588" lon="3.07455">
        <ele>203.60000610352</ele>
        <time>2018-09-27T12:32:52Z</time>
      </trkpt>
      <trkpt lat="43.58776" lon="3.07387">
        <ele>203.39999389648</ele>
        <time>2018-09-27T12:33:06Z</time>
      </trkpt>
      <trkpt lat="43.5875" lon="3.07322">
        <ele>203.60000610352</ele>
        <time>2018-09-27T12:33:20Z</time>
      </trkpt>
      <trkpt lat="43.58741" lon="3.07307">
        <ele>203.60000610352</ele>
        <time>2018-09-27T12:33:24Z</time>
      </trkpt>
      <trkpt lat="43.58704" lon="3.07248">
        <ele>204</ele>
        <time>2018-09-27T12:33:38Z</time>
      </trkpt>
      <trkpt lat="43.58665" lon="3.07193">
        <ele>204.19999694824</ele>
        <time>2018-09-27T12:33:50Z</time>
      </trkpt>
      <trkpt lat="43.58629" lon="3.07147">
        <ele>204.19999694824</ele>
        <time>2018-09-27T12:34:00Z</time>
      </trkpt>
      <trkpt lat="43.58603" lon="3.07105">
        <ele>204.39999389648</ele>
        <time>2018-09-27T12:34:09Z</time>
      </trkpt>
      <trkpt lat="43.5857" lon="3.07046">
        <ele>204.39999389648</ele>
        <time>2018-09-27T12:34:21Z</time>
      </trkpt>
      <trkpt lat="43.58541" lon="3.06982">
        <ele>204.60000610352</ele>
        <time>2018-09-27T12:34:34Z</time>
      </trkpt>
      <trkpt lat="43.5851" lon="3.0692">
        <ele>204.39999389648</ele>
        <time>2018-09-27T12:34:46Z</time>
      </trkpt>
      <trkpt lat="43.58479" lon="3.06856">
        <ele>204.19999694824</ele>
        <time>2018-09-27T12:34:58Z</time>
      </trkpt>
      <trkpt lat="43.5845" lon="3.06792">
        <ele>204.60000610352</ele>
        <time>2018-09-27T12:35:10Z</time>
      </trkpt>
      <trkpt lat="43.58418" lon="3.06728">
        <ele>204.60000610352</ele>
        <time>2018-09-27T12:35:22Z</time>
      </trkpt>
      <trkpt lat="43.58384" lon="3.06668">
        <ele>204.39999389648</ele>
        <time>2018-09-27T12:35:34Z</time>
      </trkpt>
      <trkpt lat="43.58347" lon="3.06611">
        <ele>204.39999389648</ele>
        <time>2018-09-27T12:35:47Z</time>
      </trkpt>
      <trkpt lat="43.58305" lon="3.06561">
        <ele>204.39999389648</ele>
        <time>2018-09-27T12:36:00Z</time>
      </trkpt>
      <trkpt lat="43.58263" lon="3.06512">
        <ele>204.39999389648</ele>
        <time>2018-09-27T12:36:13Z</time>
      </trkpt>
      <trkpt lat="43.58219" lon="3.06469">
        <ele>204.80000305176</ele>
        <time>2018-09-27T12:36:27Z</time>
      </trkpt>
      <trkpt lat="43.58193" lon="3.06423">
        <ele>205</ele>
        <time>2018-09-27T12:36:39Z</time>
      </trkpt>
      <trkpt lat="43.58153" lon="3.06367">
        <ele>204.80000305176</ele>
        <time>2018-09-27T12:36:52Z</time>
      </trkpt>
      <trkpt lat="43.58123" lon="3.06304">
        <ele>204.39999389648</ele>
        <time>2018-09-27T12:37:03Z</time>
      </trkpt>
      <trkpt lat="43.58113" lon="3.06274">
        <ele>204.19999694824</ele>
        <time>2018-09-27T12:37:08Z</time>
      </trkpt>
      <trkpt lat="43.5809" lon="3.06203">
        <ele>204.60000610352</ele>
        <time>2018-09-27T12:37:20Z</time>
      </trkpt>
      <trkpt lat="43.58071" lon="3.06131">
        <ele>204.60000610352</ele>
        <time>2018-09-27T12:37:32Z</time>
      </trkpt>
      <trkpt lat="43.58059" lon="3.06058">
        <ele>204.60000610352</ele>
        <time>2018-09-27T12:37:44Z</time>
      </trkpt>
      <trkpt lat="43.58048" lon="3.05983">
        <ele>204.80000305176</ele>
        <time>2018-09-27T12:37:56Z</time>
      </trkpt>
      <trkpt lat="43.58037" lon="3.05928">
        <ele>204.39999389648</ele>
        <time>2018-09-27T12:38:05Z</time>
      </trkpt>
      <trkpt lat="43.58028" lon="3.05894">
        <ele>203.39999389648</ele>
        <time>2018-09-27T12:38:11Z</time>
      </trkpt>
      <trkpt lat="43.58006" lon="3.0582">
        <ele>202.80000305176</ele>
        <time>2018-09-27T12:38:24Z</time>
      </trkpt>
      <trkpt lat="43.5798" lon="3.05751">
        <ele>202.80000305176</ele>
        <time>2018-09-27T12:38:36Z</time>
      </trkpt>
      <trkpt lat="43.57954" lon="3.0568">
        <ele>202.80000305176</ele>
        <time>2018-09-27T12:38:49Z</time>
      </trkpt>
      <trkpt lat="43.57948" lon="3.05658">
        <ele>202.60000610352</ele>
        <time>2018-09-27T12:38:53Z</time>
      </trkpt>
      <trkpt lat="43.5793" lon="3.05586">
        <ele>202.19999694824</ele>
        <time>2018-09-27T12:39:06Z</time>
      </trkpt>
      <trkpt lat="43.57916" lon="3.05511">
        <ele>201.80000305176</ele>
        <time>2018-09-27T12:39:19Z</time>
      </trkpt>
      <trkpt lat="43.57903" lon="3.05436">
        <ele>201.80000305176</ele>
        <time>2018-09-27T12:39:32Z</time>
      </trkpt>
      <trkpt lat="43.57889" lon="3.05358">
        <ele>202.60000610352</ele>
        <time>2018-09-27T12:39:45Z</time>
      </trkpt>
      <trkpt lat="43.57871" lon="3.05286">
        <ele>202.60000610352</ele>
        <time>2018-09-27T12:39:58Z</time>
      </trkpt>
      <trkpt lat="43.57846" lon="3.05218">
        <ele>202.80000305176</ele>
        <time>2018-09-27T12:40:11Z</time>
      </trkpt>
      <trkpt lat="43.57815" lon="3.05151">
        <ele>203</ele>
        <time>2018-09-27T12:40:24Z</time>
      </trkpt>
      <trkpt lat="43.57783" lon="3.0509">
        <ele>202.80000305176</ele>
        <time>2018-09-27T12:40:36Z</time>
      </trkpt>
      <trkpt lat="43.57752" lon="3.05024">
        <ele>202.60000610352</ele>
        <time>2018-09-27T12:40:49Z</time>
      </trkpt>
      <trkpt lat="43.57728" lon="3.04957">
        <ele>202.80000305176</ele>
        <time>2018-09-27T12:41:01Z</time>
      </trkpt>
      <trkpt lat="43.57711" lon="3.04883">
        <ele>202.60000610352</ele>
        <time>2018-09-27T12:41:15Z</time>
      </trkpt>
      <trkpt lat="43.57699" lon="3.04807">
        <ele>203</ele>
        <time>2018-09-27T12:41:27Z</time>
      </trkpt>
      <trkpt lat="43.57693" lon="3.0473">
        <ele>203.19999694824</ele>
        <time>2018-09-27T12:41:40Z</time>
      </trkpt>
      <trkpt lat="43.57698" lon="3.04651">
        <ele>203.60000610352</ele>
        <time>2018-09-27T12:41:53Z</time>
      </trkpt>
      <trkpt lat="43.57706" lon="3.04577">
        <ele>203.60000610352</ele>
        <time>2018-09-27T12:42:05Z</time>
      </trkpt>
      <trkpt lat="43.57724" lon="3.045">
        <ele>203</ele>
        <time>2018-09-27T12:42:17Z</time>
      </trkpt>
      <trkpt lat="43.57745" lon="3.0443">
        <ele>202.60000610352</ele>
        <time>2018-09-27T12:42:29Z</time>
      </trkpt>
      <trkpt lat="43.5775" lon="3.04412">
        <ele>202.39999389648</ele>
        <time>2018-09-27T12:42:32Z</time>
      </trkpt>
      <trkpt lat="43.57755" lon="3.04394">
        <ele>202.39999389648</ele>
        <time>2018-09-27T12:42:35Z</time>
      </trkpt>
      <trkpt lat="43.5777" lon="3.04345">
        <ele>202</ele>
        <time>2018-09-27T12:42:43Z</time>
      </trkpt>
      <trkpt lat="43.5779" lon="3.04272">
        <ele>201.60000610352</ele>
        <time>2018-09-27T12:42:54Z</time>
      </trkpt>
      <trkpt lat="43.57811" lon="3.04201">
        <ele>201.19999694824</ele>
        <time>2018-09-27T12:43:06Z</time>
      </trkpt>
      <trkpt lat="43.57834" lon="3.04128">
        <ele>201.39999389648</ele>
        <time>2018-09-27T12:43:18Z</time>
      </trkpt>
      <trkpt lat="43.57859" lon="3.0406">
        <ele>201.39999389648</ele>
        <time>2018-09-27T12:43:32Z</time>
      </trkpt>
      <trkpt lat="43.57873" lon="3.03988">
        <ele>200.80000305176</ele>
        <time>2018-09-27T12:43:57Z</time>
      </trkpt>
      <trkpt lat="43.57884" lon="3.03958">
        <ele>200.80000305176</ele>
        <time>2018-09-27T12:44:08Z</time>
      </trkpt>
      <trkpt lat="43.57905" lon="3.03889">
        <ele>200.39999389648</ele>
        <time>2018-09-27T12:44:18Z</time>
      </trkpt>
      <trkpt lat="43.57916" lon="3.03854">
        <ele>199.80000305176</ele>
        <time>2018-09-27T12:44:23Z</time>
      </trkpt>
      <trkpt lat="43.57938" lon="3.03783">
        <ele>199.80000305176</ele>
        <time>2018-09-27T12:44:36Z</time>
      </trkpt>
      <trkpt lat="43.5796" lon="3.03713">
        <ele>199.80000305176</ele>
        <time>2018-09-27T12:44:49Z</time>
      </trkpt>
      <trkpt lat="43.57975" lon="3.03659">
        <ele>200</ele>
        <time>2018-09-27T12:44:59Z</time>
      </trkpt>
      <trkpt lat="43.5799" lon="3.03589">
        <ele>200.19999694824</ele>
        <time>2018-09-27T12:45:11Z</time>
      </trkpt>
      <trkpt lat="43.57999" lon="3.03515">
        <ele>200.19999694824</ele>
        <time>2018-09-27T12:45:23Z</time>
      </trkpt>
      <trkpt lat="43.58006" lon="3.0344">
        <ele>200.39999389648</ele>
        <time>2018-09-27T12:45:36Z</time>
      </trkpt>
      <trkpt lat="43.58007" lon="3.0341">
        <ele>200.39999389648</ele>
        <time>2018-09-27T12:45:41Z</time>
      </trkpt>
      <trkpt lat="43.58008" lon="3.03331">
        <ele>201</ele>
        <time>2018-09-27T12:45:55Z</time>
      </trkpt>
      <trkpt lat="43.58003" lon="3.03262">
        <ele>201.80000305176</ele>
        <time>2018-09-27T12:46:06Z</time>
      </trkpt>
      <trkpt lat="43.57996" lon="3.03197">
        <ele>202.80000305176</ele>
        <time>2018-09-27T12:46:17Z</time>
      </trkpt>
      <trkpt lat="43.57983" lon="3.03123">
        <ele>203.60000610352</ele>
        <time>2018-09-27T12:46:30Z</time>
      </trkpt>
      <trkpt lat="43.5798" lon="3.03109">
        <ele>203.80000305176</ele>
        <time>2018-09-27T12:46:33Z</time>
      </trkpt>
      <trkpt lat="43.57962" lon="3.03038">
        <ele>204.60000610352</ele>
        <time>2018-09-27T12:46:48Z</time>
      </trkpt>
      <trkpt lat="43.57939" lon="3.02969">
        <ele>205.19999694824</ele>
        <time>2018-09-27T12:47:02Z</time>
      </trkpt>
      <trkpt lat="43.57907" lon="3.02902">
        <ele>205.80000305176</ele>
        <time>2018-09-27T12:47:15Z</time>
      </trkpt>
      <trkpt lat="43.57886" lon="3.02864">
        <ele>206.39999389648</ele>
        <time>2018-09-27T12:47:23Z</time>
      </trkpt>
      <trkpt lat="43.5785" lon="3.02808">
        <ele>206.80000305176</ele>
        <time>2018-09-27T12:47:35Z</time>
      </trkpt>
      <trkpt lat="43.57825" lon="3.02771">
        <ele>207.39999389648</ele>
        <time>2018-09-27T12:47:43Z</time>
      </trkpt>
      <trkpt lat="43.57787" lon="3.02715">
        <ele>208</ele>
        <time>2018-09-27T12:47:56Z</time>
      </trkpt>
      <trkpt lat="43.5778" lon="3.02706">
        <ele>208</ele>
        <time>2018-09-27T12:47:58Z</time>
      </trkpt>
      <trkpt lat="43.57758" lon="3.02668">
        <ele>208</ele>
        <time>2018-09-27T12:48:06Z</time>
      </trkpt>
      <trkpt lat="43.57746" lon="3.02649">
        <ele>208.60000610352</ele>
        <time>2018-09-27T12:48:11Z</time>
      </trkpt>
      <trkpt lat="43.57708" lon="3.02595">
        <ele>208.80000305176</ele>
        <time>2018-09-27T12:48:23Z</time>
      </trkpt>
      <trkpt lat="43.57581" lon="3.02414">
        <ele>208.60000610352</ele>
        <time>2018-09-27T12:48:58Z</time>
      </trkpt>
      <trkpt lat="43.57543" lon="3.02356">
        <ele>208</ele>
        <time>2018-09-27T12:49:10Z</time>
      </trkpt>
      <trkpt lat="43.57525" lon="3.0233">
        <ele>207.60000610352</ele>
        <time>2018-09-27T12:49:16Z</time>
      </trkpt>
      <trkpt lat="43.5749" lon="3.02277">
        <ele>206.80000305176</ele>
        <time>2018-09-27T12:49:28Z</time>
      </trkpt>
      <trkpt lat="43.57481" lon="3.02264">
        <ele>206.60000610352</ele>
        <time>2018-09-27T12:49:31Z</time>
      </trkpt>
      <trkpt lat="43.57444" lon="3.02209">
        <ele>206</ele>
        <time>2018-09-27T12:49:44Z</time>
      </trkpt>
      <trkpt lat="43.57429" lon="3.02185">
        <ele>205.60000610352</ele>
        <time>2018-09-27T12:49:49Z</time>
      </trkpt>
      <trkpt lat="43.57419" lon="3.0217">
        <ele>205.39999389648</ele>
        <time>2018-09-27T12:49:52Z</time>
      </trkpt>
      <trkpt lat="43.57398" lon="3.02136">
        <ele>204.80000305176</ele>
        <time>2018-09-27T12:49:59Z</time>
      </trkpt>
      <trkpt lat="43.57369" lon="3.02073">
        <ele>204.19999694824</ele>
        <time>2018-09-27T12:50:12Z</time>
      </trkpt>
      <trkpt lat="43.57357" lon="3.02041">
        <ele>203.80000305176</ele>
        <time>2018-09-27T12:50:18Z</time>
      </trkpt>
      <trkpt lat="43.5734" lon="3.01967">
        <ele>203.39999389648</ele>
        <time>2018-09-27T12:50:31Z</time>
      </trkpt>
      <trkpt lat="43.57333" lon="3.01912">
        <ele>203</ele>
        <time>2018-09-27T12:50:40Z</time>
      </trkpt>
      <trkpt lat="43.57329" lon="3.01832">
        <ele>202.39999389648</ele>
        <time>2018-09-27T12:50:52Z</time>
      </trkpt>
      <trkpt lat="43.57327" lon="3.01804">
        <ele>202.19999694824</ele>
        <time>2018-09-27T12:50:56Z</time>
      </trkpt>
      <trkpt lat="43.57326" lon="3.01782">
        <ele>202</ele>
        <time>2018-09-27T12:50:59Z</time>
      </trkpt>
      <trkpt lat="43.57329" lon="3.01728">
        <ele>201.60000610352</ele>
        <time>2018-09-27T12:51:07Z</time>
      </trkpt>
      <trkpt lat="43.57339" lon="3.01674">
        <ele>200.80000305176</ele>
        <time>2018-09-27T12:51:15Z</time>
      </trkpt>
      <trkpt lat="43.57357" lon="3.01602">
        <ele>200.39999389648</ele>
        <time>2018-09-27T12:51:26Z</time>
      </trkpt>
      <trkpt lat="43.57368" lon="3.01571">
        <ele>200</ele>
        <time>2018-09-27T12:51:31Z</time>
      </trkpt>
      <trkpt lat="43.5739" lon="3.01511">
        <ele>199</ele>
        <time>2018-09-27T12:51:41Z</time>
      </trkpt>
      <trkpt lat="43.57417" lon="3.01441">
        <ele>198.39999389648</ele>
        <time>2018-09-27T12:51:53Z</time>
      </trkpt>
      <trkpt lat="43.57426" lon="3.01417">
        <ele>198.19999694824</ele>
        <time>2018-09-27T12:51:57Z</time>
      </trkpt>
      <trkpt lat="43.57442" lon="3.01376">
        <ele>198.19999694824</ele>
        <time>2018-09-27T12:52:04Z</time>
      </trkpt>
      <trkpt lat="43.57469" lon="3.01307">
        <ele>197.80000305176</ele>
        <time>2018-09-27T12:52:16Z</time>
      </trkpt>
      <trkpt lat="43.57491" lon="3.01238">
        <ele>197.60000610352</ele>
        <time>2018-09-27T12:52:28Z</time>
      </trkpt>
      <trkpt lat="43.5751" lon="3.01172">
        <ele>197.19999694824</ele>
        <time>2018-09-27T12:52:40Z</time>
      </trkpt>
      <trkpt lat="43.57522" lon="3.01123">
        <ele>196.80000305176</ele>
        <time>2018-09-27T12:52:49Z</time>
      </trkpt>
      <trkpt lat="43.57527" lon="3.01086">
        <ele>196.39999389648</ele>
        <time>2018-09-27T12:52:55Z</time>
      </trkpt>
      <trkpt lat="43.57531" lon="3.01054">
        <ele>196.39999389648</ele>
        <time>2018-09-27T12:53:00Z</time>
      </trkpt>
      <trkpt lat="43.5754" lon="3.00976">
        <ele>195.39999389648</ele>
        <time>2018-09-27T12:53:13Z</time>
      </trkpt>
      <trkpt lat="43.57542" lon="3.0095">
        <ele>195.39999389648</ele>
        <time>2018-09-27T12:53:17Z</time>
      </trkpt>
      <trkpt lat="43.57543" lon="3.00943">
        <ele>195.39999389648</ele>
        <time>2018-09-27T12:53:18Z</time>
      </trkpt>
      <trkpt lat="43.57543" lon="3.00924">
        <ele>195.19999694824</ele>
        <time>2018-09-27T12:53:21Z</time>
      </trkpt>
      <trkpt lat="43.57545" lon="3.00882">
        <ele>195.19999694824</ele>
        <time>2018-09-27T12:53:31Z</time>
      </trkpt>
      <trkpt lat="43.57548" lon="3.00852">
        <ele>195.19999694824</ele>
        <time>2018-09-27T12:53:40Z</time>
      </trkpt>
      <trkpt lat="43.5755" lon="3.00773">
        <ele>194.80000305176</ele>
        <time>2018-09-27T12:53:54Z</time>
      </trkpt>
      <trkpt lat="43.57553" lon="3.00696">
        <ele>195</ele>
        <time>2018-09-27T12:54:08Z</time>
      </trkpt>
      <trkpt lat="43.57557" lon="3.00624">
        <ele>195.19999694824</ele>
        <time>2018-09-27T12:54:21Z</time>
      </trkpt>
      <trkpt lat="43.57561" lon="3.00548">
        <ele>195.39999389648</ele>
        <time>2018-09-27T12:54:33Z</time>
      </trkpt>
      <trkpt lat="43.57565" lon="3.00471">
        <ele>195</ele>
        <time>2018-09-27T12:54:46Z</time>
      </trkpt>
      <trkpt lat="43.57566" lon="3.00454">
        <ele>194.80000305176</ele>
        <time>2018-09-27T12:54:49Z</time>
      </trkpt>
      <trkpt lat="43.57569" lon="3.00418">
        <ele>194.80000305176</ele>
        <time>2018-09-27T12:54:55Z</time>
      </trkpt>
      <trkpt lat="43.57572" lon="3.00385">
        <ele>194.60000610352</ele>
        <time>2018-09-27T12:55:01Z</time>
      </trkpt>
      <trkpt lat="43.57578" lon="3.00308">
        <ele>194.80000305176</ele>
        <time>2018-09-27T12:55:16Z</time>
      </trkpt>
      <trkpt lat="43.57579" lon="3.00228">
        <ele>194.39999389648</ele>
        <time>2018-09-27T12:55:31Z</time>
      </trkpt>
      <trkpt lat="43.57566" lon="3.00148">
        <ele>194.39999389648</ele>
        <time>2018-09-27T12:55:43Z</time>
      </trkpt>
      <trkpt lat="43.57552" lon="3.00072">
        <ele>194.39999389648</ele>
        <time>2018-09-27T12:55:55Z</time>
      </trkpt>
      <trkpt lat="43.57549" lon="3.00061">
        <ele>194.19999694824</ele>
        <time>2018-09-27T12:55:57Z</time>
      </trkpt>
      <trkpt lat="43.57527" lon="2.99987">
        <ele>193.80000305176</ele>
        <time>2018-09-27T12:56:10Z</time>
      </trkpt>
      <trkpt lat="43.57513" lon="2.99943">
        <ele>193.19999694824</ele>
        <time>2018-09-27T12:56:18Z</time>
      </trkpt>
      <trkpt lat="43.5749" lon="2.99873">
        <ele>192.80000305176</ele>
        <time>2018-09-27T12:56:31Z</time>
      </trkpt>
      <trkpt lat="43.57486" lon="2.99862">
        <ele>192.80000305176</ele>
        <time>2018-09-27T12:56:33Z</time>
      </trkpt>
      <trkpt lat="43.57459" lon="2.99795">
        <ele>192.60000610352</ele>
        <time>2018-09-27T12:56:45Z</time>
      </trkpt>
      <trkpt lat="43.5743" lon="2.99727">
        <ele>192.80000305176</ele>
        <time>2018-09-27T12:57:01Z</time>
      </trkpt>
      <trkpt lat="43.57414" lon="2.99691">
        <ele>193</ele>
        <time>2018-09-27T12:57:08Z</time>
      </trkpt>
      <trkpt lat="43.57383" lon="2.99628">
        <ele>193.39999389648</ele>
        <time>2018-09-27T12:57:21Z</time>
      </trkpt>
      <trkpt lat="43.57349" lon="2.99563">
        <ele>194.19999694824</ele>
        <time>2018-09-27T12:57:35Z</time>
      </trkpt>
      <trkpt lat="43.57316" lon="2.99504">
        <ele>194.60000610352</ele>
        <time>2018-09-27T12:57:50Z</time>
      </trkpt>
      <trkpt lat="43.57283" lon="2.99445">
        <ele>194.80000305176</ele>
        <time>2018-09-27T12:58:06Z</time>
      </trkpt>
      <trkpt lat="43.57281" lon="2.99442">
        <ele>194.80000305176</ele>
        <time>2018-09-27T12:58:07Z</time>
      </trkpt>
      <trkpt lat="43.57247" lon="2.9938">
        <ele>195.19999694824</ele>
        <time>2018-09-27T12:58:22Z</time>
      </trkpt>
      <trkpt lat="43.57218" lon="2.99318">
        <ele>195.39999389648</ele>
        <time>2018-09-27T12:58:36Z</time>
      </trkpt>
      <trkpt lat="43.57194" lon="2.99246">
        <ele>195.19999694824</ele>
        <time>2018-09-27T12:58:52Z</time>
      </trkpt>
      <trkpt lat="43.57171" lon="2.99176">
        <ele>195.80000305176</ele>
        <time>2018-09-27T12:59:04Z</time>
      </trkpt>
      <trkpt lat="43.57153" lon="2.991">
        <ele>196.19999694824</ele>
        <time>2018-09-27T12:59:20Z</time>
      </trkpt>
      <trkpt lat="43.5713" lon="2.99032">
        <ele>197</ele>
        <time>2018-09-27T12:59:34Z</time>
      </trkpt>
      <trkpt lat="43.57101" lon="2.98969">
        <ele>196.80000305176</ele>
        <time>2018-09-27T12:59:46Z</time>
      </trkpt>
      <trkpt lat="43.57068" lon="2.98916">
        <ele>196.80000305176</ele>
        <time>2018-09-27T12:59:57Z</time>
      </trkpt>
      <trkpt lat="43.57028" lon="2.98858">
        <ele>197</ele>
        <time>2018-09-27T13:00:09Z</time>
      </trkpt>
      <trkpt lat="43.56989" lon="2.98807">
        <ele>197.60000610352</ele>
        <time>2018-09-27T13:00:22Z</time>
      </trkpt>
      <trkpt lat="43.56968" lon="2.98781">
        <ele>197.60000610352</ele>
        <time>2018-09-27T13:00:29Z</time>
      </trkpt>
      <trkpt lat="43.56942" lon="2.98747">
        <ele>198</ele>
        <time>2018-09-27T13:00:37Z</time>
      </trkpt>
      <trkpt lat="43.56933" lon="2.98734">
        <ele>198</ele>
        <time>2018-09-27T13:00:40Z</time>
      </trkpt>
      <trkpt lat="43.56917" lon="2.98709">
        <ele>198.19999694824</ele>
        <time>2018-09-27T13:00:46Z</time>
      </trkpt>
      <trkpt lat="43.56846" lon="2.98436">
        <ele>199</ele>
        <time>2018-09-27T13:01:37Z</time>
      </trkpt>
      <trkpt lat="43.56829" lon="2.98364">
        <ele>199</ele>
        <time>2018-09-27T13:01:46Z</time>
      </trkpt>
      <trkpt lat="43.56835" lon="2.98287">
        <ele>199.19999694824</ele>
        <time>2018-09-27T13:02:01Z</time>
      </trkpt>
      <trkpt lat="43.56843" lon="2.98243">
        <ele>199</ele>
        <time>2018-09-27T13:02:08Z</time>
      </trkpt>
      <trkpt lat="43.56852" lon="2.98217">
        <ele>198.60000610352</ele>
        <time>2018-09-27T13:02:12Z</time>
      </trkpt>
      <trkpt lat="43.56875" lon="2.98143">
        <ele>197.80000305176</ele>
        <time>2018-09-27T13:02:24Z</time>
      </trkpt>
      <trkpt lat="43.56877" lon="2.98138">
        <ele>197.60000610352</ele>
        <time>2018-09-27T13:02:25Z</time>
      </trkpt>
      <trkpt lat="43.56905" lon="2.98071">
        <ele>197.19999694824</ele>
        <time>2018-09-27T13:02:36Z</time>
      </trkpt>
      <trkpt lat="43.56923" lon="2.98022">
        <ele>196.80000305176</ele>
        <time>2018-09-27T13:02:44Z</time>
      </trkpt>
      <trkpt lat="43.56928" lon="2.98002">
        <ele>196.80000305176</ele>
        <time>2018-09-27T13:02:47Z</time>
      </trkpt>
      <trkpt lat="43.56937" lon="2.97972">
        <ele>196.60000610352</ele>
        <time>2018-09-27T13:02:52Z</time>
      </trkpt>
      <trkpt lat="43.56947" lon="2.97896">
        <ele>196.39999389648</ele>
        <time>2018-09-27T13:03:05Z</time>
      </trkpt>
      <trkpt lat="43.56948" lon="2.9786">
        <ele>196.19999694824</ele>
        <time>2018-09-27T13:03:11Z</time>
      </trkpt>
      <trkpt lat="43.56941" lon="2.97782">
        <ele>196</ele>
        <time>2018-09-27T13:03:23Z</time>
      </trkpt>
      <trkpt lat="43.5693" lon="2.97708">
        <ele>196</ele>
        <time>2018-09-27T13:03:36Z</time>
      </trkpt>
      <trkpt lat="43.56924" lon="2.97633">
        <ele>196.39999389648</ele>
        <time>2018-09-27T13:03:49Z</time>
      </trkpt>
      <trkpt lat="43.56925" lon="2.97588">
        <ele>196.80000305176</ele>
        <time>2018-09-27T13:03:57Z</time>
      </trkpt>
      <trkpt lat="43.56936" lon="2.9751">
        <ele>197.19999694824</ele>
        <time>2018-09-27T13:04:10Z</time>
      </trkpt>
      <trkpt lat="43.56937" lon="2.97504">
        <ele>197.19999694824</ele>
        <time>2018-09-27T13:04:11Z</time>
      </trkpt>
      <trkpt lat="43.56994" lon="2.97379">
        <ele>198</ele>
        <time>2018-09-27T13:04:38Z</time>
      </trkpt>
      <trkpt lat="43.57014" lon="2.97348">
        <ele>198.19999694824</ele>
        <time>2018-09-27T13:04:45Z</time>
      </trkpt>
      <trkpt lat="43.57054" lon="2.97292">
        <ele>197.80000305176</ele>
        <time>2018-09-27T13:04:59Z</time>
      </trkpt>
      <trkpt lat="43.57087" lon="2.97231">
        <ele>198.19999694824</ele>
        <time>2018-09-27T13:05:13Z</time>
      </trkpt>
      <trkpt lat="43.57096" lon="2.97213">
        <ele>198.19999694824</ele>
        <time>2018-09-27T13:05:17Z</time>
      </trkpt>
      <trkpt lat="43.57103" lon="2.97188">
        <ele>198.39999389648</ele>
        <time>2018-09-27T13:05:22Z</time>
      </trkpt>
      <trkpt lat="43.5711" lon="2.97161">
        <ele>198.39999389648</ele>
        <time>2018-09-27T13:05:28Z</time>
      </trkpt>
      <trkpt lat="43.57123" lon="2.97088">
        <ele>199.80000305176</ele>
        <time>2018-09-27T13:05:45Z</time>
      </trkpt>
      <trkpt lat="43.57127" lon="2.97054">
        <ele>200.80000305176</ele>
        <time>2018-09-27T13:05:54Z</time>
      </trkpt>
      <trkpt lat="43.57123" lon="2.96979">
        <ele>201.39999389648</ele>
        <time>2018-09-27T13:06:15Z</time>
      </trkpt>
      <trkpt lat="43.57111" lon="2.96904">
        <ele>202.19999694824</ele>
        <time>2018-09-27T13:06:34Z</time>
      </trkpt>
      <trkpt lat="43.57104" lon="2.96883">
        <ele>202.19999694824</ele>
        <time>2018-09-27T13:06:39Z</time>
      </trkpt>
      <trkpt lat="43.57077" lon="2.96818">
        <ele>202.80000305176</ele>
        <time>2018-09-27T13:06:55Z</time>
      </trkpt>
      <trkpt lat="43.57063" lon="2.96796">
        <ele>203.39999389648</ele>
        <time>2018-09-27T13:07:02Z</time>
      </trkpt>
      <trkpt lat="43.57031" lon="2.96749">
        <ele>204.39999389648</ele>
        <time>2018-09-27T13:07:16Z</time>
      </trkpt>
      <trkpt lat="43.56989" lon="2.96697">
        <ele>204.80000305176</ele>
        <time>2018-09-27T13:07:31Z</time>
      </trkpt>
      <trkpt lat="43.56946" lon="2.96646">
        <ele>205.39999389648</ele>
        <time>2018-09-27T13:07:46Z</time>
      </trkpt>
      <trkpt lat="43.56928" lon="2.9662">
        <ele>206.39999389648</ele>
        <time>2018-09-27T13:08:14Z</time>
      </trkpt>
      <trkpt lat="43.56925" lon="2.96619">
        <ele>206.80000305176</ele>
        <time>2018-09-27T13:08:52Z</time>
      </trkpt>
      <trkpt lat="43.56883" lon="2.96564">
        <ele>206.39999389648</ele>
        <time>2018-09-27T13:09:04Z</time>
      </trkpt>
      <trkpt lat="43.56874" lon="2.9655">
        <ele>205.39999389648</ele>
        <time>2018-09-27T13:09:06Z</time>
      </trkpt>
      <trkpt lat="43.56843" lon="2.96491">
        <ele>204.39999389648</ele>
        <time>2018-09-27T13:09:14Z</time>
      </trkpt>
      <trkpt lat="43.56818" lon="2.96434">
        <ele>205.60000610352</ele>
        <time>2018-09-27T13:09:27Z</time>
      </trkpt>
      <trkpt lat="43.56818" lon="2.96433">
        <ele>206.60000610352</ele>
        <time>2018-09-27T13:09:35Z</time>
      </trkpt>
      <trkpt lat="43.56817" lon="2.96431">
        <ele>206.60000610352</ele>
        <time>2018-09-27T13:10:03Z</time>
      </trkpt>
      <trkpt lat="43.5679" lon="2.96366">
        <ele>206.39999389648</ele>
        <time>2018-09-27T13:10:21Z</time>
      </trkpt>
      <trkpt lat="43.56763" lon="2.96301">
        <ele>206.39999389648</ele>
        <time>2018-09-27T13:10:37Z</time>
      </trkpt>
      <trkpt lat="43.5674" lon="2.96231">
        <ele>206</ele>
        <time>2018-09-27T13:10:52Z</time>
      </trkpt>
      <trkpt lat="43.56718" lon="2.96161">
        <ele>206</ele>
        <time>2018-09-27T13:11:05Z</time>
      </trkpt>
      <trkpt lat="43.56714" lon="2.9615">
        <ele>206</ele>
        <time>2018-09-27T13:11:07Z</time>
      </trkpt>
      <trkpt lat="43.56711" lon="2.9614">
        <ele>206</ele>
        <time>2018-09-27T13:11:09Z</time>
      </trkpt>
      <trkpt lat="43.56692" lon="2.96066">
        <ele>206.19999694824</ele>
        <time>2018-09-27T13:11:23Z</time>
      </trkpt>
      <trkpt lat="43.56678" lon="2.95993">
        <ele>206.39999389648</ele>
        <time>2018-09-27T13:11:37Z</time>
      </trkpt>
      <trkpt lat="43.56671" lon="2.95974">
        <ele>206.80000305176</ele>
        <time>2018-09-27T13:11:43Z</time>
      </trkpt>
      <trkpt lat="43.5667" lon="2.95966">
        <ele>206.80000305176</ele>
        <time>2018-09-27T13:11:46Z</time>
      </trkpt>
      <trkpt lat="43.56679" lon="2.95962">
        <ele>207.19999694824</ele>
        <time>2018-09-27T13:11:53Z</time>
      </trkpt>
      <trkpt lat="43.56705" lon="2.96018">
        <ele>208.19999694824</ele>
        <time>2018-09-27T13:12:15Z</time>
      </trkpt>
      <trkpt lat="43.5672" lon="2.96054">
        <ele>208.39999389648</ele>
        <time>2018-09-27T13:12:26Z</time>
      </trkpt>
      <trkpt lat="43.56749" lon="2.96117">
        <ele>209.19999694824</ele>
        <time>2018-09-27T13:12:46Z</time>
      </trkpt>
      <trkpt lat="43.5678" lon="2.96183">
        <ele>210</ele>
        <time>2018-09-27T13:13:04Z</time>
      </trkpt>
      <trkpt lat="43.56797" lon="2.9622">
        <ele>210.60000610352</ele>
        <time>2018-09-27T13:13:15Z</time>
      </trkpt>
      <trkpt lat="43.56824" lon="2.96279">
        <ele>211.60000610352</ele>
        <time>2018-09-27T13:13:33Z</time>
      </trkpt>
      <trkpt lat="43.56854" lon="2.96343">
        <ele>212.60000610352</ele>
        <time>2018-09-27T13:13:48Z</time>
      </trkpt>
      <trkpt lat="43.56856" lon="2.96347">
        <ele>212.60000610352</ele>
        <time>2018-09-27T13:13:49Z</time>
      </trkpt>
      <trkpt lat="43.56884" lon="2.9641">
        <ele>214</ele>
        <time>2018-09-27T13:14:04Z</time>
      </trkpt>
      <trkpt lat="43.56915" lon="2.96473">
        <ele>215</ele>
        <time>2018-09-27T13:14:19Z</time>
      </trkpt>
      <trkpt lat="43.56946" lon="2.9654">
        <ele>215</ele>
        <time>2018-09-27T13:14:34Z</time>
      </trkpt>
      <trkpt lat="43.56966" lon="2.96579">
        <ele>214.60000610352</ele>
        <time>2018-09-27T13:14:46Z</time>
      </trkpt>
      <trkpt lat="43.56977" lon="2.96575">
        <ele>214.60000610352</ele>
        <time>2018-09-27T13:14:51Z</time>
      </trkpt>
      <trkpt lat="43.56995" lon="2.9656">
        <ele>214.80000305176</ele>
        <time>2018-09-27T13:15:01Z</time>
      </trkpt>
      <trkpt lat="43.56999" lon="2.96548">
        <ele>215.19999694824</ele>
        <time>2018-09-27T13:15:05Z</time>
      </trkpt>
      <trkpt lat="43.56999" lon="2.96545">
        <ele>215.19999694824</ele>
        <time>2018-09-27T13:15:06Z</time>
      </trkpt>
      <trkpt lat="43.56998" lon="2.96517">
        <ele>216.39999389648</ele>
        <time>2018-09-27T13:15:14Z</time>
      </trkpt>
      <trkpt lat="43.56996" lon="2.96502">
        <ele>217.60000610352</ele>
        <time>2018-09-27T13:15:18Z</time>
      </trkpt>
      <trkpt lat="43.56992" lon="2.96481">
        <ele>218.80000305176</ele>
        <time>2018-09-27T13:15:23Z</time>
      </trkpt>
      <trkpt lat="43.56989" lon="2.96458">
        <ele>220</ele>
        <time>2018-09-27T13:15:28Z</time>
      </trkpt>
      <trkpt lat="43.56986" lon="2.96442">
        <ele>221.19999694824</ele>
        <time>2018-09-27T13:15:31Z</time>
      </trkpt>
      <trkpt lat="43.56982" lon="2.96415">
        <ele>222.39999389648</ele>
        <time>2018-09-27T13:15:36Z</time>
      </trkpt>
      <trkpt lat="43.56978" lon="2.96385">
        <ele>223.39999389648</ele>
        <time>2018-09-27T13:15:42Z</time>
      </trkpt>
      <trkpt lat="43.56969" lon="2.9635">
        <ele>224.39999389648</ele>
        <time>2018-09-27T13:15:50Z</time>
      </trkpt>
      <trkpt lat="43.56964" lon="2.96312">
        <ele>225.60000610352</ele>
        <time>2018-09-27T13:16:00Z</time>
      </trkpt>
      <trkpt lat="43.56959" lon="2.9628">
        <ele>226.80000305176</ele>
        <time>2018-09-27T13:16:08Z</time>
      </trkpt>
      <trkpt lat="43.5696" lon="2.96225">
        <ele>227.80000305176</ele>
        <time>2018-09-27T13:16:22Z</time>
      </trkpt>
      <trkpt lat="43.56968" lon="2.96202">
        <ele>228.80000305176</ele>
        <time>2018-09-27T13:16:30Z</time>
      </trkpt>
      <trkpt lat="43.56978" lon="2.96185">
        <ele>229.80000305176</ele>
        <time>2018-09-27T13:16:37Z</time>
      </trkpt>
      <trkpt lat="43.56984" lon="2.96173">
        <ele>231</ele>
        <time>2018-09-27T13:16:42Z</time>
      </trkpt>
      <trkpt lat="43.56986" lon="2.96156">
        <ele>232.39999389648</ele>
        <time>2018-09-27T13:16:47Z</time>
      </trkpt>
      <trkpt lat="43.56989" lon="2.96146">
        <ele>233.39999389648</ele>
        <time>2018-09-27T13:16:50Z</time>
      </trkpt>
      <trkpt lat="43.56999" lon="2.96137">
        <ele>234.60000610352</ele>
        <time>2018-09-27T13:16:55Z</time>
      </trkpt>
      <trkpt lat="43.57004" lon="2.96119">
        <ele>235.80000305176</ele>
        <time>2018-09-27T13:17:01Z</time>
      </trkpt>
      <trkpt lat="43.57002" lon="2.96099">
        <ele>236.80000305176</ele>
        <time>2018-09-27T13:17:06Z</time>
      </trkpt>
      <trkpt lat="43.57002" lon="2.96074">
        <ele>237.80000305176</ele>
        <time>2018-09-27T13:17:13Z</time>
      </trkpt>
      <trkpt lat="43.5701" lon="2.9603">
        <ele>239</ele>
        <time>2018-09-27T13:17:24Z</time>
      </trkpt>
      <trkpt lat="43.57014" lon="2.96009">
        <ele>240.19999694824</ele>
        <time>2018-09-27T13:17:30Z</time>
      </trkpt>
      <trkpt lat="43.57015" lon="2.95997">
        <ele>241.19999694824</ele>
        <time>2018-09-27T13:17:33Z</time>
      </trkpt>
      <trkpt lat="43.57017" lon="2.95979">
        <ele>242</ele>
        <time>2018-09-27T13:17:38Z</time>
      </trkpt>
      <trkpt lat="43.57018" lon="2.95972">
        <ele>242.19999694824</ele>
        <time>2018-09-27T13:17:40Z</time>
      </trkpt>
      <trkpt lat="43.57021" lon="2.95896">
        <ele>243.39999389648</ele>
        <time>2018-09-27T13:18:04Z</time>
      </trkpt>
      <trkpt lat="43.57016" lon="2.95859">
        <ele>244.60000610352</ele>
        <time>2018-09-27T13:18:15Z</time>
      </trkpt>
      <trkpt lat="43.5703" lon="2.95809">
        <ele>245.60000610352</ele>
        <time>2018-09-27T13:18:33Z</time>
      </trkpt>
      <trkpt lat="43.57041" lon="2.95803">
        <ele>246.80000305176</ele>
        <time>2018-09-27T13:18:38Z</time>
      </trkpt>
      <trkpt lat="43.57049" lon="2.95797">
        <ele>247.80000305176</ele>
        <time>2018-09-27T13:18:43Z</time>
      </trkpt>
      <trkpt lat="43.57053" lon="2.95794">
        <ele>249</ele>
        <time>2018-09-27T13:18:46Z</time>
      </trkpt>
      <trkpt lat="43.57059" lon="2.95787">
        <ele>250</ele>
        <time>2018-09-27T13:18:51Z</time>
      </trkpt>
      <trkpt lat="43.57064" lon="2.95782">
        <ele>251.19999694824</ele>
        <time>2018-09-27T13:18:55Z</time>
      </trkpt>
      <trkpt lat="43.57071" lon="2.95778">
        <ele>252.39999389648</ele>
        <time>2018-09-27T13:19:00Z</time>
      </trkpt>
      <trkpt lat="43.57078" lon="2.95772">
        <ele>253.19999694824</ele>
        <time>2018-09-27T13:19:05Z</time>
      </trkpt>
      <trkpt lat="43.57079" lon="2.9577">
        <ele>253.39999389648</ele>
        <time>2018-09-27T13:19:06Z</time>
      </trkpt>
      <trkpt lat="43.57085" lon="2.95759">
        <ele>254.60000610352</ele>
        <time>2018-09-27T13:19:12Z</time>
      </trkpt>
      <trkpt lat="43.57087" lon="2.95751">
        <ele>255.60000610352</ele>
        <time>2018-09-27T13:19:16Z</time>
      </trkpt>
      <trkpt lat="43.57089" lon="2.95739">
        <ele>256.79998779297</ele>
        <time>2018-09-27T13:19:22Z</time>
      </trkpt>
      <trkpt lat="43.5709" lon="2.95728">
        <ele>258</ele>
        <time>2018-09-27T13:19:27Z</time>
      </trkpt>
      <trkpt lat="43.57092" lon="2.95716">
        <ele>259.20001220703</ele>
        <time>2018-09-27T13:19:33Z</time>
      </trkpt>
      <trkpt lat="43.57094" lon="2.95708">
        <ele>260.39999389648</ele>
        <time>2018-09-27T13:19:37Z</time>
      </trkpt>
      <trkpt lat="43.57097" lon="2.957">
        <ele>261.39999389648</ele>
        <time>2018-09-27T13:19:41Z</time>
      </trkpt>
      <trkpt lat="43.57097" lon="2.95698">
        <ele>261.79998779297</ele>
        <time>2018-09-27T13:19:42Z</time>
      </trkpt>
      <trkpt lat="43.57099" lon="2.95691">
        <ele>262.79998779297</ele>
        <time>2018-09-27T13:19:46Z</time>
      </trkpt>
      <trkpt lat="43.57102" lon="2.95685">
        <ele>264</ele>
        <time>2018-09-27T13:19:50Z</time>
      </trkpt>
      <trkpt lat="43.57102" lon="2.95681">
        <ele>264.20001220703</ele>
        <time>2018-09-27T13:19:52Z</time>
      </trkpt>
      <trkpt lat="43.57102" lon="2.95676">
        <ele>265</ele>
        <time>2018-09-27T13:19:55Z</time>
      </trkpt>
      <trkpt lat="43.57102" lon="2.95667">
        <ele>266</ele>
        <time>2018-09-27T13:20:00Z</time>
      </trkpt>
      <trkpt lat="43.57102" lon="2.95661">
        <ele>267</ele>
        <time>2018-09-27T13:20:07Z</time>
      </trkpt>
      <trkpt lat="43.571" lon="2.95658">
        <ele>267.20001220703</ele>
        <time>2018-09-27T13:20:25Z</time>
      </trkpt>
      <trkpt lat="43.5708" lon="2.95585">
        <ele>267.79998779297</ele>
        <time>2018-09-27T13:20:51Z</time>
      </trkpt>
      <trkpt lat="43.57076" lon="2.95571">
        <ele>268</ele>
        <time>2018-09-27T13:20:55Z</time>
      </trkpt>
      <trkpt lat="43.5707" lon="2.95533">
        <ele>269.20001220703</ele>
        <time>2018-09-27T13:21:05Z</time>
      </trkpt>
      <trkpt lat="43.5707" lon="2.95509">
        <ele>270.20001220703</ele>
        <time>2018-09-27T13:21:12Z</time>
      </trkpt>
      <trkpt lat="43.57071" lon="2.95494">
        <ele>271.39999389648</ele>
        <time>2018-09-27T13:21:16Z</time>
      </trkpt>
      <trkpt lat="43.57077" lon="2.95463">
        <ele>272.39999389648</ele>
        <time>2018-09-27T13:21:24Z</time>
      </trkpt>
      <trkpt lat="43.57093" lon="2.95443">
        <ele>273.60000610352</ele>
        <time>2018-09-27T13:21:32Z</time>
      </trkpt>
      <trkpt lat="43.57105" lon="2.95441">
        <ele>274.79998779297</ele>
        <time>2018-09-27T13:21:38Z</time>
      </trkpt>
      <trkpt lat="43.57117" lon="2.95443">
        <ele>275.79998779297</ele>
        <time>2018-09-27T13:21:44Z</time>
      </trkpt>
      <trkpt lat="43.57123" lon="2.95448">
        <ele>277</ele>
        <time>2018-09-27T13:21:48Z</time>
      </trkpt>
      <trkpt lat="43.57132" lon="2.95452">
        <ele>278.20001220703</ele>
        <time>2018-09-27T13:21:53Z</time>
      </trkpt>
      <trkpt lat="43.57141" lon="2.95456">
        <ele>279.39999389648</ele>
        <time>2018-09-27T13:21:58Z</time>
      </trkpt>
      <trkpt lat="43.57148" lon="2.95459">
        <ele>280.39999389648</ele>
        <time>2018-09-27T13:22:03Z</time>
      </trkpt>
      <trkpt lat="43.57157" lon="2.95463">
        <ele>281.60000610352</ele>
        <time>2018-09-27T13:22:09Z</time>
      </trkpt>
      <trkpt lat="43.57173" lon="2.95465">
        <ele>282.60000610352</ele>
        <time>2018-09-27T13:22:18Z</time>
      </trkpt>
      <trkpt lat="43.57189" lon="2.9546">
        <ele>283.79998779297</ele>
        <time>2018-09-27T13:22:27Z</time>
      </trkpt>
      <trkpt lat="43.57198" lon="2.95452">
        <ele>284.79998779297</ele>
        <time>2018-09-27T13:22:34Z</time>
      </trkpt>
      <trkpt lat="43.57204" lon="2.95447">
        <ele>286</ele>
        <time>2018-09-27T13:22:40Z</time>
      </trkpt>
      <trkpt lat="43.57216" lon="2.95453">
        <ele>286.60000610352</ele>
        <time>2018-09-27T13:22:48Z</time>
      </trkpt>
      <trkpt lat="43.57216" lon="2.95454">
        <ele>287</ele>
        <time>2018-09-27T13:22:49Z</time>
      </trkpt>
      <trkpt lat="43.57215" lon="2.95457">
        <ele>287.60000610352</ele>
        <time>2018-09-27T13:22:51Z</time>
      </trkpt>
      <trkpt lat="43.57214" lon="2.95461">
        <ele>288</ele>
        <time>2018-09-27T13:22:53Z</time>
      </trkpt>
      <trkpt lat="43.57209" lon="2.95467">
        <ele>289.20001220703</ele>
        <time>2018-09-27T13:22:57Z</time>
      </trkpt>
      <trkpt lat="43.57204" lon="2.95473">
        <ele>290.39999389648</ele>
        <time>2018-09-27T13:23:01Z</time>
      </trkpt>
      <trkpt lat="43.57199" lon="2.95478">
        <ele>291.39999389648</ele>
        <time>2018-09-27T13:23:05Z</time>
      </trkpt>
      <trkpt lat="43.57196" lon="2.95482">
        <ele>292.60000610352</ele>
        <time>2018-09-27T13:23:09Z</time>
      </trkpt>
      <trkpt lat="43.57196" lon="2.95483">
        <ele>292.79998779297</ele>
        <time>2018-09-27T13:23:10Z</time>
      </trkpt>
      <trkpt lat="43.57193" lon="2.95488">
        <ele>293.60000610352</ele>
        <time>2018-09-27T13:23:16Z</time>
      </trkpt>
      <trkpt lat="43.57193" lon="2.955">
        <ele>294</ele>
        <time>2018-09-27T13:23:40Z</time>
      </trkpt>
      <trkpt lat="43.57185" lon="2.95536">
        <ele>292.79998779297</ele>
        <time>2018-09-27T13:23:52Z</time>
      </trkpt>
      <trkpt lat="43.57186" lon="2.95554">
        <ele>291.60000610352</ele>
        <time>2018-09-27T13:23:57Z</time>
      </trkpt>
      <trkpt lat="43.57186" lon="2.95578">
        <ele>290.39999389648</ele>
        <time>2018-09-27T13:24:05Z</time>
      </trkpt>
      <trkpt lat="43.57184" lon="2.95584">
        <ele>289.39999389648</ele>
        <time>2018-09-27T13:24:08Z</time>
      </trkpt>
      <trkpt lat="43.57184" lon="2.95598">
        <ele>288.20001220703</ele>
        <time>2018-09-27T13:24:13Z</time>
      </trkpt>
      <trkpt lat="43.57182" lon="2.95608">
        <ele>286.60000610352</ele>
        <time>2018-09-27T13:24:17Z</time>
      </trkpt>
      <trkpt lat="43.57178" lon="2.95624">
        <ele>285.39999389648</ele>
        <time>2018-09-27T13:24:21Z</time>
      </trkpt>
      <trkpt lat="43.57169" lon="2.95634">
        <ele>284.20001220703</ele>
        <time>2018-09-27T13:24:26Z</time>
      </trkpt>
      <trkpt lat="43.57164" lon="2.95638">
        <ele>282.79998779297</ele>
        <time>2018-09-27T13:24:29Z</time>
      </trkpt>
      <trkpt lat="43.57159" lon="2.95641">
        <ele>281.60000610352</ele>
        <time>2018-09-27T13:24:32Z</time>
      </trkpt>
      <trkpt lat="43.57158" lon="2.95642">
        <ele>280.60000610352</ele>
        <time>2018-09-27T13:24:34Z</time>
      </trkpt>
      <trkpt lat="43.57159" lon="2.95643">
        <ele>279.39999389648</ele>
        <time>2018-09-27T13:24:37Z</time>
      </trkpt>
      <trkpt lat="43.57159" lon="2.95644">
        <ele>278.39999389648</ele>
        <time>2018-09-27T13:24:44Z</time>
      </trkpt>
      <trkpt lat="43.57136" lon="2.95653">
        <ele>276.60000610352</ele>
        <time>2018-09-27T13:25:13Z</time>
      </trkpt>
      <trkpt lat="43.57135" lon="2.95653">
        <ele>275.39999389648</ele>
        <time>2018-09-27T13:25:16Z</time>
      </trkpt>
      <trkpt lat="43.57135" lon="2.95653">
        <ele>274.39999389648</ele>
        <time>2018-09-27T13:25:20Z</time>
      </trkpt>
      <trkpt lat="43.57144" lon="2.9565">
        <ele>275.39999389648</ele>
        <time>2018-09-27T13:25:51Z</time>
      </trkpt>
      <trkpt lat="43.57146" lon="2.9565">
        <ele>276.39999389648</ele>
        <time>2018-09-27T13:26:01Z</time>
      </trkpt>
      <trkpt lat="43.57147" lon="2.95655">
        <ele>276.39999389648</ele>
        <time>2018-09-27T13:26:24Z</time>
      </trkpt>
      <trkpt lat="43.57152" lon="2.95668">
        <ele>276.39999389648</ele>
        <time>2018-09-27T13:26:29Z</time>
      </trkpt>
      <trkpt lat="43.57155" lon="2.95679">
        <ele>275.20001220703</ele>
        <time>2018-09-27T13:26:35Z</time>
      </trkpt>
      <trkpt lat="43.57155" lon="2.95681">
        <ele>275</ele>
        <time>2018-09-27T13:26:36Z</time>
      </trkpt>
      <trkpt lat="43.57144" lon="2.95699">
        <ele>274.20001220703</ele>
        <time>2018-09-27T13:26:44Z</time>
      </trkpt>
      <trkpt lat="43.57144" lon="2.95701">
        <ele>273.79998779297</ele>
        <time>2018-09-27T13:26:45Z</time>
      </trkpt>
      <trkpt lat="43.57146" lon="2.95705">
        <ele>272.39999389648</ele>
        <time>2018-09-27T13:26:47Z</time>
      </trkpt>
      <trkpt lat="43.57149" lon="2.95711">
        <ele>271</ele>
        <time>2018-09-27T13:26:49Z</time>
      </trkpt>
      <trkpt lat="43.57157" lon="2.95728">
        <ele>270</ele>
        <time>2018-09-27T13:26:54Z</time>
      </trkpt>
      <trkpt lat="43.57178" lon="2.95782">
        <ele>270</ele>
        <time>2018-09-27T13:27:09Z</time>
      </trkpt>
      <trkpt lat="43.57185" lon="2.95804">
        <ele>271.20001220703</ele>
        <time>2018-09-27T13:27:15Z</time>
      </trkpt>
      <trkpt lat="43.57185" lon="2.95815">
        <ele>272.20001220703</ele>
        <time>2018-09-27T13:27:19Z</time>
      </trkpt>
      <trkpt lat="43.57168" lon="2.95886">
        <ele>272.60000610352</ele>
        <time>2018-09-27T13:27:39Z</time>
      </trkpt>
      <trkpt lat="43.57167" lon="2.95905">
        <ele>272.20001220703</ele>
        <time>2018-09-27T13:27:45Z</time>
      </trkpt>
      <trkpt lat="43.57161" lon="2.95919">
        <ele>271.20001220703</ele>
        <time>2018-09-27T13:27:50Z</time>
      </trkpt>
      <trkpt lat="43.57159" lon="2.95929">
        <ele>270.79998779297</ele>
        <time>2018-09-27T13:27:53Z</time>
      </trkpt>
      <trkpt lat="43.57156" lon="2.95937">
        <ele>270.20001220703</ele>
        <time>2018-09-27T13:27:55Z</time>
      </trkpt>
      <trkpt lat="43.5715" lon="2.95953">
        <ele>269</ele>
        <time>2018-09-27T13:27:59Z</time>
      </trkpt>
      <trkpt lat="43.57147" lon="2.9596">
        <ele>268</ele>
        <time>2018-09-27T13:28:02Z</time>
      </trkpt>
      <trkpt lat="43.57147" lon="2.95963">
        <ele>266.79998779297</ele>
        <time>2018-09-27T13:28:06Z</time>
      </trkpt>
      <trkpt lat="43.57141" lon="2.95978">
        <ele>266</ele>
        <time>2018-09-27T13:28:15Z</time>
      </trkpt>
      <trkpt lat="43.5714" lon="2.95998">
        <ele>265.79998779297</ele>
        <time>2018-09-27T13:28:22Z</time>
      </trkpt>
      <trkpt lat="43.5714" lon="2.96013">
        <ele>265.39999389648</ele>
        <time>2018-09-27T13:28:27Z</time>
      </trkpt>
      <trkpt lat="43.57139" lon="2.96024">
        <ele>265</ele>
        <time>2018-09-27T13:28:31Z</time>
      </trkpt>
      <trkpt lat="43.57138" lon="2.96047">
        <ele>264.60000610352</ele>
        <time>2018-09-27T13:28:38Z</time>
      </trkpt>
      <trkpt lat="43.57136" lon="2.9609">
        <ele>263.60000610352</ele>
        <time>2018-09-27T13:28:50Z</time>
      </trkpt>
      <trkpt lat="43.57147" lon="2.96138">
        <ele>262.60000610352</ele>
        <time>2018-09-27T13:29:02Z</time>
      </trkpt>
      <trkpt lat="43.5715" lon="2.96144">
        <ele>262.60000610352</ele>
        <time>2018-09-27T13:29:04Z</time>
      </trkpt>
      <trkpt lat="43.57165" lon="2.96185">
        <ele>261.60000610352</ele>
        <time>2018-09-27T13:29:20Z</time>
      </trkpt>
      <trkpt lat="43.57178" lon="2.96212">
        <ele>260.39999389648</ele>
        <time>2018-09-27T13:29:28Z</time>
      </trkpt>
      <trkpt lat="43.57197" lon="2.96284">
        <ele>259.79998779297</ele>
        <time>2018-09-27T13:29:47Z</time>
      </trkpt>
      <trkpt lat="43.57202" lon="2.96339">
        <ele>260.60000610352</ele>
        <time>2018-09-27T13:30:05Z</time>
      </trkpt>
      <trkpt lat="43.57201" lon="2.9635">
        <ele>260.20001220703</ele>
        <time>2018-09-27T13:30:09Z</time>
      </trkpt>
      <trkpt lat="43.57201" lon="2.96356">
        <ele>259.20001220703</ele>
        <time>2018-09-27T13:30:12Z</time>
      </trkpt>
      <trkpt lat="43.572" lon="2.96366">
        <ele>258</ele>
        <time>2018-09-27T13:30:15Z</time>
      </trkpt>
      <trkpt lat="43.57198" lon="2.96389">
        <ele>257</ele>
        <time>2018-09-27T13:30:22Z</time>
      </trkpt>
      <trkpt lat="43.57195" lon="2.9641">
        <ele>255.60000610352</ele>
        <time>2018-09-27T13:30:30Z</time>
      </trkpt>
      <trkpt lat="43.57195" lon="2.96418">
        <ele>255</ele>
        <time>2018-09-27T13:30:36Z</time>
      </trkpt>
      <trkpt lat="43.57194" lon="2.96441">
        <ele>254.60000610352</ele>
        <time>2018-09-27T13:30:45Z</time>
      </trkpt>
      <trkpt lat="43.57192" lon="2.96453">
        <ele>253.60000610352</ele>
        <time>2018-09-27T13:30:54Z</time>
      </trkpt>
      <trkpt lat="43.5719" lon="2.9646">
        <ele>252.60000610352</ele>
        <time>2018-09-27T13:31:01Z</time>
      </trkpt>
      <trkpt lat="43.57189" lon="2.96464">
        <ele>252.39999389648</ele>
        <time>2018-09-27T13:31:03Z</time>
      </trkpt>
      <trkpt lat="43.57186" lon="2.96482">
        <ele>251.39999389648</ele>
        <time>2018-09-27T13:31:11Z</time>
      </trkpt>
      <trkpt lat="43.57186" lon="2.96486">
        <ele>250.19999694824</ele>
        <time>2018-09-27T13:31:15Z</time>
      </trkpt>
      <trkpt lat="43.57183" lon="2.96493">
        <ele>249.19999694824</ele>
        <time>2018-09-27T13:31:24Z</time>
      </trkpt>
      <trkpt lat="43.57183" lon="2.96495">
        <ele>249.19999694824</ele>
        <time>2018-09-27T13:31:25Z</time>
      </trkpt>
      <trkpt lat="43.57179" lon="2.96509">
        <ele>248.19999694824</ele>
        <time>2018-09-27T13:31:34Z</time>
      </trkpt>
      <trkpt lat="43.57178" lon="2.96516">
        <ele>247</ele>
        <time>2018-09-27T13:31:38Z</time>
      </trkpt>
      <trkpt lat="43.57172" lon="2.96543">
        <ele>245.80000305176</ele>
        <time>2018-09-27T13:31:45Z</time>
      </trkpt>
      <trkpt lat="43.57173" lon="2.9655">
        <ele>244.39999389648</ele>
        <time>2018-09-27T13:31:48Z</time>
      </trkpt>
      <trkpt lat="43.57173" lon="2.96551">
        <ele>243</ele>
        <time>2018-09-27T13:31:50Z</time>
      </trkpt>
      <trkpt lat="43.57172" lon="2.96553">
        <ele>241.80000305176</ele>
        <time>2018-09-27T13:31:52Z</time>
      </trkpt>
      <trkpt lat="43.57158" lon="2.96558">
        <ele>240.60000610352</ele>
        <time>2018-09-27T13:31:57Z</time>
      </trkpt>
      <trkpt lat="43.57151" lon="2.96563">
        <ele>240.39999389648</ele>
        <time>2018-09-27T13:31:59Z</time>
      </trkpt>
      <trkpt lat="43.5714" lon="2.96577">
        <ele>239.19999694824</ele>
        <time>2018-09-27T13:32:02Z</time>
      </trkpt>
      <trkpt lat="43.5713" lon="2.96589">
        <ele>237.60000610352</ele>
        <time>2018-09-27T13:32:04Z</time>
      </trkpt>
      <trkpt lat="43.5712" lon="2.966">
        <ele>235.80000305176</ele>
        <time>2018-09-27T13:32:06Z</time>
      </trkpt>
      <trkpt lat="43.57116" lon="2.96605">
        <ele>235</ele>
        <time>2018-09-27T13:32:07Z</time>
      </trkpt>
      <trkpt lat="43.57111" lon="2.9661">
        <ele>234.60000610352</ele>
        <time>2018-09-27T13:32:08Z</time>
      </trkpt>
      <trkpt lat="43.57103" lon="2.96617">
        <ele>233</ele>
        <time>2018-09-27T13:32:10Z</time>
      </trkpt>
      <trkpt lat="43.571" lon="2.9662">
        <ele>231.60000610352</ele>
        <time>2018-09-27T13:32:11Z</time>
      </trkpt>
      <trkpt lat="43.57098" lon="2.96623">
        <ele>230.39999389648</ele>
        <time>2018-09-27T13:32:12Z</time>
      </trkpt>
      <trkpt lat="43.57097" lon="2.96626">
        <ele>229.19999694824</ele>
        <time>2018-09-27T13:32:13Z</time>
      </trkpt>
      <trkpt lat="43.57098" lon="2.96629">
        <ele>228</ele>
        <time>2018-09-27T13:32:14Z</time>
      </trkpt>
      <trkpt lat="43.57101" lon="2.96635">
        <ele>226.60000610352</ele>
        <time>2018-09-27T13:32:16Z</time>
      </trkpt>
      <trkpt lat="43.57108" lon="2.96638">
        <ele>225.80000305176</ele>
        <time>2018-09-27T13:32:19Z</time>
      </trkpt>
      <trkpt lat="43.57147" lon="2.96657">
        <ele>225.80000305176</ele>
        <time>2018-09-27T13:32:34Z</time>
      </trkpt>
      <trkpt lat="43.57167" lon="2.96661">
        <ele>225.39999389648</ele>
        <time>2018-09-27T13:32:39Z</time>
      </trkpt>
      <trkpt lat="43.57171" lon="2.96659">
        <ele>225</ele>
        <time>2018-09-27T13:32:40Z</time>
      </trkpt>
      <trkpt lat="43.57177" lon="2.96657">
        <ele>224.19999694824</ele>
        <time>2018-09-27T13:32:42Z</time>
      </trkpt>
      <trkpt lat="43.57194" lon="2.96652">
        <ele>223.19999694824</ele>
        <time>2018-09-27T13:32:48Z</time>
      </trkpt>
      <trkpt lat="43.57226" lon="2.96658">
        <ele>224.39999389648</ele>
        <time>2018-09-27T13:33:01Z</time>
      </trkpt>
      <trkpt lat="43.57273" lon="2.96699">
        <ele>225.19999694824</ele>
        <time>2018-09-27T13:33:20Z</time>
      </trkpt>
      <trkpt lat="43.57299" lon="2.96709">
        <ele>225.60000610352</ele>
        <time>2018-09-27T13:33:32Z</time>
      </trkpt>
      <trkpt lat="43.57326" lon="2.96717">
        <ele>226.80000305176</ele>
        <time>2018-09-27T13:33:43Z</time>
      </trkpt>
      <trkpt lat="43.57352" lon="2.96716">
        <ele>227.80000305176</ele>
        <time>2018-09-27T13:33:54Z</time>
      </trkpt>
      <trkpt lat="43.57371" lon="2.96711">
        <ele>228.80000305176</ele>
        <time>2018-09-27T13:34:01Z</time>
      </trkpt>
      <trkpt lat="43.5739" lon="2.96705">
        <ele>229.80000305176</ele>
        <time>2018-09-27T13:34:09Z</time>
      </trkpt>
      <trkpt lat="43.57409" lon="2.96699">
        <ele>231.19999694824</ele>
        <time>2018-09-27T13:34:17Z</time>
      </trkpt>
      <trkpt lat="43.57423" lon="2.96687">
        <ele>232.19999694824</ele>
        <time>2018-09-27T13:34:24Z</time>
      </trkpt>
      <trkpt lat="43.57453" lon="2.96658">
        <ele>232.80000305176</ele>
        <time>2018-09-27T13:34:37Z</time>
      </trkpt>
      <trkpt lat="43.57471" lon="2.96652">
        <ele>232.80000305176</ele>
        <time>2018-09-27T13:34:41Z</time>
      </trkpt>
      <trkpt lat="43.57493" lon="2.96637">
        <ele>232.19999694824</ele>
        <time>2018-09-27T13:34:45Z</time>
      </trkpt>
      <trkpt lat="43.57505" lon="2.9663">
        <ele>231</ele>
        <time>2018-09-27T13:34:47Z</time>
      </trkpt>
      <trkpt lat="43.57517" lon="2.96625">
        <ele>230.19999694824</ele>
        <time>2018-09-27T13:34:49Z</time>
      </trkpt>
      <trkpt lat="43.57524" lon="2.96624">
        <ele>229.80000305176</ele>
        <time>2018-09-27T13:34:50Z</time>
      </trkpt>
      <trkpt lat="43.57538" lon="2.96621">
        <ele>228.39999389648</ele>
        <time>2018-09-27T13:34:53Z</time>
      </trkpt>
      <trkpt lat="43.57542" lon="2.96621">
        <ele>228.19999694824</ele>
        <time>2018-09-27T13:34:54Z</time>
      </trkpt>
      <trkpt lat="43.5755" lon="2.96621">
        <ele>227.39999389648</ele>
        <time>2018-09-27T13:34:56Z</time>
      </trkpt>
      <trkpt lat="43.57555" lon="2.96621">
        <ele>227.19999694824</ele>
        <time>2018-09-27T13:34:57Z</time>
      </trkpt>
      <trkpt lat="43.57559" lon="2.9662">
        <ele>226.80000305176</ele>
        <time>2018-09-27T13:34:58Z</time>
      </trkpt>
      <trkpt lat="43.57568" lon="2.96611">
        <ele>226.19999694824</ele>
        <time>2018-09-27T13:35:01Z</time>
      </trkpt>
      <trkpt lat="43.57576" lon="2.96604">
        <ele>225.60000610352</ele>
        <time>2018-09-27T13:35:04Z</time>
      </trkpt>
      <trkpt lat="43.57612" lon="2.9658">
        <ele>226.80000305176</ele>
        <time>2018-09-27T13:35:21Z</time>
      </trkpt>
      <trkpt lat="43.57623" lon="2.96573">
        <ele>228</ele>
        <time>2018-09-27T13:35:27Z</time>
      </trkpt>
      <trkpt lat="43.5763" lon="2.96569">
        <ele>229.19999694824</ele>
        <time>2018-09-27T13:35:31Z</time>
      </trkpt>
      <trkpt lat="43.57638" lon="2.96566">
        <ele>229.80000305176</ele>
        <time>2018-09-27T13:35:35Z</time>
      </trkpt>
      <trkpt lat="43.57643" lon="2.96566">
        <ele>230.19999694824</ele>
        <time>2018-09-27T13:35:37Z</time>
      </trkpt>
      <trkpt lat="43.57653" lon="2.96564">
        <ele>231.19999694824</ele>
        <time>2018-09-27T13:35:42Z</time>
      </trkpt>
      <trkpt lat="43.5766" lon="2.96561">
        <ele>232</ele>
        <time>2018-09-27T13:35:45Z</time>
      </trkpt>
      <trkpt lat="43.57665" lon="2.96558">
        <ele>232.39999389648</ele>
        <time>2018-09-27T13:35:47Z</time>
      </trkpt>
      <trkpt lat="43.57673" lon="2.96552">
        <ele>232.80000305176</ele>
        <time>2018-09-27T13:35:50Z</time>
      </trkpt>
      <trkpt lat="43.57678" lon="2.96549">
        <ele>233.19999694824</ele>
        <time>2018-09-27T13:35:52Z</time>
      </trkpt>
      <trkpt lat="43.57689" lon="2.96543">
        <ele>234.39999389648</ele>
        <time>2018-09-27T13:35:57Z</time>
      </trkpt>
      <trkpt lat="43.577" lon="2.96533">
        <ele>235.19999694824</ele>
        <time>2018-09-27T13:36:02Z</time>
      </trkpt>
      <trkpt lat="43.57703" lon="2.96533">
        <ele>235.19999694824</ele>
        <time>2018-09-27T13:36:03Z</time>
      </trkpt>
      <trkpt lat="43.57715" lon="2.96538">
        <ele>235.80000305176</ele>
        <time>2018-09-27T13:36:09Z</time>
      </trkpt>
      <trkpt lat="43.57722" lon="2.96554">
        <ele>236.39999389648</ele>
        <time>2018-09-27T13:36:14Z</time>
      </trkpt>
      <trkpt lat="43.57724" lon="2.96571">
        <ele>237.39999389648</ele>
        <time>2018-09-27T13:36:19Z</time>
      </trkpt>
      <trkpt lat="43.57729" lon="2.96581">
        <ele>238.39999389648</ele>
        <time>2018-09-27T13:36:23Z</time>
      </trkpt>
      <trkpt lat="43.57736" lon="2.96588">
        <ele>239.60000610352</ele>
        <time>2018-09-27T13:36:27Z</time>
      </trkpt>
      <trkpt lat="43.57743" lon="2.96595">
        <ele>240.60000610352</ele>
        <time>2018-09-27T13:36:31Z</time>
      </trkpt>
      <trkpt lat="43.57751" lon="2.96603">
        <ele>242</ele>
        <time>2018-09-27T13:36:36Z</time>
      </trkpt>
      <trkpt lat="43.5776" lon="2.96606">
        <ele>242.80000305176</ele>
        <time>2018-09-27T13:36:41Z</time>
      </trkpt>
      <trkpt lat="43.57767" lon="2.96614">
        <ele>244</ele>
        <time>2018-09-27T13:36:47Z</time>
      </trkpt>
      <trkpt lat="43.57773" lon="2.96618">
        <ele>245.19999694824</ele>
        <time>2018-09-27T13:36:52Z</time>
      </trkpt>
      <trkpt lat="43.57782" lon="2.96623">
        <ele>246.19999694824</ele>
        <time>2018-09-27T13:36:58Z</time>
      </trkpt>
      <trkpt lat="43.57787" lon="2.96627">
        <ele>247</ele>
        <time>2018-09-27T13:37:03Z</time>
      </trkpt>
      <trkpt lat="43.57799" lon="2.96626">
        <ele>248</ele>
        <time>2018-09-27T13:37:12Z</time>
      </trkpt>
      <trkpt lat="43.57831" lon="2.9662">
        <ele>248.60000610352</ele>
        <time>2018-09-27T13:37:47Z</time>
      </trkpt>
      <trkpt lat="43.57849" lon="2.96606">
        <ele>249.60000610352</ele>
        <time>2018-09-27T13:37:53Z</time>
      </trkpt>
      <trkpt lat="43.57856" lon="2.966">
        <ele>250.60000610352</ele>
        <time>2018-09-27T13:37:56Z</time>
      </trkpt>
      <trkpt lat="43.57861" lon="2.96598">
        <ele>251.80000305176</ele>
        <time>2018-09-27T13:37:58Z</time>
      </trkpt>
      <trkpt lat="43.57869" lon="2.96594">
        <ele>253</ele>
        <time>2018-09-27T13:38:02Z</time>
      </trkpt>
      <trkpt lat="43.57875" lon="2.96591">
        <ele>254</ele>
        <time>2018-09-27T13:38:05Z</time>
      </trkpt>
      <trkpt lat="43.57883" lon="2.96578">
        <ele>255</ele>
        <time>2018-09-27T13:38:11Z</time>
      </trkpt>
      <trkpt lat="43.57887" lon="2.96566">
        <ele>256</ele>
        <time>2018-09-27T13:38:17Z</time>
      </trkpt>
      <trkpt lat="43.57889" lon="2.96549">
        <ele>257</ele>
        <time>2018-09-27T13:38:24Z</time>
      </trkpt>
      <trkpt lat="43.57891" lon="2.96544">
        <ele>257.39999389648</ele>
        <time>2018-09-27T13:38:27Z</time>
      </trkpt>
      <trkpt lat="43.57894" lon="2.9654">
        <ele>257.79998779297</ele>
        <time>2018-09-27T13:38:30Z</time>
      </trkpt>
      <trkpt lat="43.57898" lon="2.96532">
        <ele>258.79998779297</ele>
        <time>2018-09-27T13:38:34Z</time>
      </trkpt>
      <trkpt lat="43.57905" lon="2.96522">
        <ele>260</ele>
        <time>2018-09-27T13:38:39Z</time>
      </trkpt>
      <trkpt lat="43.57913" lon="2.96513">
        <ele>261</ele>
        <time>2018-09-27T13:38:45Z</time>
      </trkpt>
      <trkpt lat="43.57921" lon="2.96499">
        <ele>262.20001220703</ele>
        <time>2018-09-27T13:38:53Z</time>
      </trkpt>
      <trkpt lat="43.57924" lon="2.96493">
        <ele>263.20001220703</ele>
        <time>2018-09-27T13:38:57Z</time>
      </trkpt>
      <trkpt lat="43.5793" lon="2.96483">
        <ele>264.39999389648</ele>
        <time>2018-09-27T13:39:03Z</time>
      </trkpt>
      <trkpt lat="43.57934" lon="2.96479">
        <ele>265</ele>
        <time>2018-09-27T13:39:06Z</time>
      </trkpt>
      <trkpt lat="43.5794" lon="2.96475">
        <ele>265.39999389648</ele>
        <time>2018-09-27T13:39:10Z</time>
      </trkpt>
      <trkpt lat="43.5795" lon="2.96473">
        <ele>266.20001220703</ele>
        <time>2018-09-27T13:39:15Z</time>
      </trkpt>
      <trkpt lat="43.57954" lon="2.96472">
        <ele>266.39999389648</ele>
        <time>2018-09-27T13:39:16Z</time>
      </trkpt>
      <trkpt lat="43.5798" lon="2.96469">
        <ele>267.60000610352</ele>
        <time>2018-09-27T13:39:22Z</time>
      </trkpt>
      <trkpt lat="43.57999" lon="2.9647">
        <ele>268.20001220703</ele>
        <time>2018-09-27T13:39:26Z</time>
      </trkpt>
      <trkpt lat="43.58003" lon="2.96472">
        <ele>268.60000610352</ele>
        <time>2018-09-27T13:39:27Z</time>
      </trkpt>
      <trkpt lat="43.5801" lon="2.96476">
        <ele>269.60000610352</ele>
        <time>2018-09-27T13:39:32Z</time>
      </trkpt>
      <trkpt lat="43.58011" lon="2.96477">
        <ele>270.79998779297</ele>
        <time>2018-09-27T13:39:35Z</time>
      </trkpt>
      <trkpt lat="43.58011" lon="2.96476">
        <ele>271.79998779297</ele>
        <time>2018-09-27T13:39:37Z</time>
      </trkpt>
      <trkpt lat="43.5801" lon="2.96475">
        <ele>273</ele>
        <time>2018-09-27T13:39:42Z</time>
      </trkpt>
      <trkpt lat="43.58014" lon="2.9648">
        <ele>272.79998779297</ele>
        <time>2018-09-27T13:41:09Z</time>
      </trkpt>
      <trkpt lat="43.58014" lon="2.96475">
        <ele>272.79998779297</ele>
        <time>2018-09-27T13:41:43Z</time>
      </trkpt>
      <trkpt lat="43.58016" lon="2.96475">
        <ele>272.79998779297</ele>
        <time>2018-09-27T13:41:58Z</time>
      </trkpt>
      <trkpt lat="43.5804" lon="2.96496">
        <ele>273.60000610352</ele>
        <time>2018-09-27T13:42:13Z</time>
      </trkpt>
      <trkpt lat="43.58048" lon="2.96501">
        <ele>274.79998779297</ele>
        <time>2018-09-27T13:42:17Z</time>
      </trkpt>
      <trkpt lat="43.58059" lon="2.96507">
        <ele>276</ele>
        <time>2018-09-27T13:42:21Z</time>
      </trkpt>
      <trkpt lat="43.58069" lon="2.96514">
        <ele>277.20001220703</ele>
        <time>2018-09-27T13:42:24Z</time>
      </trkpt>
      <trkpt lat="43.58082" lon="2.96522">
        <ele>278.20001220703</ele>
        <time>2018-09-27T13:42:28Z</time>
      </trkpt>
      <trkpt lat="43.58101" lon="2.96519">
        <ele>279.39999389648</ele>
        <time>2018-09-27T13:42:35Z</time>
      </trkpt>
      <trkpt lat="43.58109" lon="2.96514">
        <ele>280.39999389648</ele>
        <time>2018-09-27T13:42:39Z</time>
      </trkpt>
      <trkpt lat="43.58115" lon="2.9651">
        <ele>282.20001220703</ele>
        <time>2018-09-27T13:42:43Z</time>
      </trkpt>
      <trkpt lat="43.5812" lon="2.96505">
        <ele>283.20001220703</ele>
        <time>2018-09-27T13:42:46Z</time>
      </trkpt>
      <trkpt lat="43.58123" lon="2.96499">
        <ele>284.39999389648</ele>
        <time>2018-09-27T13:42:50Z</time>
      </trkpt>
      <trkpt lat="43.58124" lon="2.96498">
        <ele>284.60000610352</ele>
        <time>2018-09-27T13:42:51Z</time>
      </trkpt>
      <trkpt lat="43.5813" lon="2.96488">
        <ele>285.20001220703</ele>
        <time>2018-09-27T13:42:57Z</time>
      </trkpt>
      <trkpt lat="43.58137" lon="2.96484">
        <ele>286.39999389648</ele>
        <time>2018-09-27T13:43:02Z</time>
      </trkpt>
      <trkpt lat="43.58142" lon="2.96476">
        <ele>287.60000610352</ele>
        <time>2018-09-27T13:43:07Z</time>
      </trkpt>
      <trkpt lat="43.58148" lon="2.96469">
        <ele>288.39999389648</ele>
        <time>2018-09-27T13:43:12Z</time>
      </trkpt>
      <trkpt lat="43.58157" lon="2.96466">
        <ele>289.60000610352</ele>
        <time>2018-09-27T13:43:19Z</time>
      </trkpt>
      <trkpt lat="43.58168" lon="2.96465">
        <ele>290.79998779297</ele>
        <time>2018-09-27T13:43:26Z</time>
      </trkpt>
      <trkpt lat="43.5818" lon="2.96466">
        <ele>291.60000610352</ele>
        <time>2018-09-27T13:43:34Z</time>
      </trkpt>
      <trkpt lat="43.58188" lon="2.96469">
        <ele>292.79998779297</ele>
        <time>2018-09-27T13:43:39Z</time>
      </trkpt>
      <trkpt lat="43.58197" lon="2.96467">
        <ele>294</ele>
        <time>2018-09-27T13:43:44Z</time>
      </trkpt>
      <trkpt lat="43.58207" lon="2.96459">
        <ele>295</ele>
        <time>2018-09-27T13:43:50Z</time>
      </trkpt>
      <trkpt lat="43.58216" lon="2.96448">
        <ele>296</ele>
        <time>2018-09-27T13:43:58Z</time>
      </trkpt>
      <trkpt lat="43.58227" lon="2.96442">
        <ele>297.20001220703</ele>
        <time>2018-09-27T13:44:05Z</time>
      </trkpt>
      <trkpt lat="43.58237" lon="2.96442">
        <ele>298.20001220703</ele>
        <time>2018-09-27T13:44:11Z</time>
      </trkpt>
      <trkpt lat="43.58254" lon="2.96445">
        <ele>299.39999389648</ele>
        <time>2018-09-27T13:44:17Z</time>
      </trkpt>
      <trkpt lat="43.5827" lon="2.96438">
        <ele>300.79998779297</ele>
        <time>2018-09-27T13:44:22Z</time>
      </trkpt>
      <trkpt lat="43.58279" lon="2.96432">
        <ele>302</ele>
        <time>2018-09-27T13:44:25Z</time>
      </trkpt>
      <trkpt lat="43.5829" lon="2.96428">
        <ele>303</ele>
        <time>2018-09-27T13:44:30Z</time>
      </trkpt>
      <trkpt lat="43.58293" lon="2.96426">
        <ele>304</ele>
        <time>2018-09-27T13:44:32Z</time>
      </trkpt>
      <trkpt lat="43.58298" lon="2.96421">
        <ele>305.20001220703</ele>
        <time>2018-09-27T13:44:35Z</time>
      </trkpt>
      <trkpt lat="43.58299" lon="2.96418">
        <ele>306</ele>
        <time>2018-09-27T13:45:16Z</time>
      </trkpt>
      <trkpt lat="43.58325" lon="2.96367">
        <ele>306.20001220703</ele>
        <time>2018-09-27T13:45:49Z</time>
      </trkpt>
      <trkpt lat="43.58334" lon="2.96345">
        <ele>306.39999389648</ele>
        <time>2018-09-27T13:45:53Z</time>
      </trkpt>
      <trkpt lat="43.58358" lon="2.9629">
        <ele>306.60000610352</ele>
        <time>2018-09-27T13:46:05Z</time>
      </trkpt>
      <trkpt lat="43.58363" lon="2.96273">
        <ele>307.79998779297</ele>
        <time>2018-09-27T13:46:10Z</time>
      </trkpt>
      <trkpt lat="43.58367" lon="2.9626">
        <ele>309</ele>
        <time>2018-09-27T13:46:14Z</time>
      </trkpt>
      <trkpt lat="43.58372" lon="2.96244">
        <ele>310</ele>
        <time>2018-09-27T13:46:19Z</time>
      </trkpt>
      <trkpt lat="43.58379" lon="2.96221">
        <ele>311</ele>
        <time>2018-09-27T13:46:26Z</time>
      </trkpt>
      <trkpt lat="43.58383" lon="2.9618">
        <ele>312</ele>
        <time>2018-09-27T13:46:35Z</time>
      </trkpt>
      <trkpt lat="43.58387" lon="2.96156">
        <ele>313.20001220703</ele>
        <time>2018-09-27T13:46:40Z</time>
      </trkpt>
      <trkpt lat="43.58391" lon="2.96137">
        <ele>314.20001220703</ele>
        <time>2018-09-27T13:46:45Z</time>
      </trkpt>
      <trkpt lat="43.58392" lon="2.96123">
        <ele>315.20001220703</ele>
        <time>2018-09-27T13:46:49Z</time>
      </trkpt>
      <trkpt lat="43.58393" lon="2.9611">
        <ele>316.39999389648</ele>
        <time>2018-09-27T13:46:53Z</time>
      </trkpt>
      <trkpt lat="43.58397" lon="2.96095">
        <ele>317.60000610352</ele>
        <time>2018-09-27T13:46:58Z</time>
      </trkpt>
      <trkpt lat="43.584" lon="2.9608">
        <ele>319</ele>
        <time>2018-09-27T13:47:04Z</time>
      </trkpt>
      <trkpt lat="43.58403" lon="2.96067">
        <ele>320</ele>
        <time>2018-09-27T13:47:09Z</time>
      </trkpt>
      <trkpt lat="43.58405" lon="2.96053">
        <ele>321.20001220703</ele>
        <time>2018-09-27T13:47:14Z</time>
      </trkpt>
      <trkpt lat="43.58407" lon="2.96036">
        <ele>322.20001220703</ele>
        <time>2018-09-27T13:47:19Z</time>
      </trkpt>
      <trkpt lat="43.58409" lon="2.96024">
        <ele>323.39999389648</ele>
        <time>2018-09-27T13:47:23Z</time>
      </trkpt>
      <trkpt lat="43.58411" lon="2.96013">
        <ele>324.39999389648</ele>
        <time>2018-09-27T13:47:27Z</time>
      </trkpt>
      <trkpt lat="43.58415" lon="2.95997">
        <ele>325.79998779297</ele>
        <time>2018-09-27T13:47:32Z</time>
      </trkpt>
      <trkpt lat="43.58424" lon="2.95983">
        <ele>327.20001220703</ele>
        <time>2018-09-27T13:47:38Z</time>
      </trkpt>
      <trkpt lat="43.58433" lon="2.95976">
        <ele>328.20001220703</ele>
        <time>2018-09-27T13:47:43Z</time>
      </trkpt>
      <trkpt lat="43.58444" lon="2.95973">
        <ele>329.20001220703</ele>
        <time>2018-09-27T13:47:49Z</time>
      </trkpt>
      <trkpt lat="43.58457" lon="2.95972">
        <ele>330.39999389648</ele>
        <time>2018-09-27T13:47:56Z</time>
      </trkpt>
      <trkpt lat="43.58496" lon="2.95957">
        <ele>331.20001220703</ele>
        <time>2018-09-27T13:48:16Z</time>
      </trkpt>
      <trkpt lat="43.58498" lon="2.95955">
        <ele>332.20001220703</ele>
        <time>2018-09-27T13:48:25Z</time>
      </trkpt>
      <trkpt lat="43.5854" lon="2.95937">
        <ele>332.79998779297</ele>
        <time>2018-09-27T13:49:32Z</time>
      </trkpt>
      <trkpt lat="43.58552" lon="2.95931">
        <ele>334</ele>
        <time>2018-09-27T13:49:38Z</time>
      </trkpt>
      <trkpt lat="43.58557" lon="2.95928">
        <ele>334.60000610352</ele>
        <time>2018-09-27T13:49:41Z</time>
      </trkpt>
      <trkpt lat="43.58559" lon="2.95926">
        <ele>335.20001220703</ele>
        <time>2018-09-27T13:49:43Z</time>
      </trkpt>
      <trkpt lat="43.58561" lon="2.95924">
        <ele>336.20001220703</ele>
        <time>2018-09-27T13:49:48Z</time>
      </trkpt>
      <trkpt lat="43.58564" lon="2.95922">
        <ele>337</ele>
        <time>2018-09-27T13:50:10Z</time>
      </trkpt>
      <trkpt lat="43.58564" lon="2.95921">
        <ele>337</ele>
        <time>2018-09-27T13:51:53Z</time>
      </trkpt>
      <trkpt lat="43.58564" lon="2.95921">
        <ele>337.39999389648</ele>
        <time>2018-09-27T13:53:16Z</time>
      </trkpt>
      <trkpt lat="43.58563" lon="2.95917">
        <ele>337</ele>
        <time>2018-09-27T13:56:02Z</time>
      </trkpt>
      <trkpt lat="43.58562" lon="2.95917">
        <ele>337.20001220703</ele>
        <time>2018-09-27T13:57:52Z</time>
      </trkpt>
      <trkpt lat="43.58562" lon="2.95917">
        <ele>337.39999389648</ele>
        <time>2018-09-27T13:59:55Z</time>
      </trkpt>
      <trkpt lat="43.58556" lon="2.9592">
        <ele>338</ele>
        <time>2018-09-27T14:01:19Z</time>
      </trkpt>
      <trkpt lat="43.58541" lon="2.95933">
        <ele>337.79998779297</ele>
        <time>2018-09-27T14:01:26Z</time>
      </trkpt>
      <trkpt lat="43.58505" lon="2.95949">
        <ele>335.79998779297</ele>
        <time>2018-09-27T14:01:35Z</time>
      </trkpt>
      <trkpt lat="43.58484" lon="2.95956">
        <ele>334.39999389648</ele>
        <time>2018-09-27T14:01:39Z</time>
      </trkpt>
      <trkpt lat="43.58474" lon="2.9596">
        <ele>333.39999389648</ele>
        <time>2018-09-27T14:01:41Z</time>
      </trkpt>
      <trkpt lat="43.5846" lon="2.95966">
        <ele>332.39999389648</ele>
        <time>2018-09-27T14:01:44Z</time>
      </trkpt>
      <trkpt lat="43.58431" lon="2.95975">
        <ele>331.60000610352</ele>
        <time>2018-09-27T14:01:51Z</time>
      </trkpt>
      <trkpt lat="43.58427" lon="2.95978">
        <ele>331.60000610352</ele>
        <time>2018-09-27T14:01:52Z</time>
      </trkpt>
      <trkpt lat="43.58424" lon="2.95983">
        <ele>331.39999389648</ele>
        <time>2018-09-27T14:01:53Z</time>
      </trkpt>
      <trkpt lat="43.58417" lon="2.96004">
        <ele>331</ele>
        <time>2018-09-27T14:01:56Z</time>
      </trkpt>
      <trkpt lat="43.58408" lon="2.9605">
        <ele>329.60000610352</ele>
        <time>2018-09-27T14:02:01Z</time>
      </trkpt>
      <trkpt lat="43.58404" lon="2.96061">
        <ele>329.20001220703</ele>
        <time>2018-09-27T14:02:02Z</time>
      </trkpt>
      <trkpt lat="43.58401" lon="2.96071">
        <ele>328.60000610352</ele>
        <time>2018-09-27T14:02:03Z</time>
      </trkpt>
      <trkpt lat="43.58398" lon="2.96081">
        <ele>326.79998779297</ele>
        <time>2018-09-27T14:02:04Z</time>
      </trkpt>
      <trkpt lat="43.58396" lon="2.96091">
        <ele>325.79998779297</ele>
        <time>2018-09-27T14:02:05Z</time>
      </trkpt>
      <trkpt lat="43.58395" lon="2.96101">
        <ele>325</ele>
        <time>2018-09-27T14:02:06Z</time>
      </trkpt>
      <trkpt lat="43.58393" lon="2.96117">
        <ele>322.79998779297</ele>
        <time>2018-09-27T14:02:08Z</time>
      </trkpt>
      <trkpt lat="43.58391" lon="2.96125">
        <ele>321.79998779297</ele>
        <time>2018-09-27T14:02:09Z</time>
      </trkpt>
      <trkpt lat="43.58386" lon="2.96142">
        <ele>320</ele>
        <time>2018-09-27T14:02:11Z</time>
      </trkpt>
      <trkpt lat="43.58385" lon="2.96162">
        <ele>318.79998779297</ele>
        <time>2018-09-27T14:02:13Z</time>
      </trkpt>
      <trkpt lat="43.58382" lon="2.96203">
        <ele>317.20001220703</ele>
        <time>2018-09-27T14:02:17Z</time>
      </trkpt>
      <trkpt lat="43.5838" lon="2.96213">
        <ele>316.79998779297</ele>
        <time>2018-09-27T14:02:18Z</time>
      </trkpt>
      <trkpt lat="43.58377" lon="2.96222">
        <ele>316.39999389648</ele>
        <time>2018-09-27T14:02:19Z</time>
      </trkpt>
      <trkpt lat="43.58374" lon="2.96232">
        <ele>316</ele>
        <time>2018-09-27T14:02:20Z</time>
      </trkpt>
      <trkpt lat="43.58365" lon="2.96253">
        <ele>314.79998779297</ele>
        <time>2018-09-27T14:02:22Z</time>
      </trkpt>
      <trkpt lat="43.5836" lon="2.96263">
        <ele>314.39999389648</ele>
        <time>2018-09-27T14:02:23Z</time>
      </trkpt>
      <trkpt lat="43.58355" lon="2.96272">
        <ele>313.60000610352</ele>
        <time>2018-09-27T14:02:24Z</time>
      </trkpt>
      <trkpt lat="43.5835" lon="2.96283">
        <ele>312.60000610352</ele>
        <time>2018-09-27T14:02:25Z</time>
      </trkpt>
      <trkpt lat="43.58342" lon="2.96305">
        <ele>311</ele>
        <time>2018-09-27T14:02:27Z</time>
      </trkpt>
      <trkpt lat="43.58335" lon="2.96327">
        <ele>310</ele>
        <time>2018-09-27T14:02:29Z</time>
      </trkpt>
      <trkpt lat="43.58331" lon="2.96337">
        <ele>309.39999389648</ele>
        <time>2018-09-27T14:02:30Z</time>
      </trkpt>
      <trkpt lat="43.58327" lon="2.96345">
        <ele>308.60000610352</ele>
        <time>2018-09-27T14:02:31Z</time>
      </trkpt>
      <trkpt lat="43.58322" lon="2.96352">
        <ele>307.60000610352</ele>
        <time>2018-09-27T14:02:32Z</time>
      </trkpt>
      <trkpt lat="43.58313" lon="2.96366">
        <ele>307.20001220703</ele>
        <time>2018-09-27T14:02:34Z</time>
      </trkpt>
      <trkpt lat="43.58306" lon="2.96388">
        <ele>307</ele>
        <time>2018-09-27T14:02:37Z</time>
      </trkpt>
      <trkpt lat="43.58288" lon="2.96423">
        <ele>306.60000610352</ele>
        <time>2018-09-27T14:02:44Z</time>
      </trkpt>
      <trkpt lat="43.58278" lon="2.9643">
        <ele>306.60000610352</ele>
        <time>2018-09-27T14:02:47Z</time>
      </trkpt>
      <trkpt lat="43.58263" lon="2.96438">
        <ele>306.39999389648</ele>
        <time>2018-09-27T14:02:50Z</time>
      </trkpt>
      <trkpt lat="43.5825" lon="2.96438">
        <ele>306.20001220703</ele>
        <time>2018-09-27T14:02:52Z</time>
      </trkpt>
      <trkpt lat="43.58231" lon="2.96439">
        <ele>305.79998779297</ele>
        <time>2018-09-27T14:02:55Z</time>
      </trkpt>
      <trkpt lat="43.58224" lon="2.96442">
        <ele>305.39999389648</ele>
        <time>2018-09-27T14:02:56Z</time>
      </trkpt>
      <trkpt lat="43.58213" lon="2.9645">
        <ele>304</ele>
        <time>2018-09-27T14:02:58Z</time>
      </trkpt>
      <trkpt lat="43.58208" lon="2.96455">
        <ele>301.79998779297</ele>
        <time>2018-09-27T14:02:59Z</time>
      </trkpt>
      <trkpt lat="43.58203" lon="2.96459">
        <ele>300.79998779297</ele>
        <time>2018-09-27T14:03:00Z</time>
      </trkpt>
      <trkpt lat="43.58197" lon="2.96462">
        <ele>299.79998779297</ele>
        <time>2018-09-27T14:03:01Z</time>
      </trkpt>
      <trkpt lat="43.58191" lon="2.96463">
        <ele>298.60000610352</ele>
        <time>2018-09-27T14:03:02Z</time>
      </trkpt>
      <trkpt lat="43.5818" lon="2.96462">
        <ele>297.39999389648</ele>
        <time>2018-09-27T14:03:04Z</time>
      </trkpt>
      <trkpt lat="43.58175" lon="2.9646">
        <ele>297.20001220703</ele>
        <time>2018-09-27T14:03:05Z</time>
      </trkpt>
      <trkpt lat="43.58164" lon="2.96459">
        <ele>296.60000610352</ele>
        <time>2018-09-27T14:03:07Z</time>
      </trkpt>
      <trkpt lat="43.58158" lon="2.9646">
        <ele>296.39999389648</ele>
        <time>2018-09-27T14:03:08Z</time>
      </trkpt>
      <trkpt lat="43.58142" lon="2.96468">
        <ele>295</ele>
        <time>2018-09-27T14:03:11Z</time>
      </trkpt>
      <trkpt lat="43.58131" lon="2.96478">
        <ele>294</ele>
        <time>2018-09-27T14:03:13Z</time>
      </trkpt>
      <trkpt lat="43.58124" lon="2.96489">
        <ele>292</ele>
        <time>2018-09-27T14:03:15Z</time>
      </trkpt>
      <trkpt lat="43.5812" lon="2.96495">
        <ele>291</ele>
        <time>2018-09-27T14:03:16Z</time>
      </trkpt>
      <trkpt lat="43.58116" lon="2.96499">
        <ele>289.79998779297</ele>
        <time>2018-09-27T14:03:17Z</time>
      </trkpt>
      <trkpt lat="43.58105" lon="2.96504">
        <ele>288</ele>
        <time>2018-09-27T14:03:19Z</time>
      </trkpt>
      <trkpt lat="43.58092" lon="2.96506">
        <ele>287</ele>
        <time>2018-09-27T14:03:21Z</time>
      </trkpt>
      <trkpt lat="43.58085" lon="2.96506">
        <ele>286.79998779297</ele>
        <time>2018-09-27T14:03:22Z</time>
      </trkpt>
      <trkpt lat="43.58067" lon="2.965">
        <ele>285.60000610352</ele>
        <time>2018-09-27T14:03:25Z</time>
      </trkpt>
      <trkpt lat="43.58062" lon="2.96496">
        <ele>285.20001220703</ele>
        <time>2018-09-27T14:03:26Z</time>
      </trkpt>
      <trkpt lat="43.58057" lon="2.96493">
        <ele>284.60000610352</ele>
        <time>2018-09-27T14:03:27Z</time>
      </trkpt>
      <trkpt lat="43.58046" lon="2.96486">
        <ele>282.20001220703</ele>
        <time>2018-09-27T14:03:29Z</time>
      </trkpt>
      <trkpt lat="43.5804" lon="2.96481">
        <ele>281.39999389648</ele>
        <time>2018-09-27T14:03:30Z</time>
      </trkpt>
      <trkpt lat="43.58033" lon="2.96475">
        <ele>280.79998779297</ele>
        <time>2018-09-27T14:03:31Z</time>
      </trkpt>
      <trkpt lat="43.58005" lon="2.96456">
        <ele>279.39999389648</ele>
        <time>2018-09-27T14:03:35Z</time>
      </trkpt>
      <trkpt lat="43.57986" lon="2.9645">
        <ele>277</ele>
        <time>2018-09-27T14:03:38Z</time>
      </trkpt>
      <trkpt lat="43.57979" lon="2.96451">
        <ele>275.79998779297</ele>
        <time>2018-09-27T14:03:39Z</time>
      </trkpt>
      <trkpt lat="43.57972" lon="2.96453">
        <ele>274.39999389648</ele>
        <time>2018-09-27T14:03:40Z</time>
      </trkpt>
      <trkpt lat="43.57964" lon="2.96454">
        <ele>273</ele>
        <time>2018-09-27T14:03:41Z</time>
      </trkpt>
      <trkpt lat="43.5795" lon="2.96458">
        <ele>271.79998779297</ele>
        <time>2018-09-27T14:03:43Z</time>
      </trkpt>
      <trkpt lat="43.57944" lon="2.96462">
        <ele>271.39999389648</ele>
        <time>2018-09-27T14:03:44Z</time>
      </trkpt>
      <trkpt lat="43.57933" lon="2.96475">
        <ele>270.60000610352</ele>
        <time>2018-09-27T14:03:46Z</time>
      </trkpt>
      <trkpt lat="43.57921" lon="2.96501">
        <ele>269.39999389648</ele>
        <time>2018-09-27T14:03:49Z</time>
      </trkpt>
      <trkpt lat="43.57911" lon="2.96517">
        <ele>269</ele>
        <time>2018-09-27T14:03:51Z</time>
      </trkpt>
      <trkpt lat="43.57901" lon="2.96532">
        <ele>268</ele>
        <time>2018-09-27T14:03:53Z</time>
      </trkpt>
      <trkpt lat="43.57894" lon="2.96552">
        <ele>265.60000610352</ele>
        <time>2018-09-27T14:03:55Z</time>
      </trkpt>
      <trkpt lat="43.57888" lon="2.96569">
        <ele>264.20001220703</ele>
        <time>2018-09-27T14:03:57Z</time>
      </trkpt>
      <trkpt lat="43.57885" lon="2.96577">
        <ele>263</ele>
        <time>2018-09-27T14:03:58Z</time>
      </trkpt>
      <trkpt lat="43.57881" lon="2.96582">
        <ele>262.20001220703</ele>
        <time>2018-09-27T14:03:59Z</time>
      </trkpt>
      <trkpt lat="43.57877" lon="2.96586">
        <ele>261.60000610352</ele>
        <time>2018-09-27T14:04:00Z</time>
      </trkpt>
      <trkpt lat="43.57865" lon="2.96591">
        <ele>259.60000610352</ele>
        <time>2018-09-27T14:04:02Z</time>
      </trkpt>
      <trkpt lat="43.57852" lon="2.96598">
        <ele>258.20001220703</ele>
        <time>2018-09-27T14:04:04Z</time>
      </trkpt>
      <trkpt lat="43.57824" lon="2.96609">
        <ele>256.60000610352</ele>
        <time>2018-09-27T14:04:08Z</time>
      </trkpt>
      <trkpt lat="43.57805" lon="2.96607">
        <ele>254.60000610352</ele>
        <time>2018-09-27T14:04:11Z</time>
      </trkpt>
      <trkpt lat="43.57799" lon="2.96605">
        <ele>253.60000610352</ele>
        <time>2018-09-27T14:04:12Z</time>
      </trkpt>
      <trkpt lat="43.57792" lon="2.96603">
        <ele>252.19999694824</ele>
        <time>2018-09-27T14:04:13Z</time>
      </trkpt>
      <trkpt lat="43.5778" lon="2.966">
        <ele>251</ele>
        <time>2018-09-27T14:04:15Z</time>
      </trkpt>
      <trkpt lat="43.57773" lon="2.96596">
        <ele>250.19999694824</ele>
        <time>2018-09-27T14:04:16Z</time>
      </trkpt>
      <trkpt lat="43.57767" lon="2.96592">
        <ele>249.80000305176</ele>
        <time>2018-09-27T14:04:17Z</time>
      </trkpt>
      <trkpt lat="43.57742" lon="2.96578">
        <ele>248.60000610352</ele>
        <time>2018-09-27T14:04:21Z</time>
      </trkpt>
      <trkpt lat="43.57738" lon="2.96575">
        <ele>248.39999389648</ele>
        <time>2018-09-27T14:04:22Z</time>
      </trkpt>
      <trkpt lat="43.57732" lon="2.96568">
        <ele>247</ele>
        <time>2018-09-27T14:04:24Z</time>
      </trkpt>
      <trkpt lat="43.57728" lon="2.96552">
        <ele>245.39999389648</ele>
        <time>2018-09-27T14:04:26Z</time>
      </trkpt>
      <trkpt lat="43.5772" lon="2.96538">
        <ele>244</ele>
        <time>2018-09-27T14:04:28Z</time>
      </trkpt>
      <trkpt lat="43.57703" lon="2.96535">
        <ele>242.80000305176</ele>
        <time>2018-09-27T14:04:31Z</time>
      </trkpt>
      <trkpt lat="43.57693" lon="2.96542">
        <ele>241.60000610352</ele>
        <time>2018-09-27T14:04:33Z</time>
      </trkpt>
      <trkpt lat="43.57688" lon="2.96544">
        <ele>240.80000305176</ele>
        <time>2018-09-27T14:04:34Z</time>
      </trkpt>
      <trkpt lat="43.57682" lon="2.96546">
        <ele>240.19999694824</ele>
        <time>2018-09-27T14:04:35Z</time>
      </trkpt>
      <trkpt lat="43.57676" lon="2.96548">
        <ele>239.60000610352</ele>
        <time>2018-09-27T14:04:36Z</time>
      </trkpt>
      <trkpt lat="43.57669" lon="2.96548">
        <ele>239</ele>
        <time>2018-09-27T14:04:37Z</time>
      </trkpt>
      <trkpt lat="43.57655" lon="2.9655">
        <ele>238</ele>
        <time>2018-09-27T14:04:39Z</time>
      </trkpt>
      <trkpt lat="43.57647" lon="2.96551">
        <ele>237.80000305176</ele>
        <time>2018-09-27T14:04:40Z</time>
      </trkpt>
      <trkpt lat="43.57615" lon="2.96567">
        <ele>236.60000610352</ele>
        <time>2018-09-27T14:04:44Z</time>
      </trkpt>
      <trkpt lat="43.57597" lon="2.96578">
        <ele>235</ele>
        <time>2018-09-27T14:04:46Z</time>
      </trkpt>
      <trkpt lat="43.57581" lon="2.9659">
        <ele>233.39999389648</ele>
        <time>2018-09-27T14:04:48Z</time>
      </trkpt>
      <trkpt lat="43.57568" lon="2.96603">
        <ele>231.19999694824</ele>
        <time>2018-09-27T14:04:50Z</time>
      </trkpt>
      <trkpt lat="43.57562" lon="2.96608">
        <ele>229.60000610352</ele>
        <time>2018-09-27T14:04:51Z</time>
      </trkpt>
      <trkpt lat="43.57556" lon="2.9661">
        <ele>227</ele>
        <time>2018-09-27T14:04:52Z</time>
      </trkpt>
      <trkpt lat="43.57546" lon="2.96612">
        <ele>226</ele>
        <time>2018-09-27T14:04:54Z</time>
      </trkpt>
      <trkpt lat="43.57542" lon="2.96613">
        <ele>225.80000305176</ele>
        <time>2018-09-27T14:04:55Z</time>
      </trkpt>
      <trkpt lat="43.57517" lon="2.96616">
        <ele>227</ele>
        <time>2018-09-27T14:05:04Z</time>
      </trkpt>
      <trkpt lat="43.57512" lon="2.96619">
        <ele>228</ele>
        <time>2018-09-27T14:05:06Z</time>
      </trkpt>
      <trkpt lat="43.57503" lon="2.96623">
        <ele>229.19999694824</ele>
        <time>2018-09-27T14:05:09Z</time>
      </trkpt>
      <trkpt lat="43.57494" lon="2.96629">
        <ele>230.39999389648</ele>
        <time>2018-09-27T14:05:12Z</time>
      </trkpt>
      <trkpt lat="43.57484" lon="2.96639">
        <ele>231.19999694824</ele>
        <time>2018-09-27T14:05:16Z</time>
      </trkpt>
      <trkpt lat="43.57476" lon="2.96648">
        <ele>231.60000610352</ele>
        <time>2018-09-27T14:05:19Z</time>
      </trkpt>
      <trkpt lat="43.57459" lon="2.96655">
        <ele>232.60000610352</ele>
        <time>2018-09-27T14:05:24Z</time>
      </trkpt>
      <trkpt lat="43.57451" lon="2.96658">
        <ele>233.19999694824</ele>
        <time>2018-09-27T14:05:27Z</time>
      </trkpt>
      <trkpt lat="43.57442" lon="2.96669">
        <ele>233.80000305176</ele>
        <time>2018-09-27T14:05:31Z</time>
      </trkpt>
      <trkpt lat="43.57439" lon="2.96677">
        <ele>234.39999389648</ele>
        <time>2018-09-27T14:05:33Z</time>
      </trkpt>
      <trkpt lat="43.57435" lon="2.96684">
        <ele>235</ele>
        <time>2018-09-27T14:05:35Z</time>
      </trkpt>
      <trkpt lat="43.574" lon="2.96704">
        <ele>235.60000610352</ele>
        <time>2018-09-27T14:05:47Z</time>
      </trkpt>
      <trkpt lat="43.57362" lon="2.96713">
        <ele>234</ele>
        <time>2018-09-27T14:05:55Z</time>
      </trkpt>
      <trkpt lat="43.57348" lon="2.96714">
        <ele>232.60000610352</ele>
        <time>2018-09-27T14:05:58Z</time>
      </trkpt>
      <trkpt lat="43.57334" lon="2.96712">
        <ele>231.39999389648</ele>
        <time>2018-09-27T14:06:02Z</time>
      </trkpt>
      <trkpt lat="43.57321" lon="2.96708">
        <ele>230.39999389648</ele>
        <time>2018-09-27T14:06:07Z</time>
      </trkpt>
      <trkpt lat="43.57293" lon="2.96697">
        <ele>229.19999694824</ele>
        <time>2018-09-27T14:06:14Z</time>
      </trkpt>
      <trkpt lat="43.57283" lon="2.96692">
        <ele>228.80000305176</ele>
        <time>2018-09-27T14:06:16Z</time>
      </trkpt>
      <trkpt lat="43.57266" lon="2.96683">
        <ele>228.39999389648</ele>
        <time>2018-09-27T14:06:20Z</time>
      </trkpt>
      <trkpt lat="43.57216" lon="2.96648">
        <ele>228.60000610352</ele>
        <time>2018-09-27T14:06:37Z</time>
      </trkpt>
      <trkpt lat="43.57175" lon="2.96659">
        <ele>227.60000610352</ele>
        <time>2018-09-27T14:06:48Z</time>
      </trkpt>
      <trkpt lat="43.57182" lon="2.96669">
        <ele>226.39999389648</ele>
        <time>2018-09-27T14:06:53Z</time>
      </trkpt>
      <trkpt lat="43.5719" lon="2.96677">
        <ele>226.19999694824</ele>
        <time>2018-09-27T14:06:57Z</time>
      </trkpt>
      <trkpt lat="43.57195" lon="2.96684">
        <ele>225.39999389648</ele>
        <time>2018-09-27T14:07:01Z</time>
      </trkpt>
      <trkpt lat="43.57201" lon="2.96695">
        <ele>224.19999694824</ele>
        <time>2018-09-27T14:07:06Z</time>
      </trkpt>
      <trkpt lat="43.57205" lon="2.96697">
        <ele>224</ele>
        <time>2018-09-27T14:07:08Z</time>
      </trkpt>
      <trkpt lat="43.57226" lon="2.96709">
        <ele>223.39999389648</ele>
        <time>2018-09-27T14:07:19Z</time>
      </trkpt>
      <trkpt lat="43.57252" lon="2.96716">
        <ele>223.39999389648</ele>
        <time>2018-09-27T14:07:32Z</time>
      </trkpt>
      <trkpt lat="43.57304" lon="2.96731">
        <ele>225</ele>
        <time>2018-09-27T14:08:03Z</time>
      </trkpt>
      <trkpt lat="43.57319" lon="2.9675">
        <ele>224.39999389648</ele>
        <time>2018-09-27T14:08:38Z</time>
      </trkpt>
      <trkpt lat="43.57318" lon="2.96753">
        <ele>224</ele>
        <time>2018-09-27T14:08:40Z</time>
      </trkpt>
      <trkpt lat="43.57315" lon="2.96767">
        <ele>223.39999389648</ele>
        <time>2018-09-27T14:08:48Z</time>
      </trkpt>
      <trkpt lat="43.57312" lon="2.96776">
        <ele>222.19999694824</ele>
        <time>2018-09-27T14:08:53Z</time>
      </trkpt>
      <trkpt lat="43.5731" lon="2.9678">
        <ele>221</ele>
        <time>2018-09-27T14:08:58Z</time>
      </trkpt>
      <trkpt lat="43.57311" lon="2.96787">
        <ele>220</ele>
        <time>2018-09-27T14:09:03Z</time>
      </trkpt>
      <trkpt lat="43.573" lon="2.9682">
        <ele>219</ele>
        <time>2018-09-27T14:09:13Z</time>
      </trkpt>
      <trkpt lat="43.57296" lon="2.96831">
        <ele>218.60000610352</ele>
        <time>2018-09-27T14:09:15Z</time>
      </trkpt>
      <trkpt lat="43.57288" lon="2.96842">
        <ele>218</ele>
        <time>2018-09-27T14:09:17Z</time>
      </trkpt>
      <trkpt lat="43.57273" lon="2.9685">
        <ele>216.60000610352</ele>
        <time>2018-09-27T14:09:21Z</time>
      </trkpt>
      <trkpt lat="43.57271" lon="2.9685">
        <ele>215.60000610352</ele>
        <time>2018-09-27T14:09:22Z</time>
      </trkpt>
      <trkpt lat="43.57269" lon="2.96851">
        <ele>215.19999694824</ele>
        <time>2018-09-27T14:09:23Z</time>
      </trkpt>
      <trkpt lat="43.57267" lon="2.96853">
        <ele>214.80000305176</ele>
        <time>2018-09-27T14:09:25Z</time>
      </trkpt>
      <trkpt lat="43.57259" lon="2.96863">
        <ele>214.60000610352</ele>
        <time>2018-09-27T14:09:30Z</time>
      </trkpt>
      <trkpt lat="43.57252" lon="2.96871">
        <ele>214.19999694824</ele>
        <time>2018-09-27T14:09:33Z</time>
      </trkpt>
      <trkpt lat="43.57226" lon="2.96892">
        <ele>213.19999694824</ele>
        <time>2018-09-27T14:09:46Z</time>
      </trkpt>
      <trkpt lat="43.57214" lon="2.969">
        <ele>212.19999694824</ele>
        <time>2018-09-27T14:09:51Z</time>
      </trkpt>
      <trkpt lat="43.57206" lon="2.9691">
        <ele>211</ele>
        <time>2018-09-27T14:09:55Z</time>
      </trkpt>
      <trkpt lat="43.57199" lon="2.9692">
        <ele>209.80000305176</ele>
        <time>2018-09-27T14:09:58Z</time>
      </trkpt>
      <trkpt lat="43.57189" lon="2.96936">
        <ele>208.39999389648</ele>
        <time>2018-09-27T14:10:03Z</time>
      </trkpt>
      <trkpt lat="43.57184" lon="2.96944">
        <ele>207.39999389648</ele>
        <time>2018-09-27T14:10:05Z</time>
      </trkpt>
      <trkpt lat="43.57179" lon="2.9695">
        <ele>206.39999389648</ele>
        <time>2018-09-27T14:10:07Z</time>
      </trkpt>
      <trkpt lat="43.5717" lon="2.96954">
        <ele>205.39999389648</ele>
        <time>2018-09-27T14:10:10Z</time>
      </trkpt>
      <trkpt lat="43.57159" lon="2.96962">
        <ele>204.60000610352</ele>
        <time>2018-09-27T14:10:17Z</time>
      </trkpt>
      <trkpt lat="43.57159" lon="2.96965">
        <ele>204.60000610352</ele>
        <time>2018-09-27T14:10:19Z</time>
      </trkpt>
      <trkpt lat="43.57156" lon="2.96974">
        <ele>204.60000610352</ele>
        <time>2018-09-27T14:10:25Z</time>
      </trkpt>
      <trkpt lat="43.57143" lon="2.96986">
        <ele>204.39999389648</ele>
        <time>2018-09-27T14:10:34Z</time>
      </trkpt>
      <trkpt lat="43.5714" lon="2.96988">
        <ele>204.39999389648</ele>
        <time>2018-09-27T14:10:35Z</time>
      </trkpt>
      <trkpt lat="43.57121" lon="2.96991">
        <ele>204</ele>
        <time>2018-09-27T14:10:40Z</time>
      </trkpt>
      <trkpt lat="43.57113" lon="2.96988">
        <ele>203.39999389648</ele>
        <time>2018-09-27T14:10:42Z</time>
      </trkpt>
      <trkpt lat="43.5709" lon="2.96978">
        <ele>202.19999694824</ele>
        <time>2018-09-27T14:10:47Z</time>
      </trkpt>
      <trkpt lat="43.57082" lon="2.96974">
        <ele>201.19999694824</ele>
        <time>2018-09-27T14:10:50Z</time>
      </trkpt>
      <trkpt lat="43.57028" lon="2.96976">
        <ele>200.39999389648</ele>
        <time>2018-09-27T14:11:12Z</time>
      </trkpt>
      <trkpt lat="43.57012" lon="2.97013">
        <ele>202.80000305176</ele>
        <time>2018-09-27T14:11:26Z</time>
      </trkpt>
      <trkpt lat="43.57002" lon="2.97041">
        <ele>204</ele>
        <time>2018-09-27T14:11:35Z</time>
      </trkpt>
      <trkpt lat="43.56976" lon="2.9707">
        <ele>204</ele>
        <time>2018-09-27T14:11:44Z</time>
      </trkpt>
      <trkpt lat="43.56969" lon="2.97081">
        <ele>203.60000610352</ele>
        <time>2018-09-27T14:11:46Z</time>
      </trkpt>
      <trkpt lat="43.56961" lon="2.971">
        <ele>202.80000305176</ele>
        <time>2018-09-27T14:11:49Z</time>
      </trkpt>
      <trkpt lat="43.56959" lon="2.97106">
        <ele>202.60000610352</ele>
        <time>2018-09-27T14:11:50Z</time>
      </trkpt>
      <trkpt lat="43.56953" lon="2.97126">
        <ele>201.60000610352</ele>
        <time>2018-09-27T14:11:53Z</time>
      </trkpt>
      <trkpt lat="43.56952" lon="2.97133">
        <ele>201.19999694824</ele>
        <time>2018-09-27T14:11:54Z</time>
      </trkpt>
      <trkpt lat="43.5695" lon="2.97147">
        <ele>200.19999694824</ele>
        <time>2018-09-27T14:11:56Z</time>
      </trkpt>
      <trkpt lat="43.56949" lon="2.9716">
        <ele>198.80000305176</ele>
        <time>2018-09-27T14:11:58Z</time>
      </trkpt>
      <trkpt lat="43.56945" lon="2.97171">
        <ele>197.39999389648</ele>
        <time>2018-09-27T14:12:01Z</time>
      </trkpt>
      <trkpt lat="43.56942" lon="2.9718">
        <ele>196.60000610352</ele>
        <time>2018-09-27T14:12:04Z</time>
      </trkpt>
      <trkpt lat="43.56942" lon="2.97182">
        <ele>196.39999389648</ele>
        <time>2018-09-27T14:12:05Z</time>
      </trkpt>
      <trkpt lat="43.56955" lon="2.97171">
        <ele>195.80000305176</ele>
        <time>2018-09-27T14:12:12Z</time>
      </trkpt>
      <trkpt lat="43.56961" lon="2.9716">
        <ele>195.60000610352</ele>
        <time>2018-09-27T14:12:15Z</time>
      </trkpt>
      <trkpt lat="43.56973" lon="2.97137">
        <ele>194.39999389648</ele>
        <time>2018-09-27T14:12:19Z</time>
      </trkpt>
      <trkpt lat="43.56976" lon="2.97135">
        <ele>194.19999694824</ele>
        <time>2018-09-27T14:12:20Z</time>
      </trkpt>
      <trkpt lat="43.56985" lon="2.97136">
        <ele>193.39999389648</ele>
        <time>2018-09-27T14:12:22Z</time>
      </trkpt>
      <trkpt lat="43.56996" lon="2.97138">
        <ele>191.80000305176</ele>
        <time>2018-09-27T14:12:25Z</time>
      </trkpt>
      <trkpt lat="43.57025" lon="2.97146">
        <ele>191</ele>
        <time>2018-09-27T14:12:33Z</time>
      </trkpt>
      <trkpt lat="43.57044" lon="2.97206">
        <ele>191.39999389648</ele>
        <time>2018-09-27T14:12:57Z</time>
      </trkpt>
      <trkpt lat="43.57042" lon="2.97241">
        <ele>192.39999389648</ele>
        <time>2018-09-27T14:13:09Z</time>
      </trkpt>
      <trkpt lat="43.57008" lon="2.97299">
        <ele>193.80000305176</ele>
        <time>2018-09-27T14:13:30Z</time>
      </trkpt>
      <trkpt lat="43.57004" lon="2.97308">
        <ele>194</ele>
        <time>2018-09-27T14:13:34Z</time>
      </trkpt>
      <trkpt lat="43.56987" lon="2.97336">
        <ele>194.80000305176</ele>
        <time>2018-09-27T14:13:46Z</time>
      </trkpt>
      <trkpt lat="43.56968" lon="2.97369">
        <ele>196</ele>
        <time>2018-09-27T14:13:56Z</time>
      </trkpt>
      <trkpt lat="43.56945" lon="2.97396">
        <ele>197.19999694824</ele>
        <time>2018-09-27T14:14:06Z</time>
      </trkpt>
      <trkpt lat="43.56897" lon="2.97401">
        <ele>198.39999389648</ele>
        <time>2018-09-27T14:14:24Z</time>
      </trkpt>
      <trkpt lat="43.56863" lon="2.9742">
        <ele>199.19999694824</ele>
        <time>2018-09-27T14:14:37Z</time>
      </trkpt>
      <trkpt lat="43.56842" lon="2.97462">
        <ele>199.80000305176</ele>
        <time>2018-09-27T14:14:50Z</time>
      </trkpt>
      <trkpt lat="43.56856" lon="2.97524">
        <ele>201.39999389648</ele>
        <time>2018-09-27T14:15:09Z</time>
      </trkpt>
      <trkpt lat="43.56875" lon="2.97552">
        <ele>202.39999389648</ele>
        <time>2018-09-27T14:15:20Z</time>
      </trkpt>
      <trkpt lat="43.56874" lon="2.9754">
        <ele>203.19999694824</ele>
        <time>2018-09-27T14:15:27Z</time>
      </trkpt>
      <trkpt lat="43.56871" lon="2.97535">
        <ele>203.60000610352</ele>
        <time>2018-09-27T14:15:29Z</time>
      </trkpt>
      <trkpt lat="43.56862" lon="2.97517">
        <ele>204.60000610352</ele>
        <time>2018-09-27T14:15:36Z</time>
      </trkpt>
      <trkpt lat="43.56859" lon="2.97506">
        <ele>205.80000305176</ele>
        <time>2018-09-27T14:15:40Z</time>
      </trkpt>
      <trkpt lat="43.56861" lon="2.97489">
        <ele>207</ele>
        <time>2018-09-27T14:15:46Z</time>
      </trkpt>
      <trkpt lat="43.56864" lon="2.97478">
        <ele>208.19999694824</ele>
        <time>2018-09-27T14:15:50Z</time>
      </trkpt>
      <trkpt lat="43.5687" lon="2.97465">
        <ele>209.19999694824</ele>
        <time>2018-09-27T14:15:55Z</time>
      </trkpt>
      <trkpt lat="43.5688" lon="2.97453">
        <ele>210.60000610352</ele>
        <time>2018-09-27T14:16:02Z</time>
      </trkpt>
      <trkpt lat="43.5689" lon="2.97447">
        <ele>211.80000305176</ele>
        <time>2018-09-27T14:16:08Z</time>
      </trkpt>
      <trkpt lat="43.56899" lon="2.97443">
        <ele>212.80000305176</ele>
        <time>2018-09-27T14:16:14Z</time>
      </trkpt>
      <trkpt lat="43.5691" lon="2.97443">
        <ele>214.39999389648</ele>
        <time>2018-09-27T14:16:21Z</time>
      </trkpt>
      <trkpt lat="43.56917" lon="2.97452">
        <ele>215.60000610352</ele>
        <time>2018-09-27T14:16:27Z</time>
      </trkpt>
      <trkpt lat="43.56917" lon="2.97456">
        <ele>215.60000610352</ele>
        <time>2018-09-27T14:16:29Z</time>
      </trkpt>
      <trkpt lat="43.56911" lon="2.97464">
        <ele>216.39999389648</ele>
        <time>2018-09-27T14:16:34Z</time>
      </trkpt>
      <trkpt lat="43.5691" lon="2.97464">
        <ele>216.39999389648</ele>
        <time>2018-09-27T14:16:35Z</time>
      </trkpt>
      <trkpt lat="43.56902" lon="2.97469">
        <ele>216.60000610352</ele>
        <time>2018-09-27T14:16:42Z</time>
      </trkpt>
      <trkpt lat="43.56901" lon="2.9747">
        <ele>216.80000305176</ele>
        <time>2018-09-27T14:16:43Z</time>
      </trkpt>
      <trkpt lat="43.56897" lon="2.97482">
        <ele>217.60000610352</ele>
        <time>2018-09-27T14:16:49Z</time>
      </trkpt>
      <trkpt lat="43.56896" lon="2.97483">
        <ele>217.80000305176</ele>
        <time>2018-09-27T14:16:50Z</time>
      </trkpt>
      <trkpt lat="43.56895" lon="2.97485">
        <ele>218</ele>
        <time>2018-09-27T14:16:51Z</time>
      </trkpt>
      <trkpt lat="43.56895" lon="2.9749">
        <ele>218.19999694824</ele>
        <time>2018-09-27T14:16:53Z</time>
      </trkpt>
      <trkpt lat="43.56895" lon="2.97511">
        <ele>219.19999694824</ele>
        <time>2018-09-27T14:17:02Z</time>
      </trkpt>
      <trkpt lat="43.56909" lon="2.97539">
        <ele>220.60000610352</ele>
        <time>2018-09-27T14:17:14Z</time>
      </trkpt>
      <trkpt lat="43.56913" lon="2.9754">
        <ele>221</ele>
        <time>2018-09-27T14:17:16Z</time>
      </trkpt>
      <trkpt lat="43.56918" lon="2.97537">
        <ele>221.60000610352</ele>
        <time>2018-09-27T14:17:19Z</time>
      </trkpt>
      <trkpt lat="43.56921" lon="2.97524">
        <ele>222.80000305176</ele>
        <time>2018-09-27T14:17:24Z</time>
      </trkpt>
      <trkpt lat="43.56921" lon="2.97522">
        <ele>223</ele>
        <time>2018-09-27T14:17:25Z</time>
      </trkpt>
      <trkpt lat="43.5692" lon="2.97509">
        <ele>224.19999694824</ele>
        <time>2018-09-27T14:17:31Z</time>
      </trkpt>
      <trkpt lat="43.56921" lon="2.97501">
        <ele>224.80000305176</ele>
        <time>2018-09-27T14:17:35Z</time>
      </trkpt>
      <trkpt lat="43.56926" lon="2.97493">
        <ele>225.39999389648</ele>
        <time>2018-09-27T14:17:40Z</time>
      </trkpt>
      <trkpt lat="43.56928" lon="2.97489">
        <ele>225.60000610352</ele>
        <time>2018-09-27T14:17:42Z</time>
      </trkpt>
      <trkpt lat="43.56936" lon="2.97481">
        <ele>226.60000610352</ele>
        <time>2018-09-27T14:17:48Z</time>
      </trkpt>
      <trkpt lat="43.56946" lon="2.97476">
        <ele>227.80000305176</ele>
        <time>2018-09-27T14:17:55Z</time>
      </trkpt>
      <trkpt lat="43.56956" lon="2.97473">
        <ele>229</ele>
        <time>2018-09-27T14:18:01Z</time>
      </trkpt>
      <trkpt lat="43.5697" lon="2.97467">
        <ele>230.19999694824</ele>
        <time>2018-09-27T14:18:10Z</time>
      </trkpt>
      <trkpt lat="43.56983" lon="2.97459">
        <ele>231.39999389648</ele>
        <time>2018-09-27T14:18:19Z</time>
      </trkpt>
      <trkpt lat="43.56997" lon="2.97448">
        <ele>232.60000610352</ele>
        <time>2018-09-27T14:18:29Z</time>
      </trkpt>
      <trkpt lat="43.57003" lon="2.97445">
        <ele>233.19999694824</ele>
        <time>2018-09-27T14:18:33Z</time>
      </trkpt>
      <trkpt lat="43.57012" lon="2.97443">
        <ele>233.80000305176</ele>
        <time>2018-09-27T14:18:38Z</time>
      </trkpt>
      <trkpt lat="43.57029" lon="2.97446">
        <ele>234.39999389648</ele>
        <time>2018-09-27T14:18:47Z</time>
      </trkpt>
      <trkpt lat="43.5704" lon="2.97449">
        <ele>235</ele>
        <time>2018-09-27T14:18:54Z</time>
      </trkpt>
      <trkpt lat="43.57044" lon="2.9745">
        <ele>235.19999694824</ele>
        <time>2018-09-27T14:18:57Z</time>
      </trkpt>
      <trkpt lat="43.57057" lon="2.97456">
        <ele>236.19999694824</ele>
        <time>2018-09-27T14:19:06Z</time>
      </trkpt>
      <trkpt lat="43.57069" lon="2.9746">
        <ele>237.60000610352</ele>
        <time>2018-09-27T14:19:15Z</time>
      </trkpt>
      <trkpt lat="43.5708" lon="2.97466">
        <ele>238.80000305176</ele>
        <time>2018-09-27T14:19:24Z</time>
      </trkpt>
      <trkpt lat="43.5709" lon="2.97476">
        <ele>240</ele>
        <time>2018-09-27T14:19:31Z</time>
      </trkpt>
      <trkpt lat="43.57097" lon="2.97489">
        <ele>241.19999694824</ele>
        <time>2018-09-27T14:19:38Z</time>
      </trkpt>
      <trkpt lat="43.57103" lon="2.97501">
        <ele>242.19999694824</ele>
        <time>2018-09-27T14:19:45Z</time>
      </trkpt>
      <trkpt lat="43.57107" lon="2.9751">
        <ele>243.39999389648</ele>
        <time>2018-09-27T14:19:50Z</time>
      </trkpt>
      <trkpt lat="43.57117" lon="2.97525">
        <ele>244.60000610352</ele>
        <time>2018-09-27T14:19:59Z</time>
      </trkpt>
      <trkpt lat="43.57127" lon="2.97538">
        <ele>245.80000305176</ele>
        <time>2018-09-27T14:20:09Z</time>
      </trkpt>
      <trkpt lat="43.5714" lon="2.97548">
        <ele>247</ele>
        <time>2018-09-27T14:20:21Z</time>
      </trkpt>
      <trkpt lat="43.57149" lon="2.97556">
        <ele>247.80000305176</ele>
        <time>2018-09-27T14:20:31Z</time>
      </trkpt>
      <trkpt lat="43.57149" lon="2.97558">
        <ele>248</ele>
        <time>2018-09-27T14:20:32Z</time>
      </trkpt>
      <trkpt lat="43.57145" lon="2.97564">
        <ele>248.39999389648</ele>
        <time>2018-09-27T14:20:35Z</time>
      </trkpt>
      <trkpt lat="43.5714" lon="2.97599">
        <ele>249.39999389648</ele>
        <time>2018-09-27T14:20:44Z</time>
      </trkpt>
      <trkpt lat="43.57156" lon="2.97675">
        <ele>249.39999389648</ele>
        <time>2018-09-27T14:21:02Z</time>
      </trkpt>
      <trkpt lat="43.57168" lon="2.97699">
        <ele>248.60000610352</ele>
        <time>2018-09-27T14:21:08Z</time>
      </trkpt>
      <trkpt lat="43.57217" lon="2.97734">
        <ele>249.60000610352</ele>
        <time>2018-09-27T14:21:28Z</time>
      </trkpt>
      <trkpt lat="43.57218" lon="2.97738">
        <ele>249.80000305176</ele>
        <time>2018-09-27T14:21:29Z</time>
      </trkpt>
      <trkpt lat="43.57226" lon="2.97767">
        <ele>251.19999694824</ele>
        <time>2018-09-27T14:21:37Z</time>
      </trkpt>
      <trkpt lat="43.57249" lon="2.97837">
        <ele>251.19999694824</ele>
        <time>2018-09-27T14:21:53Z</time>
      </trkpt>
      <trkpt lat="43.57255" lon="2.97857">
        <ele>250.80000305176</ele>
        <time>2018-09-27T14:21:56Z</time>
      </trkpt>
      <trkpt lat="43.57259" lon="2.97879">
        <ele>249.60000610352</ele>
        <time>2018-09-27T14:21:59Z</time>
      </trkpt>
      <trkpt lat="43.57259" lon="2.97885">
        <ele>249.39999389648</ele>
        <time>2018-09-27T14:22:00Z</time>
      </trkpt>
      <trkpt lat="43.5726" lon="2.97903">
        <ele>249.19999694824</ele>
        <time>2018-09-27T14:22:03Z</time>
      </trkpt>
      <trkpt lat="43.57275" lon="2.97933">
        <ele>249</ele>
        <time>2018-09-27T14:22:10Z</time>
      </trkpt>
      <trkpt lat="43.57301" lon="2.97964">
        <ele>251.60000610352</ele>
        <time>2018-09-27T14:22:21Z</time>
      </trkpt>
      <trkpt lat="43.57305" lon="2.97974">
        <ele>252.80000305176</ele>
        <time>2018-09-27T14:22:24Z</time>
      </trkpt>
      <trkpt lat="43.5731" lon="2.97982">
        <ele>253.80000305176</ele>
        <time>2018-09-27T14:22:27Z</time>
      </trkpt>
      <trkpt lat="43.57313" lon="2.97988">
        <ele>255</ele>
        <time>2018-09-27T14:22:30Z</time>
      </trkpt>
      <trkpt lat="43.57315" lon="2.97994">
        <ele>256.39999389648</ele>
        <time>2018-09-27T14:22:34Z</time>
      </trkpt>
      <trkpt lat="43.57316" lon="2.97996">
        <ele>257.39999389648</ele>
        <time>2018-09-27T14:22:37Z</time>
      </trkpt>
      <trkpt lat="43.57317" lon="2.97999">
        <ele>258.60000610352</ele>
        <time>2018-09-27T14:22:41Z</time>
      </trkpt>
      <trkpt lat="43.57323" lon="2.98008">
        <ele>259.39999389648</ele>
        <time>2018-09-27T14:26:21Z</time>
      </trkpt>
      <trkpt lat="43.57334" lon="2.98019">
        <ele>260.39999389648</ele>
        <time>2018-09-27T14:26:30Z</time>
      </trkpt>
      <trkpt lat="43.57344" lon="2.98024">
        <ele>261.20001220703</ele>
        <time>2018-09-27T14:26:36Z</time>
      </trkpt>
      <trkpt lat="43.57355" lon="2.98028">
        <ele>262.60000610352</ele>
        <time>2018-09-27T14:26:42Z</time>
      </trkpt>
      <trkpt lat="43.57361" lon="2.9803">
        <ele>263.60000610352</ele>
        <time>2018-09-27T14:26:46Z</time>
      </trkpt>
      <trkpt lat="43.57362" lon="2.98031">
        <ele>264</ele>
        <time>2018-09-27T14:26:47Z</time>
      </trkpt>
      <trkpt lat="43.5737" lon="2.98036">
        <ele>264.39999389648</ele>
        <time>2018-09-27T14:26:51Z</time>
      </trkpt>
      <trkpt lat="43.57382" lon="2.98045">
        <ele>264.39999389648</ele>
        <time>2018-09-27T14:26:56Z</time>
      </trkpt>
      <trkpt lat="43.57371" lon="2.98069">
        <ele>264</ele>
        <time>2018-09-27T14:27:07Z</time>
      </trkpt>
      <trkpt lat="43.57355" lon="2.98095">
        <ele>265.20001220703</ele>
        <time>2018-09-27T14:27:20Z</time>
      </trkpt>
      <trkpt lat="43.5735" lon="2.9811">
        <ele>266.39999389648</ele>
        <time>2018-09-27T14:27:26Z</time>
      </trkpt>
      <trkpt lat="43.57345" lon="2.98124">
        <ele>267.60000610352</ele>
        <time>2018-09-27T14:27:31Z</time>
      </trkpt>
      <trkpt lat="43.57343" lon="2.98137">
        <ele>268.79998779297</ele>
        <time>2018-09-27T14:27:35Z</time>
      </trkpt>
      <trkpt lat="43.5734" lon="2.98153">
        <ele>269.79998779297</ele>
        <time>2018-09-27T14:27:41Z</time>
      </trkpt>
      <trkpt lat="43.57338" lon="2.98167">
        <ele>270.79998779297</ele>
        <time>2018-09-27T14:27:47Z</time>
      </trkpt>
      <trkpt lat="43.57336" lon="2.98178">
        <ele>272</ele>
        <time>2018-09-27T14:27:52Z</time>
      </trkpt>
      <trkpt lat="43.57334" lon="2.98188">
        <ele>273</ele>
        <time>2018-09-27T14:27:56Z</time>
      </trkpt>
      <trkpt lat="43.57333" lon="2.98194">
        <ele>273.39999389648</ele>
        <time>2018-09-27T14:27:58Z</time>
      </trkpt>
      <trkpt lat="43.57328" lon="2.98214">
        <ele>274.20001220703</ele>
        <time>2018-09-27T14:28:04Z</time>
      </trkpt>
      <trkpt lat="43.57325" lon="2.98244">
        <ele>275.39999389648</ele>
        <time>2018-09-27T14:28:13Z</time>
      </trkpt>
      <trkpt lat="43.57327" lon="2.98263">
        <ele>276.39999389648</ele>
        <time>2018-09-27T14:28:19Z</time>
      </trkpt>
      <trkpt lat="43.5733" lon="2.98295">
        <ele>277.60000610352</ele>
        <time>2018-09-27T14:28:30Z</time>
      </trkpt>
      <trkpt lat="43.57333" lon="2.98318">
        <ele>278.60000610352</ele>
        <time>2018-09-27T14:28:37Z</time>
      </trkpt>
      <trkpt lat="43.57334" lon="2.98343">
        <ele>279.79998779297</ele>
        <time>2018-09-27T14:28:45Z</time>
      </trkpt>
      <trkpt lat="43.57326" lon="2.98416">
        <ele>279.39999389648</ele>
        <time>2018-09-27T14:29:03Z</time>
      </trkpt>
      <trkpt lat="43.57299" lon="2.9848">
        <ele>280.39999389648</ele>
        <time>2018-09-27T14:29:27Z</time>
      </trkpt>
      <trkpt lat="43.57293" lon="2.98493">
        <ele>281</ele>
        <time>2018-09-27T14:29:32Z</time>
      </trkpt>
      <trkpt lat="43.57275" lon="2.98527">
        <ele>282.20001220703</ele>
        <time>2018-09-27T14:29:44Z</time>
      </trkpt>
      <trkpt lat="43.57261" lon="2.98558">
        <ele>283.20001220703</ele>
        <time>2018-09-27T14:29:54Z</time>
      </trkpt>
      <trkpt lat="43.57258" lon="2.98566">
        <ele>284.39999389648</ele>
        <time>2018-09-27T14:29:57Z</time>
      </trkpt>
      <trkpt lat="43.57255" lon="2.98572">
        <ele>285.60000610352</ele>
        <time>2018-09-27T14:30:00Z</time>
      </trkpt>
      <trkpt lat="43.57244" lon="2.98582">
        <ele>286.60000610352</ele>
        <time>2018-09-27T14:30:07Z</time>
      </trkpt>
      <trkpt lat="43.57219" lon="2.98592">
        <ele>287</ele>
        <time>2018-09-27T14:30:22Z</time>
      </trkpt>
      <trkpt lat="43.57217" lon="2.98601">
        <ele>287</ele>
        <time>2018-09-27T14:30:26Z</time>
      </trkpt>
      <trkpt lat="43.57218" lon="2.98677">
        <ele>287</ele>
        <time>2018-09-27T14:30:48Z</time>
      </trkpt>
      <trkpt lat="43.57233" lon="2.98735">
        <ele>285.79998779297</ele>
        <time>2018-09-27T14:30:54Z</time>
      </trkpt>
      <trkpt lat="43.57239" lon="2.9876">
        <ele>284.60000610352</ele>
        <time>2018-09-27T14:30:56Z</time>
      </trkpt>
      <trkpt lat="43.57245" lon="2.98784">
        <ele>283</ele>
        <time>2018-09-27T14:30:58Z</time>
      </trkpt>
      <trkpt lat="43.5725" lon="2.98806">
        <ele>280.79998779297</ele>
        <time>2018-09-27T14:31:00Z</time>
      </trkpt>
      <trkpt lat="43.57252" lon="2.98816">
        <ele>279.60000610352</ele>
        <time>2018-09-27T14:31:01Z</time>
      </trkpt>
      <trkpt lat="43.57255" lon="2.98825">
        <ele>278.39999389648</ele>
        <time>2018-09-27T14:31:02Z</time>
      </trkpt>
      <trkpt lat="43.57263" lon="2.98842">
        <ele>277</ele>
        <time>2018-09-27T14:31:04Z</time>
      </trkpt>
      <trkpt lat="43.57271" lon="2.98854">
        <ele>275.39999389648</ele>
        <time>2018-09-27T14:31:06Z</time>
      </trkpt>
      <trkpt lat="43.57284" lon="2.98863">
        <ele>275.39999389648</ele>
        <time>2018-09-27T14:31:09Z</time>
      </trkpt>
      <trkpt lat="43.57291" lon="2.98869">
        <ele>275.20001220703</ele>
        <time>2018-09-27T14:31:11Z</time>
      </trkpt>
      <trkpt lat="43.57295" lon="2.98893">
        <ele>274.79998779297</ele>
        <time>2018-09-27T14:31:15Z</time>
      </trkpt>
      <trkpt lat="43.57293" lon="2.9894">
        <ele>274.60000610352</ele>
        <time>2018-09-27T14:31:20Z</time>
      </trkpt>
      <trkpt lat="43.57293" lon="2.98948">
        <ele>274.39999389648</ele>
        <time>2018-09-27T14:31:21Z</time>
      </trkpt>
      <trkpt lat="43.573" lon="2.98969">
        <ele>273.20001220703</ele>
        <time>2018-09-27T14:31:24Z</time>
      </trkpt>
      <trkpt lat="43.57311" lon="2.98981">
        <ele>272.60000610352</ele>
        <time>2018-09-27T14:31:27Z</time>
      </trkpt>
      <trkpt lat="43.57361" lon="2.99008">
        <ele>273.79998779297</ele>
        <time>2018-09-27T14:31:42Z</time>
      </trkpt>
      <trkpt lat="43.5738" lon="2.99018">
        <ele>274</ele>
        <time>2018-09-27T14:31:47Z</time>
      </trkpt>
      <trkpt lat="43.57396" lon="2.99022">
        <ele>274</ele>
        <time>2018-09-27T14:31:50Z</time>
      </trkpt>
      <trkpt lat="43.57435" lon="2.99022">
        <ele>272.20001220703</ele>
        <time>2018-09-27T14:31:57Z</time>
      </trkpt>
      <trkpt lat="43.5744" lon="2.99024">
        <ele>271.39999389648</ele>
        <time>2018-09-27T14:31:58Z</time>
      </trkpt>
      <trkpt lat="43.57446" lon="2.99024">
        <ele>270.79998779297</ele>
        <time>2018-09-27T14:31:59Z</time>
      </trkpt>
      <trkpt lat="43.57457" lon="2.99023">
        <ele>269.60000610352</ele>
        <time>2018-09-27T14:32:01Z</time>
      </trkpt>
      <trkpt lat="43.57467" lon="2.99027">
        <ele>268.20001220703</ele>
        <time>2018-09-27T14:32:03Z</time>
      </trkpt>
      <trkpt lat="43.57478" lon="2.99028">
        <ele>266.79998779297</ele>
        <time>2018-09-27T14:32:06Z</time>
      </trkpt>
      <trkpt lat="43.57487" lon="2.99024">
        <ele>265.20001220703</ele>
        <time>2018-09-27T14:32:08Z</time>
      </trkpt>
      <trkpt lat="43.57498" lon="2.99021">
        <ele>263.60000610352</ele>
        <time>2018-09-27T14:32:10Z</time>
      </trkpt>
      <trkpt lat="43.57509" lon="2.99027">
        <ele>262.20001220703</ele>
        <time>2018-09-27T14:32:13Z</time>
      </trkpt>
      <trkpt lat="43.57512" lon="2.99037">
        <ele>260.39999389648</ele>
        <time>2018-09-27T14:32:15Z</time>
      </trkpt>
      <trkpt lat="43.57511" lon="2.99042">
        <ele>259.20001220703</ele>
        <time>2018-09-27T14:32:16Z</time>
      </trkpt>
      <trkpt lat="43.57511" lon="2.99052">
        <ele>258</ele>
        <time>2018-09-27T14:32:18Z</time>
      </trkpt>
      <trkpt lat="43.57511" lon="2.99062">
        <ele>257.79998779297</ele>
        <time>2018-09-27T14:32:20Z</time>
      </trkpt>
      <trkpt lat="43.57497" lon="2.9914">
        <ele>258.39999389648</ele>
        <time>2018-09-27T14:32:37Z</time>
      </trkpt>
      <trkpt lat="43.575" lon="2.99177">
        <ele>257.39999389648</ele>
        <time>2018-09-27T14:32:41Z</time>
      </trkpt>
      <trkpt lat="43.57501" lon="2.99188">
        <ele>256.79998779297</ele>
        <time>2018-09-27T14:32:42Z</time>
      </trkpt>
      <trkpt lat="43.57503" lon="2.99207">
        <ele>255.80000305176</ele>
        <time>2018-09-27T14:32:44Z</time>
      </trkpt>
      <trkpt lat="43.57506" lon="2.99227">
        <ele>254</ele>
        <time>2018-09-27T14:32:46Z</time>
      </trkpt>
      <trkpt lat="43.5751" lon="2.99246">
        <ele>252.60000610352</ele>
        <time>2018-09-27T14:32:48Z</time>
      </trkpt>
      <trkpt lat="43.57514" lon="2.99266">
        <ele>251.39999389648</ele>
        <time>2018-09-27T14:32:50Z</time>
      </trkpt>
      <trkpt lat="43.57512" lon="2.99295">
        <ele>250</ele>
        <time>2018-09-27T14:32:53Z</time>
      </trkpt>
      <trkpt lat="43.5751" lon="2.99305">
        <ele>249.19999694824</ele>
        <time>2018-09-27T14:32:54Z</time>
      </trkpt>
      <trkpt lat="43.57509" lon="2.99314">
        <ele>248.19999694824</ele>
        <time>2018-09-27T14:32:55Z</time>
      </trkpt>
      <trkpt lat="43.57507" lon="2.99323">
        <ele>247</ele>
        <time>2018-09-27T14:32:56Z</time>
      </trkpt>
      <trkpt lat="43.57505" lon="2.99332">
        <ele>245.60000610352</ele>
        <time>2018-09-27T14:32:57Z</time>
      </trkpt>
      <trkpt lat="43.575" lon="2.99352">
        <ele>244.80000305176</ele>
        <time>2018-09-27T14:33:00Z</time>
      </trkpt>
      <trkpt lat="43.57514" lon="2.99374">
        <ele>244.60000610352</ele>
        <time>2018-09-27T14:33:06Z</time>
      </trkpt>
      <trkpt lat="43.57561" lon="2.99393">
        <ele>244.39999389648</ele>
        <time>2018-09-27T14:33:19Z</time>
      </trkpt>
      <trkpt lat="43.57568" lon="2.99398">
        <ele>243.19999694824</ele>
        <time>2018-09-27T14:33:23Z</time>
      </trkpt>
      <trkpt lat="43.57569" lon="2.99399">
        <ele>242.60000610352</ele>
        <time>2018-09-27T14:33:24Z</time>
      </trkpt>
      <trkpt lat="43.57569" lon="2.99402">
        <ele>241.80000305176</ele>
        <time>2018-09-27T14:33:25Z</time>
      </trkpt>
      <trkpt lat="43.57566" lon="2.99417">
        <ele>240.60000610352</ele>
        <time>2018-09-27T14:33:29Z</time>
      </trkpt>
      <trkpt lat="43.57554" lon="2.99445">
        <ele>239.39999389648</ele>
        <time>2018-09-27T14:33:36Z</time>
      </trkpt>
      <trkpt lat="43.57545" lon="2.99512">
        <ele>238.39999389648</ele>
        <time>2018-09-27T14:33:49Z</time>
      </trkpt>
      <trkpt lat="43.57547" lon="2.99519">
        <ele>238.19999694824</ele>
        <time>2018-09-27T14:33:50Z</time>
      </trkpt>
      <trkpt lat="43.57557" lon="2.99541">
        <ele>237</ele>
        <time>2018-09-27T14:33:53Z</time>
      </trkpt>
      <trkpt lat="43.5757" lon="2.99566">
        <ele>235.80000305176</ele>
        <time>2018-09-27T14:33:56Z</time>
      </trkpt>
      <trkpt lat="43.57579" lon="2.99586">
        <ele>235</ele>
        <time>2018-09-27T14:33:58Z</time>
      </trkpt>
      <trkpt lat="43.57584" lon="2.99595">
        <ele>234.39999389648</ele>
        <time>2018-09-27T14:33:59Z</time>
      </trkpt>
      <trkpt lat="43.57598" lon="2.99624">
        <ele>233</ele>
        <time>2018-09-27T14:34:02Z</time>
      </trkpt>
      <trkpt lat="43.57605" lon="2.99642">
        <ele>231.39999389648</ele>
        <time>2018-09-27T14:34:04Z</time>
      </trkpt>
      <trkpt lat="43.57608" lon="2.99651">
        <ele>230.19999694824</ele>
        <time>2018-09-27T14:34:05Z</time>
      </trkpt>
      <trkpt lat="43.5761" lon="2.99661">
        <ele>229.19999694824</ele>
        <time>2018-09-27T14:34:06Z</time>
      </trkpt>
      <trkpt lat="43.57612" lon="2.99671">
        <ele>228.60000610352</ele>
        <time>2018-09-27T14:34:07Z</time>
      </trkpt>
      <trkpt lat="43.57617" lon="2.99692">
        <ele>227.39999389648</ele>
        <time>2018-09-27T14:34:09Z</time>
      </trkpt>
      <trkpt lat="43.57625" lon="2.99721">
        <ele>226.19999694824</ele>
        <time>2018-09-27T14:34:12Z</time>
      </trkpt>
      <trkpt lat="43.57633" lon="2.99738">
        <ele>225</ele>
        <time>2018-09-27T14:34:14Z</time>
      </trkpt>
      <trkpt lat="43.57645" lon="2.99753">
        <ele>224</ele>
        <time>2018-09-27T14:34:16Z</time>
      </trkpt>
      <trkpt lat="43.57662" lon="2.99763">
        <ele>222.80000305176</ele>
        <time>2018-09-27T14:34:18Z</time>
      </trkpt>
      <trkpt lat="43.5767" lon="2.99766">
        <ele>221.39999389648</ele>
        <time>2018-09-27T14:34:19Z</time>
      </trkpt>
      <trkpt lat="43.57685" lon="2.99766">
        <ele>220.19999694824</ele>
        <time>2018-09-27T14:34:21Z</time>
      </trkpt>
      <trkpt lat="43.57692" lon="2.99768">
        <ele>219.80000305176</ele>
        <time>2018-09-27T14:34:22Z</time>
      </trkpt>
      <trkpt lat="43.57697" lon="2.99771">
        <ele>219.19999694824</ele>
        <time>2018-09-27T14:34:23Z</time>
      </trkpt>
      <trkpt lat="43.57706" lon="2.9978">
        <ele>217.80000305176</ele>
        <time>2018-09-27T14:34:25Z</time>
      </trkpt>
      <trkpt lat="43.57706" lon="2.99784">
        <ele>216.39999389648</ele>
        <time>2018-09-27T14:34:26Z</time>
      </trkpt>
      <trkpt lat="43.577" lon="2.99792">
        <ele>214.80000305176</ele>
        <time>2018-09-27T14:34:28Z</time>
      </trkpt>
      <trkpt lat="43.57689" lon="2.99793">
        <ele>213.60000610352</ele>
        <time>2018-09-27T14:34:32Z</time>
      </trkpt>
      <trkpt lat="43.57685" lon="2.99793">
        <ele>212.39999389648</ele>
        <time>2018-09-27T14:34:34Z</time>
      </trkpt>
      <trkpt lat="43.57683" lon="2.99797">
        <ele>210.80000305176</ele>
        <time>2018-09-27T14:34:36Z</time>
      </trkpt>
      <trkpt lat="43.57681" lon="2.99804">
        <ele>210.19999694824</ele>
        <time>2018-09-27T14:34:38Z</time>
      </trkpt>
      <trkpt lat="43.57678" lon="2.99825">
        <ele>210</ele>
        <time>2018-09-27T14:34:42Z</time>
      </trkpt>
      <trkpt lat="43.57677" lon="2.99831">
        <ele>209.60000610352</ele>
        <time>2018-09-27T14:34:43Z</time>
      </trkpt>
      <trkpt lat="43.57658" lon="2.99859">
        <ele>209</ele>
        <time>2018-09-27T14:34:51Z</time>
      </trkpt>
      <trkpt lat="43.57616" lon="2.99905">
        <ele>210</ele>
        <time>2018-09-27T14:35:08Z</time>
      </trkpt>
      <trkpt lat="43.5761" lon="2.99919">
        <ele>211.19999694824</ele>
        <time>2018-09-27T14:35:13Z</time>
      </trkpt>
      <trkpt lat="43.57606" lon="2.99926">
        <ele>212</ele>
        <time>2018-09-27T14:35:17Z</time>
      </trkpt>
      <trkpt lat="43.57596" lon="2.99974">
        <ele>212</ele>
        <time>2018-09-27T14:35:35Z</time>
      </trkpt>
      <trkpt lat="43.57559" lon="3.00013">
        <ele>210.39999389648</ele>
        <time>2018-09-27T14:35:46Z</time>
      </trkpt>
      <trkpt lat="43.57549" lon="3.00026">
        <ele>209.19999694824</ele>
        <time>2018-09-27T14:35:49Z</time>
      </trkpt>
      <trkpt lat="43.57545" lon="3.00033">
        <ele>208.19999694824</ele>
        <time>2018-09-27T14:35:52Z</time>
      </trkpt>
      <trkpt lat="43.57544" lon="3.00036">
        <ele>208</ele>
        <time>2018-09-27T14:35:53Z</time>
      </trkpt>
      <trkpt lat="43.57547" lon="3.00049">
        <ele>206.80000305176</ele>
        <time>2018-09-27T14:35:56Z</time>
      </trkpt>
      <trkpt lat="43.5755" lon="3.00069">
        <ele>205.80000305176</ele>
        <time>2018-09-27T14:36:00Z</time>
      </trkpt>
      <trkpt lat="43.57561" lon="3.00143">
        <ele>205.80000305176</ele>
        <time>2018-09-27T14:36:15Z</time>
      </trkpt>
      <trkpt lat="43.57568" lon="3.00219">
        <ele>206.19999694824</ele>
        <time>2018-09-27T14:36:32Z</time>
      </trkpt>
      <trkpt lat="43.57572" lon="3.00295">
        <ele>206.39999389648</ele>
        <time>2018-09-27T14:36:49Z</time>
      </trkpt>
      <trkpt lat="43.57569" lon="3.00372">
        <ele>206.39999389648</ele>
        <time>2018-09-27T14:37:04Z</time>
      </trkpt>
      <trkpt lat="43.57565" lon="3.00451">
        <ele>206.60000610352</ele>
        <time>2018-09-27T14:37:18Z</time>
      </trkpt>
      <trkpt lat="43.57561" lon="3.00525">
        <ele>206.60000610352</ele>
        <time>2018-09-27T14:37:31Z</time>
      </trkpt>
      <trkpt lat="43.57557" lon="3.00601">
        <ele>206.60000610352</ele>
        <time>2018-09-27T14:37:44Z</time>
      </trkpt>
      <trkpt lat="43.57554" lon="3.00641">
        <ele>206.60000610352</ele>
        <time>2018-09-27T14:37:51Z</time>
      </trkpt>
      <trkpt lat="43.5755" lon="3.00721">
        <ele>206.60000610352</ele>
        <time>2018-09-27T14:38:04Z</time>
      </trkpt>
      <trkpt lat="43.57546" lon="3.00799">
        <ele>206.80000305176</ele>
        <time>2018-09-27T14:38:17Z</time>
      </trkpt>
      <trkpt lat="43.57543" lon="3.00861">
        <ele>206.80000305176</ele>
        <time>2018-09-27T14:38:33Z</time>
      </trkpt>
      <trkpt lat="43.5754" lon="3.00898">
        <ele>207</ele>
        <time>2018-09-27T14:38:42Z</time>
      </trkpt>
      <trkpt lat="43.57537" lon="3.00976">
        <ele>206.60000610352</ele>
        <time>2018-09-27T14:38:55Z</time>
      </trkpt>
      <trkpt lat="43.5753" lon="3.01054">
        <ele>207.19999694824</ele>
        <time>2018-09-27T14:39:10Z</time>
      </trkpt>
      <trkpt lat="43.57517" lon="3.01127">
        <ele>207.39999389648</ele>
        <time>2018-09-27T14:39:24Z</time>
      </trkpt>
      <trkpt lat="43.57501" lon="3.01199">
        <ele>208.19999694824</ele>
        <time>2018-09-27T14:39:39Z</time>
      </trkpt>
      <trkpt lat="43.5749" lon="3.01235">
        <ele>208.39999389648</ele>
        <time>2018-09-27T14:39:46Z</time>
      </trkpt>
      <trkpt lat="43.57466" lon="3.01303">
        <ele>209</ele>
        <time>2018-09-27T14:39:58Z</time>
      </trkpt>
      <trkpt lat="43.57441" lon="3.01372">
        <ele>209.19999694824</ele>
        <time>2018-09-27T14:40:11Z</time>
      </trkpt>
      <trkpt lat="43.57436" lon="3.01386">
        <ele>209.60000610352</ele>
        <time>2018-09-27T14:40:14Z</time>
      </trkpt>
      <trkpt lat="43.5741" lon="3.01453">
        <ele>210</ele>
        <time>2018-09-27T14:40:28Z</time>
      </trkpt>
      <trkpt lat="43.57391" lon="3.01501">
        <ele>210.80000305176</ele>
        <time>2018-09-27T14:40:39Z</time>
      </trkpt>
      <trkpt lat="43.57366" lon="3.01568">
        <ele>211.39999389648</ele>
        <time>2018-09-27T14:40:53Z</time>
      </trkpt>
      <trkpt lat="43.5735" lon="3.01608">
        <ele>212</ele>
        <time>2018-09-27T14:41:03Z</time>
      </trkpt>
      <trkpt lat="43.57331" lon="3.0168">
        <ele>212.80000305176</ele>
        <time>2018-09-27T14:41:17Z</time>
      </trkpt>
      <trkpt lat="43.5732" lon="3.01755">
        <ele>213.39999389648</ele>
        <time>2018-09-27T14:41:32Z</time>
      </trkpt>
      <trkpt lat="43.5732" lon="3.0176">
        <ele>213.60000610352</ele>
        <time>2018-09-27T14:41:33Z</time>
      </trkpt>
      <trkpt lat="43.5732" lon="3.01836">
        <ele>214.19999694824</ele>
        <time>2018-09-27T14:41:48Z</time>
      </trkpt>
      <trkpt lat="43.57329" lon="3.0191">
        <ele>214.60000610352</ele>
        <time>2018-09-27T14:42:03Z</time>
      </trkpt>
      <trkpt lat="43.5733" lon="3.01914">
        <ele>214.60000610352</ele>
        <time>2018-09-27T14:42:04Z</time>
      </trkpt>
      <trkpt lat="43.57342" lon="3.01987">
        <ele>215.19999694824</ele>
        <time>2018-09-27T14:42:18Z</time>
      </trkpt>
      <trkpt lat="43.57363" lon="3.02058">
        <ele>215.80000305176</ele>
        <time>2018-09-27T14:42:32Z</time>
      </trkpt>
      <trkpt lat="43.57365" lon="3.02062">
        <ele>215.80000305176</ele>
        <time>2018-09-27T14:42:33Z</time>
      </trkpt>
      <trkpt lat="43.57397" lon="3.02127">
        <ele>216.80000305176</ele>
        <time>2018-09-27T14:42:48Z</time>
      </trkpt>
      <trkpt lat="43.57433" lon="3.02184">
        <ele>217</ele>
        <time>2018-09-27T14:43:01Z</time>
      </trkpt>
      <trkpt lat="43.57471" lon="3.02241">
        <ele>217.80000305176</ele>
        <time>2018-09-27T14:43:15Z</time>
      </trkpt>
      <trkpt lat="43.57485" lon="3.02262">
        <ele>218.19999694824</ele>
        <time>2018-09-27T14:43:21Z</time>
      </trkpt>
      <trkpt lat="43.57521" lon="3.02318">
        <ele>218.80000305176</ele>
        <time>2018-09-27T14:43:33Z</time>
      </trkpt>
      <trkpt lat="43.57542" lon="3.02346">
        <ele>219</ele>
        <time>2018-09-27T14:43:39Z</time>
      </trkpt>
      <trkpt lat="43.5756" lon="3.02378">
        <ele>219.39999389648</ele>
        <time>2018-09-27T14:43:45Z</time>
      </trkpt>
      <trkpt lat="43.57596" lon="3.0244">
        <ele>220</ele>
        <time>2018-09-27T14:43:59Z</time>
      </trkpt>
      <trkpt lat="43.5774" lon="3.02647">
        <ele>220.80000305176</ele>
        <time>2018-09-27T14:44:38Z</time>
      </trkpt>
      <trkpt lat="43.57762" lon="3.02677">
        <ele>220.60000610352</ele>
        <time>2018-09-27T14:44:45Z</time>
      </trkpt>
      <trkpt lat="43.578" lon="3.02731">
        <ele>220</ele>
        <time>2018-09-27T14:44:57Z</time>
      </trkpt>
      <trkpt lat="43.57807" lon="3.02741">
        <ele>220</ele>
        <time>2018-09-27T14:44:59Z</time>
      </trkpt>
      <trkpt lat="43.57835" lon="3.02777">
        <ele>219.60000610352</ele>
        <time>2018-09-27T14:45:06Z</time>
      </trkpt>
      <trkpt lat="43.57839" lon="3.02783">
        <ele>219.60000610352</ele>
        <time>2018-09-27T14:45:07Z</time>
      </trkpt>
      <trkpt lat="43.57863" lon="3.02818">
        <ele>219.39999389648</ele>
        <time>2018-09-27T14:45:13Z</time>
      </trkpt>
      <trkpt lat="43.57876" lon="3.02846">
        <ele>218.80000305176</ele>
        <time>2018-09-27T14:45:17Z</time>
      </trkpt>
      <trkpt lat="43.57905" lon="3.02915">
        <ele>218.60000610352</ele>
        <time>2018-09-27T14:45:27Z</time>
      </trkpt>
      <trkpt lat="43.57932" lon="3.0298">
        <ele>217.60000610352</ele>
        <time>2018-09-27T14:45:36Z</time>
      </trkpt>
      <trkpt lat="43.57937" lon="3.02995">
        <ele>217.60000610352</ele>
        <time>2018-09-27T14:45:38Z</time>
      </trkpt>
      <trkpt lat="43.57962" lon="3.03068">
        <ele>216.80000305176</ele>
        <time>2018-09-27T14:45:48Z</time>
      </trkpt>
      <trkpt lat="43.57975" lon="3.03128">
        <ele>216.39999389648</ele>
        <time>2018-09-27T14:45:55Z</time>
      </trkpt>
      <trkpt lat="43.57989" lon="3.03202">
        <ele>215.80000305176</ele>
        <time>2018-09-27T14:46:04Z</time>
      </trkpt>
      <trkpt lat="43.57998" lon="3.03266">
        <ele>215.60000610352</ele>
        <time>2018-09-27T14:46:12Z</time>
      </trkpt>
      <trkpt lat="43.58006" lon="3.0334">
        <ele>215.19999694824</ele>
        <time>2018-09-27T14:46:21Z</time>
      </trkpt>
      <trkpt lat="43.58009" lon="3.03391">
        <ele>214.60000610352</ele>
        <time>2018-09-27T14:46:28Z</time>
      </trkpt>
      <trkpt lat="43.58006" lon="3.03465">
        <ele>214.19999694824</ele>
        <time>2018-09-27T14:46:38Z</time>
      </trkpt>
      <trkpt lat="43.57998" lon="3.0354">
        <ele>214</ele>
        <time>2018-09-27T14:46:48Z</time>
      </trkpt>
      <trkpt lat="43.57995" lon="3.03564">
        <ele>213.80000305176</ele>
        <time>2018-09-27T14:46:51Z</time>
      </trkpt>
      <trkpt lat="43.57994" lon="3.03572">
        <ele>213.80000305176</ele>
        <time>2018-09-27T14:46:52Z</time>
      </trkpt>
      <trkpt lat="43.57984" lon="3.03623">
        <ele>213.60000610352</ele>
        <time>2018-09-27T14:46:59Z</time>
      </trkpt>
      <trkpt lat="43.57974" lon="3.03657">
        <ele>213.39999389648</ele>
        <time>2018-09-27T14:47:04Z</time>
      </trkpt>
      <trkpt lat="43.57952" lon="3.03728">
        <ele>213.60000610352</ele>
        <time>2018-09-27T14:47:15Z</time>
      </trkpt>
      <trkpt lat="43.5795" lon="3.03735">
        <ele>213.60000610352</ele>
        <time>2018-09-27T14:47:16Z</time>
      </trkpt>
      <trkpt lat="43.57929" lon="3.03805">
        <ele>213.60000610352</ele>
        <time>2018-09-27T14:47:26Z</time>
      </trkpt>
      <trkpt lat="43.57912" lon="3.03868">
        <ele>213.80000305176</ele>
        <time>2018-09-27T14:47:36Z</time>
      </trkpt>
      <trkpt lat="43.5789" lon="3.03941">
        <ele>214</ele>
        <time>2018-09-27T14:47:48Z</time>
      </trkpt>
      <trkpt lat="43.57878" lon="3.0398">
        <ele>214.80000305176</ele>
        <time>2018-09-27T14:47:59Z</time>
      </trkpt>
      <trkpt lat="43.57877" lon="3.03999">
        <ele>215.19999694824</ele>
        <time>2018-09-27T14:48:04Z</time>
      </trkpt>
      <trkpt lat="43.57876" lon="3.04003">
        <ele>215.19999694824</ele>
        <time>2018-09-27T14:48:06Z</time>
      </trkpt>
      <trkpt lat="43.57879" lon="3.04025">
        <ele>215.39999389648</ele>
        <time>2018-09-27T14:48:12Z</time>
      </trkpt>
      <trkpt lat="43.57881" lon="3.04051">
        <ele>215.60000610352</ele>
        <time>2018-09-27T14:48:20Z</time>
      </trkpt>
      <trkpt lat="43.57878" lon="3.04054">
        <ele>215.60000610352</ele>
        <time>2018-09-27T14:48:21Z</time>
      </trkpt>
      <trkpt lat="43.57856" lon="3.04071">
        <ele>215.80000305176</ele>
        <time>2018-09-27T14:48:27Z</time>
      </trkpt>
      <trkpt lat="43.57845" lon="3.04094">
        <ele>215.80000305176</ele>
        <time>2018-09-27T14:48:31Z</time>
      </trkpt>
      <trkpt lat="43.57832" lon="3.04135">
        <ele>214.80000305176</ele>
        <time>2018-09-27T14:48:38Z</time>
      </trkpt>
      <trkpt lat="43.57809" lon="3.04207">
        <ele>215.19999694824</ele>
        <time>2018-09-27T14:48:51Z</time>
      </trkpt>
      <trkpt lat="43.57787" lon="3.04279">
        <ele>215.39999389648</ele>
        <time>2018-09-27T14:49:05Z</time>
      </trkpt>
      <trkpt lat="43.57765" lon="3.04351">
        <ele>215.19999694824</ele>
        <time>2018-09-27T14:49:15Z</time>
      </trkpt>
      <trkpt lat="43.57744" lon="3.0442">
        <ele>216</ele>
        <time>2018-09-27T14:49:26Z</time>
      </trkpt>
      <trkpt lat="43.57743" lon="3.04426">
        <ele>216</ele>
        <time>2018-09-27T14:49:27Z</time>
      </trkpt>
      <trkpt lat="43.57721" lon="3.04498">
        <ele>216.19999694824</ele>
        <time>2018-09-27T14:49:38Z</time>
      </trkpt>
      <trkpt lat="43.57711" lon="3.04538">
        <ele>216.19999694824</ele>
        <time>2018-09-27T14:49:44Z</time>
      </trkpt>
      <trkpt lat="43.57706" lon="3.04562">
        <ele>216.19999694824</ele>
        <time>2018-09-27T14:49:48Z</time>
      </trkpt>
      <trkpt lat="43.57698" lon="3.04636">
        <ele>217</ele>
        <time>2018-09-27T14:50:01Z</time>
      </trkpt>
      <trkpt lat="43.57696" lon="3.04671">
        <ele>217</ele>
        <time>2018-09-27T14:50:06Z</time>
      </trkpt>
      <trkpt lat="43.57696" lon="3.04748">
        <ele>216.80000305176</ele>
        <time>2018-09-27T14:50:15Z</time>
      </trkpt>
      <trkpt lat="43.57699" lon="3.04823">
        <ele>216.60000610352</ele>
        <time>2018-09-27T14:50:25Z</time>
      </trkpt>
      <trkpt lat="43.5771" lon="3.04895">
        <ele>216.60000610352</ele>
        <time>2018-09-27T14:50:35Z</time>
      </trkpt>
      <trkpt lat="43.57729" lon="3.04966">
        <ele>216.60000610352</ele>
        <time>2018-09-27T14:50:45Z</time>
      </trkpt>
      <trkpt lat="43.57756" lon="3.05038">
        <ele>216.60000610352</ele>
        <time>2018-09-27T14:50:55Z</time>
      </trkpt>
      <trkpt lat="43.57788" lon="3.05102">
        <ele>216.19999694824</ele>
        <time>2018-09-27T14:51:04Z</time>
      </trkpt>
      <trkpt lat="43.5782" lon="3.05163">
        <ele>216</ele>
        <time>2018-09-27T14:51:13Z</time>
      </trkpt>
      <trkpt lat="43.57849" lon="3.05227">
        <ele>216.19999694824</ele>
        <time>2018-09-27T14:51:22Z</time>
      </trkpt>
      <trkpt lat="43.57872" lon="3.05295">
        <ele>216.39999389648</ele>
        <time>2018-09-27T14:51:31Z</time>
      </trkpt>
      <trkpt lat="43.57879" lon="3.05319">
        <ele>216.19999694824</ele>
        <time>2018-09-27T14:51:34Z</time>
      </trkpt>
      <trkpt lat="43.57894" lon="3.05396">
        <ele>216.19999694824</ele>
        <time>2018-09-27T14:51:44Z</time>
      </trkpt>
      <trkpt lat="43.57908" lon="3.05475">
        <ele>216.60000610352</ele>
        <time>2018-09-27T14:51:54Z</time>
      </trkpt>
      <trkpt lat="43.57921" lon="3.05555">
        <ele>216.60000610352</ele>
        <time>2018-09-27T14:52:04Z</time>
      </trkpt>
      <trkpt lat="43.57937" lon="3.05633">
        <ele>216.60000610352</ele>
        <time>2018-09-27T14:52:14Z</time>
      </trkpt>
      <trkpt lat="43.5796" lon="3.05701">
        <ele>216.60000610352</ele>
        <time>2018-09-27T14:52:23Z</time>
      </trkpt>
      <trkpt lat="43.57987" lon="3.0577">
        <ele>216.80000305176</ele>
        <time>2018-09-27T14:52:33Z</time>
      </trkpt>
      <trkpt lat="43.58013" lon="3.05836">
        <ele>217.39999389648</ele>
        <time>2018-09-27T14:52:43Z</time>
      </trkpt>
      <trkpt lat="43.58034" lon="3.05912">
        <ele>218</ele>
        <time>2018-09-27T14:52:54Z</time>
      </trkpt>
      <trkpt lat="43.58037" lon="3.05927">
        <ele>218.19999694824</ele>
        <time>2018-09-27T14:52:56Z</time>
      </trkpt>
      <trkpt lat="43.58039" lon="3.05941">
        <ele>218.19999694824</ele>
        <time>2018-09-27T14:52:58Z</time>
      </trkpt>
      <trkpt lat="43.58046" lon="3.06016">
        <ele>218.39999389648</ele>
        <time>2018-09-27T14:53:08Z</time>
      </trkpt>
      <trkpt lat="43.58066" lon="3.06094">
        <ele>218.60000610352</ele>
        <time>2018-09-27T14:53:18Z</time>
      </trkpt>
      <trkpt lat="43.5808" lon="3.06173">
        <ele>218.60000610352</ele>
        <time>2018-09-27T14:53:28Z</time>
      </trkpt>
      <trkpt lat="43.58101" lon="3.06242">
        <ele>219</ele>
        <time>2018-09-27T14:53:37Z</time>
      </trkpt>
      <trkpt lat="43.58125" lon="3.06313">
        <ele>219</ele>
        <time>2018-09-27T14:53:46Z</time>
      </trkpt>
      <trkpt lat="43.58158" lon="3.06374">
        <ele>219</ele>
        <time>2018-09-27T14:53:55Z</time>
      </trkpt>
      <trkpt lat="43.58185" lon="3.06412">
        <ele>219.39999389648</ele>
        <time>2018-09-27T14:54:03Z</time>
      </trkpt>
      <trkpt lat="43.58207" lon="3.06455">
        <ele>219.80000305176</ele>
        <time>2018-09-27T14:54:14Z</time>
      </trkpt>
      <trkpt lat="43.5822" lon="3.0647">
        <ele>219.80000305176</ele>
        <time>2018-09-27T14:54:18Z</time>
      </trkpt>
      <trkpt lat="43.58239" lon="3.06483">
        <ele>219.39999389648</ele>
        <time>2018-09-27T14:54:23Z</time>
      </trkpt>
      <trkpt lat="43.58281" lon="3.06534">
        <ele>219.39999389648</ele>
        <time>2018-09-27T14:54:36Z</time>
      </trkpt>
      <trkpt lat="43.58326" lon="3.06585">
        <ele>219.39999389648</ele>
        <time>2018-09-27T14:54:49Z</time>
      </trkpt>
      <trkpt lat="43.58368" lon="3.06642">
        <ele>219.39999389648</ele>
        <time>2018-09-27T14:55:01Z</time>
      </trkpt>
      <trkpt lat="43.58403" lon="3.06701">
        <ele>219.39999389648</ele>
        <time>2018-09-27T14:55:12Z</time>
      </trkpt>
      <trkpt lat="43.58435" lon="3.06764">
        <ele>219</ele>
        <time>2018-09-27T14:55:24Z</time>
      </trkpt>
      <trkpt lat="43.58451" lon="3.06798">
        <ele>218.80000305176</ele>
        <time>2018-09-27T14:55:31Z</time>
      </trkpt>
      <trkpt lat="43.58483" lon="3.06866">
        <ele>218.80000305176</ele>
        <time>2018-09-27T14:55:43Z</time>
      </trkpt>
      <trkpt lat="43.58513" lon="3.06931">
        <ele>218.39999389648</ele>
        <time>2018-09-27T14:55:54Z</time>
      </trkpt>
      <trkpt lat="43.58542" lon="3.06996">
        <ele>219</ele>
        <time>2018-09-27T14:56:05Z</time>
      </trkpt>
      <trkpt lat="43.58568" lon="3.07061">
        <ele>218.19999694824</ele>
        <time>2018-09-27T14:56:15Z</time>
      </trkpt>
      <trkpt lat="43.58594" lon="3.07111">
        <ele>218.19999694824</ele>
        <time>2018-09-27T14:56:23Z</time>
      </trkpt>
      <trkpt lat="43.58635" lon="3.07168">
        <ele>218.80000305176</ele>
        <time>2018-09-27T14:56:33Z</time>
      </trkpt>
      <trkpt lat="43.58647" lon="3.07186">
        <ele>218.80000305176</ele>
        <time>2018-09-27T14:56:36Z</time>
      </trkpt>
      <trkpt lat="43.58689" lon="3.07243">
        <ele>218.80000305176</ele>
        <time>2018-09-27T14:56:46Z</time>
      </trkpt>
      <trkpt lat="43.58727" lon="3.073">
        <ele>218.60000610352</ele>
        <time>2018-09-27T14:56:58Z</time>
      </trkpt>
      <trkpt lat="43.58736" lon="3.07318">
        <ele>218.60000610352</ele>
        <time>2018-09-27T14:57:01Z</time>
      </trkpt>
      <trkpt lat="43.58761" lon="3.07373">
        <ele>218</ele>
        <time>2018-09-27T14:57:08Z</time>
      </trkpt>
      <trkpt lat="43.58771" lon="3.07397">
        <ele>218</ele>
        <time>2018-09-27T14:57:11Z</time>
      </trkpt>
      <trkpt lat="43.58784" lon="3.07438">
        <ele>218.19999694824</ele>
        <time>2018-09-27T14:57:16Z</time>
      </trkpt>
      <trkpt lat="43.58804" lon="3.07511">
        <ele>218.60000610352</ele>
        <time>2018-09-27T14:57:24Z</time>
      </trkpt>
      <trkpt lat="43.58819" lon="3.07585">
        <ele>218.60000610352</ele>
        <time>2018-09-27T14:57:34Z</time>
      </trkpt>
      <trkpt lat="43.58825" lon="3.07627">
        <ele>218.80000305176</ele>
        <time>2018-09-27T14:57:40Z</time>
      </trkpt>
      <trkpt lat="43.58827" lon="3.07665">
        <ele>218.80000305176</ele>
        <time>2018-09-27T14:57:45Z</time>
      </trkpt>
      <trkpt lat="43.58831" lon="3.07746">
        <ele>218.60000610352</ele>
        <time>2018-09-27T14:57:56Z</time>
      </trkpt>
      <trkpt lat="43.58831" lon="3.07803">
        <ele>218.80000305176</ele>
        <time>2018-09-27T14:58:03Z</time>
      </trkpt>
      <trkpt lat="43.58822" lon="3.07869">
        <ele>219.80000305176</ele>
        <time>2018-09-27T14:58:12Z</time>
      </trkpt>
      <trkpt lat="43.58807" lon="3.07944">
        <ele>219.80000305176</ele>
        <time>2018-09-27T14:58:23Z</time>
      </trkpt>
      <trkpt lat="43.58803" lon="3.07963">
        <ele>219.80000305176</ele>
        <time>2018-09-27T14:58:26Z</time>
      </trkpt>
      <trkpt lat="43.58784" lon="3.08033">
        <ele>219.80000305176</ele>
        <time>2018-09-27T14:58:39Z</time>
      </trkpt>
      <trkpt lat="43.58777" lon="3.08062">
        <ele>220</ele>
        <time>2018-09-27T14:58:44Z</time>
      </trkpt>
      <trkpt lat="43.58768" lon="3.081">
        <ele>220</ele>
        <time>2018-09-27T14:58:50Z</time>
      </trkpt>
      <trkpt lat="43.58759" lon="3.08176">
        <ele>220</ele>
        <time>2018-09-27T14:59:02Z</time>
      </trkpt>
      <trkpt lat="43.58759" lon="3.08196">
        <ele>220</ele>
        <time>2018-09-27T14:59:05Z</time>
      </trkpt>
      <trkpt lat="43.58758" lon="3.08225">
        <ele>220</ele>
        <time>2018-09-27T14:59:09Z</time>
      </trkpt>
      <trkpt lat="43.58763" lon="3.08301">
        <ele>220</ele>
        <time>2018-09-27T14:59:19Z</time>
      </trkpt>
      <trkpt lat="43.58768" lon="3.08377">
        <ele>220.39999389648</ele>
        <time>2018-09-27T14:59:29Z</time>
      </trkpt>
      <trkpt lat="43.5877" lon="3.0843">
        <ele>220.19999694824</ele>
        <time>2018-09-27T14:59:36Z</time>
      </trkpt>
      <trkpt lat="43.58773" lon="3.0848">
        <ele>220</ele>
        <time>2018-09-27T14:59:43Z</time>
      </trkpt>
      <trkpt lat="43.58774" lon="3.08493">
        <ele>220</ele>
        <time>2018-09-27T14:59:45Z</time>
      </trkpt>
      <trkpt lat="43.58783" lon="3.08573">
        <ele>221.39999389648</ele>
        <time>2018-09-27T14:59:56Z</time>
      </trkpt>
      <trkpt lat="43.58796" lon="3.08648">
        <ele>221.80000305176</ele>
        <time>2018-09-27T15:00:07Z</time>
      </trkpt>
      <trkpt lat="43.58813" lon="3.08714">
        <ele>222.19999694824</ele>
        <time>2018-09-27T15:00:17Z</time>
      </trkpt>
      <trkpt lat="43.58828" lon="3.0876">
        <ele>222.39999389648</ele>
        <time>2018-09-27T15:00:24Z</time>
      </trkpt>
      <trkpt lat="43.58833" lon="3.08777">
        <ele>222.39999389648</ele>
        <time>2018-09-27T15:00:27Z</time>
      </trkpt>
      <trkpt lat="43.58836" lon="3.08789">
        <ele>222.60000610352</ele>
        <time>2018-09-27T15:00:29Z</time>
      </trkpt>
      <trkpt lat="43.58855" lon="3.08864">
        <ele>223.19999694824</ele>
        <time>2018-09-27T15:00:39Z</time>
      </trkpt>
      <trkpt lat="43.58857" lon="3.0888">
        <ele>223.39999389648</ele>
        <time>2018-09-27T15:00:41Z</time>
      </trkpt>
      <trkpt lat="43.58862" lon="3.08918">
        <ele>223.60000610352</ele>
        <time>2018-09-27T15:00:47Z</time>
      </trkpt>
      <trkpt lat="43.58864" lon="3.08929">
        <ele>223.60000610352</ele>
        <time>2018-09-27T15:00:49Z</time>
      </trkpt>
      <trkpt lat="43.58865" lon="3.08963">
        <ele>224.60000610352</ele>
        <time>2018-09-27T15:00:58Z</time>
      </trkpt>
      <trkpt lat="43.58864" lon="3.08996">
        <ele>225.39999389648</ele>
        <time>2018-09-27T15:02:30Z</time>
      </trkpt>
      <trkpt lat="43.58872" lon="3.09074">
        <ele>224.60000610352</ele>
        <time>2018-09-27T15:02:39Z</time>
      </trkpt>
      <trkpt lat="43.58873" lon="3.09084">
        <ele>224.19999694824</ele>
        <time>2018-09-27T15:02:40Z</time>
      </trkpt>
      <trkpt lat="43.58882" lon="3.0916">
        <ele>223.39999389648</ele>
        <time>2018-09-27T15:02:48Z</time>
      </trkpt>
      <trkpt lat="43.58883" lon="3.0917">
        <ele>223.19999694824</ele>
        <time>2018-09-27T15:02:49Z</time>
      </trkpt>
      <trkpt lat="43.5889" lon="3.09246">
        <ele>222.80000305176</ele>
        <time>2018-09-27T15:02:57Z</time>
      </trkpt>
      <trkpt lat="43.58893" lon="3.09322">
        <ele>222.60000610352</ele>
        <time>2018-09-27T15:03:05Z</time>
      </trkpt>
      <trkpt lat="43.58886" lon="3.09403">
        <ele>223</ele>
        <time>2018-09-27T15:03:14Z</time>
      </trkpt>
      <trkpt lat="43.58874" lon="3.09482">
        <ele>223.19999694824</ele>
        <time>2018-09-27T15:03:23Z</time>
      </trkpt>
      <trkpt lat="43.58864" lon="3.09564">
        <ele>223</ele>
        <time>2018-09-27T15:03:32Z</time>
      </trkpt>
      <trkpt lat="43.58866" lon="3.09642">
        <ele>222.80000305176</ele>
        <time>2018-09-27T15:03:40Z</time>
      </trkpt>
      <trkpt lat="43.58883" lon="3.09713">
        <ele>222.39999389648</ele>
        <time>2018-09-27T15:03:48Z</time>
      </trkpt>
      <trkpt lat="43.58911" lon="3.09784">
        <ele>222.39999389648</ele>
        <time>2018-09-27T15:03:57Z</time>
      </trkpt>
      <trkpt lat="43.58934" lon="3.09831">
        <ele>222.60000610352</ele>
        <time>2018-09-27T15:04:04Z</time>
      </trkpt>
      <trkpt lat="43.58963" lon="3.09871">
        <ele>222.60000610352</ele>
        <time>2018-09-27T15:04:10Z</time>
      </trkpt>
      <trkpt lat="43.59004" lon="3.09921">
        <ele>223</ele>
        <time>2018-09-27T15:04:20Z</time>
      </trkpt>
      <trkpt lat="43.5904" lon="3.09964">
        <ele>224.39999389648</ele>
        <time>2018-09-27T15:04:29Z</time>
      </trkpt>
      <trkpt lat="43.59081" lon="3.10014">
        <ele>224.39999389648</ele>
        <time>2018-09-27T15:04:37Z</time>
      </trkpt>
      <trkpt lat="43.59124" lon="3.10068">
        <ele>223.39999389648</ele>
        <time>2018-09-27T15:04:44Z</time>
      </trkpt>
      <trkpt lat="43.5916" lon="3.10127">
        <ele>223.19999694824</ele>
        <time>2018-09-27T15:04:51Z</time>
      </trkpt>
      <trkpt lat="43.5919" lon="3.10193">
        <ele>223</ele>
        <time>2018-09-27T15:04:59Z</time>
      </trkpt>
      <trkpt lat="43.59215" lon="3.1026">
        <ele>223.80000305176</ele>
        <time>2018-09-27T15:05:08Z</time>
      </trkpt>
      <trkpt lat="43.59229" lon="3.10307">
        <ele>224.39999389648</ele>
        <time>2018-09-27T15:05:15Z</time>
      </trkpt>
      <trkpt lat="43.59243" lon="3.10384">
        <ele>225</ele>
        <time>2018-09-27T15:05:26Z</time>
      </trkpt>
      <trkpt lat="43.59255" lon="3.10458">
        <ele>224.80000305176</ele>
        <time>2018-09-27T15:05:37Z</time>
      </trkpt>
      <trkpt lat="43.59267" lon="3.10531">
        <ele>224.80000305176</ele>
        <time>2018-09-27T15:05:48Z</time>
      </trkpt>
      <trkpt lat="43.5928" lon="3.10606">
        <ele>224.60000610352</ele>
        <time>2018-09-27T15:06:00Z</time>
      </trkpt>
      <trkpt lat="43.59299" lon="3.1068">
        <ele>224.60000610352</ele>
        <time>2018-09-27T15:06:13Z</time>
      </trkpt>
      <trkpt lat="43.59318" lon="3.1075">
        <ele>224</ele>
        <time>2018-09-27T15:06:24Z</time>
      </trkpt>
      <trkpt lat="43.59344" lon="3.1082">
        <ele>224</ele>
        <time>2018-09-27T15:06:35Z</time>
      </trkpt>
      <trkpt lat="43.59349" lon="3.10837">
        <ele>224</ele>
        <time>2018-09-27T15:06:38Z</time>
      </trkpt>
      <trkpt lat="43.59368" lon="3.10889">
        <ele>224.39999389648</ele>
        <time>2018-09-27T15:06:47Z</time>
      </trkpt>
      <trkpt lat="43.59392" lon="3.10959">
        <ele>224.39999389648</ele>
        <time>2018-09-27T15:06:58Z</time>
      </trkpt>
      <trkpt lat="43.59414" lon="3.11029">
        <ele>224.39999389648</ele>
        <time>2018-09-27T15:07:08Z</time>
      </trkpt>
      <trkpt lat="43.5944" lon="3.111">
        <ele>224.19999694824</ele>
        <time>2018-09-27T15:07:19Z</time>
      </trkpt>
      <trkpt lat="43.59462" lon="3.11172">
        <ele>223.80000305176</ele>
        <time>2018-09-27T15:07:29Z</time>
      </trkpt>
      <trkpt lat="43.59472" lon="3.11214">
        <ele>223.80000305176</ele>
        <time>2018-09-27T15:07:35Z</time>
      </trkpt>
      <trkpt lat="43.59491" lon="3.11289">
        <ele>223.80000305176</ele>
        <time>2018-09-27T15:07:47Z</time>
      </trkpt>
      <trkpt lat="43.59507" lon="3.11364">
        <ele>224</ele>
        <time>2018-09-27T15:08:00Z</time>
      </trkpt>
      <trkpt lat="43.59523" lon="3.11437">
        <ele>224.39999389648</ele>
        <time>2018-09-27T15:08:10Z</time>
      </trkpt>
      <trkpt lat="43.59536" lon="3.1151">
        <ele>224.60000610352</ele>
        <time>2018-09-27T15:08:22Z</time>
      </trkpt>
      <trkpt lat="43.59547" lon="3.11546">
        <ele>224.80000305176</ele>
        <time>2018-09-27T15:08:28Z</time>
      </trkpt>
      <trkpt lat="43.59554" lon="3.11568">
        <ele>225</ele>
        <time>2018-09-27T15:08:35Z</time>
      </trkpt>
      <trkpt lat="43.59556" lon="3.11571">
        <ele>225</ele>
        <time>2018-09-27T15:08:37Z</time>
      </trkpt>
      <trkpt lat="43.59557" lon="3.11574">
        <ele>225.39999389648</ele>
        <time>2018-09-27T15:08:39Z</time>
      </trkpt>
      <trkpt lat="43.59557" lon="3.11582">
        <ele>225.60000610352</ele>
        <time>2018-09-27T15:08:43Z</time>
      </trkpt>
      <trkpt lat="43.59559" lon="3.11588">
        <ele>225.60000610352</ele>
        <time>2018-09-27T15:08:45Z</time>
      </trkpt>
      <trkpt lat="43.59562" lon="3.11617">
        <ele>225.60000610352</ele>
        <time>2018-09-27T15:08:53Z</time>
      </trkpt>
      <trkpt lat="43.59571" lon="3.11696">
        <ele>224.19999694824</ele>
        <time>2018-09-27T15:09:04Z</time>
      </trkpt>
      <trkpt lat="43.59572" lon="3.11704">
        <ele>224.19999694824</ele>
        <time>2018-09-27T15:09:05Z</time>
      </trkpt>
      <trkpt lat="43.59579" lon="3.1178">
        <ele>223.60000610352</ele>
        <time>2018-09-27T15:09:17Z</time>
      </trkpt>
      <trkpt lat="43.59583" lon="3.11819">
        <ele>223.19999694824</ele>
        <time>2018-09-27T15:09:23Z</time>
      </trkpt>
      <trkpt lat="43.5959" lon="3.11896">
        <ele>222.60000610352</ele>
        <time>2018-09-27T15:09:36Z</time>
      </trkpt>
      <trkpt lat="43.59596" lon="3.11971">
        <ele>222.39999389648</ele>
        <time>2018-09-27T15:09:49Z</time>
      </trkpt>
      <trkpt lat="43.596" lon="3.12017">
        <ele>222.39999389648</ele>
        <time>2018-09-27T15:09:57Z</time>
      </trkpt>
      <trkpt lat="43.59608" lon="3.12092">
        <ele>222</ele>
        <time>2018-09-27T15:10:10Z</time>
      </trkpt>
      <trkpt lat="43.59614" lon="3.1217">
        <ele>222.19999694824</ele>
        <time>2018-09-27T15:10:24Z</time>
      </trkpt>
      <trkpt lat="43.59619" lon="3.12232">
        <ele>222</ele>
        <time>2018-09-27T15:10:34Z</time>
      </trkpt>
      <trkpt lat="43.59626" lon="3.12309">
        <ele>222</ele>
        <time>2018-09-27T15:10:50Z</time>
      </trkpt>
      <trkpt lat="43.59633" lon="3.12386">
        <ele>222.60000610352</ele>
        <time>2018-09-27T15:11:06Z</time>
      </trkpt>
      <trkpt lat="43.59639" lon="3.12462">
        <ele>221.80000305176</ele>
        <time>2018-09-27T15:11:20Z</time>
      </trkpt>
      <trkpt lat="43.59647" lon="3.12537">
        <ele>221.80000305176</ele>
        <time>2018-09-27T15:11:35Z</time>
      </trkpt>
      <trkpt lat="43.59653" lon="3.12615">
        <ele>222.60000610352</ele>
        <time>2018-09-27T15:11:51Z</time>
      </trkpt>
      <trkpt lat="43.59656" lon="3.12651">
        <ele>223</ele>
        <time>2018-09-27T15:11:59Z</time>
      </trkpt>
      <trkpt lat="43.5965" lon="3.12725">
        <ele>223.60000610352</ele>
        <time>2018-09-27T15:12:16Z</time>
      </trkpt>
      <trkpt lat="43.59651" lon="3.12737">
        <ele>224.19999694824</ele>
        <time>2018-09-27T15:12:19Z</time>
      </trkpt>
      <trkpt lat="43.59651" lon="3.12754">
        <ele>225.39999389648</ele>
        <time>2018-09-27T15:12:23Z</time>
      </trkpt>
      <trkpt lat="43.5965" lon="3.12757">
        <ele>225.60000610352</ele>
        <time>2018-09-27T15:12:24Z</time>
      </trkpt>
      <trkpt lat="43.59642" lon="3.12761">
        <ele>226.60000610352</ele>
        <time>2018-09-27T15:12:27Z</time>
      </trkpt>
      <trkpt lat="43.59638" lon="3.12762">
        <ele>227.19999694824</ele>
        <time>2018-09-27T15:12:28Z</time>
      </trkpt>
      <trkpt lat="43.59629" lon="3.12762">
        <ele>227.80000305176</ele>
        <time>2018-09-27T15:12:31Z</time>
      </trkpt>
      <trkpt lat="43.59589" lon="3.12793">
        <ele>226.60000610352</ele>
        <time>2018-09-27T15:12:44Z</time>
      </trkpt>
      <trkpt lat="43.59579" lon="3.12801">
        <ele>225.39999389648</ele>
        <time>2018-09-27T15:12:48Z</time>
      </trkpt>
      <trkpt lat="43.59576" lon="3.12804">
        <ele>224.39999389648</ele>
        <time>2018-09-27T15:12:51Z</time>
      </trkpt>
      <trkpt lat="43.59576" lon="3.12805">
        <ele>223.39999389648</ele>
        <time>2018-09-27T15:12:55Z</time>
      </trkpt>
      <trkpt lat="43.59576" lon="3.12805">
        <ele>223</ele>
        <time>2018-09-27T15:12:58Z</time>
      </trkpt>
    </trkseg>
  </trk>
</gpx>